<?xml version="1.0" encoding="UTF-8" standalone="no" ?>
<gpx xmlns="http://www.topografix.com/GPX/1/1" xmlns:xsi="http://www.w3.org/2001/XMLSchema-instance" xsi:schemaLocation="http://www.topografix.com/GPX/1/1 http://www.topografix.com/GPX/1/1/gpx.xsd" version="1.1" creator="VisuGPX - https://www.visugpx.com">
  <metadata>
    <name>Salaye ( Usson-en Forez) via Sauvessanges</name>
    <desc><![CDATA[28/08/2022]]></desc>
  </metadata>
  <trk>
    <name><![CDATA[2022-08-28 17:06:36]]></name>
    <extensions>
      <line xmlns="http://www.topografix.com/GPX/gpx_style/0/2">
        <color>0000FF</color>
        <width>4</width>
      </line>
    </extensions>
    <trkseg>
      <trkpt lat="45.42236" lon="3.9142">
        <ele>832.16</ele>
        <time>2022-08-27T15:53:14Z</time>
      </trkpt>
      <trkpt lat="45.42236" lon="3.9142">
        <ele>831.2</ele>
        <time>2022-08-27T15:53:26Z</time>
      </trkpt>
      <trkpt lat="45.42221" lon="3.91405">
        <ele>832.16</ele>
        <time>2022-08-28T07:54:58Z</time>
      </trkpt>
      <trkpt lat="45.4222" lon="3.91405">
        <ele>832.64</ele>
        <time>2022-08-28T07:55:26Z</time>
      </trkpt>
      <trkpt lat="45.4222" lon="3.91405">
        <ele>831.68</ele>
        <time>2022-08-28T07:55:53Z</time>
      </trkpt>
      <trkpt lat="45.42216" lon="3.91407">
        <ele>832.64</ele>
        <time>2022-08-28T07:56:12Z</time>
      </trkpt>
      <trkpt lat="45.42204" lon="3.9141">
        <ele>832.16</ele>
        <time>2022-08-28T07:56:27Z</time>
      </trkpt>
      <trkpt lat="45.4219" lon="3.91422">
        <ele>834.56</ele>
        <time>2022-08-28T07:56:47Z</time>
      </trkpt>
      <trkpt lat="45.42187" lon="3.91426">
        <ele>834.08</ele>
        <time>2022-08-28T07:57:02Z</time>
      </trkpt>
      <trkpt lat="45.42188" lon="3.91423">
        <ele>834.08</ele>
        <time>2022-08-28T07:57:30Z</time>
      </trkpt>
      <trkpt lat="45.42188" lon="3.9142">
        <ele>833.6</ele>
        <time>2022-08-28T07:57:34Z</time>
      </trkpt>
      <trkpt lat="45.4219" lon="3.91415">
        <ele>833.12</ele>
        <time>2022-08-28T07:57:39Z</time>
      </trkpt>
      <trkpt lat="45.42192" lon="3.91414">
        <ele>831.68</ele>
        <time>2022-08-28T07:57:58Z</time>
      </trkpt>
      <trkpt lat="45.42194" lon="3.91416">
        <ele>835.04</ele>
        <time>2022-08-28T07:58:31Z</time>
      </trkpt>
      <trkpt lat="45.42207" lon="3.91409">
        <ele>835.04</ele>
        <time>2022-08-28T07:58:48Z</time>
      </trkpt>
      <trkpt lat="45.42214" lon="3.91407">
        <ele>834.08</ele>
        <time>2022-08-28T07:59:05Z</time>
      </trkpt>
      <trkpt lat="45.42217" lon="3.91409">
        <ele>833.6</ele>
        <time>2022-08-28T07:59:27Z</time>
      </trkpt>
      <trkpt lat="45.42217" lon="3.91409">
        <ele>831.68</ele>
        <time>2022-08-28T07:59:56Z</time>
      </trkpt>
      <trkpt lat="45.42216" lon="3.91407">
        <ele>831.68</ele>
        <time>2022-08-28T08:00:18Z</time>
      </trkpt>
      <trkpt lat="45.42215" lon="3.91408">
        <ele>832.16</ele>
        <time>2022-08-28T08:00:31Z</time>
      </trkpt>
      <trkpt lat="45.4221" lon="3.91412">
        <ele>833.12</ele>
        <time>2022-08-28T08:00:38Z</time>
      </trkpt>
      <trkpt lat="45.42185" lon="3.91434">
        <ele>832.64</ele>
        <time>2022-08-28T08:00:59Z</time>
      </trkpt>
      <trkpt lat="45.42173" lon="3.91462">
        <ele>830.72</ele>
        <time>2022-08-28T08:01:15Z</time>
      </trkpt>
      <trkpt lat="45.42155" lon="3.9149">
        <ele>830.24</ele>
        <time>2022-08-28T08:01:34Z</time>
      </trkpt>
      <trkpt lat="45.42143" lon="3.91525">
        <ele>831.2</ele>
        <time>2022-08-28T08:01:53Z</time>
      </trkpt>
      <trkpt lat="45.42141" lon="3.91559">
        <ele>830.72</ele>
        <time>2022-08-28T08:02:11Z</time>
      </trkpt>
      <trkpt lat="45.42134" lon="3.91603">
        <ele>830.72</ele>
        <time>2022-08-28T08:02:34Z</time>
      </trkpt>
      <trkpt lat="45.42125" lon="3.91642">
        <ele>836</ele>
        <time>2022-08-28T08:02:54Z</time>
      </trkpt>
      <trkpt lat="45.42114" lon="3.91673">
        <ele>841.29</ele>
        <time>2022-08-28T08:03:12Z</time>
      </trkpt>
      <trkpt lat="45.42106" lon="3.91714">
        <ele>844.66</ele>
        <time>2022-08-28T08:03:35Z</time>
      </trkpt>
      <trkpt lat="45.421" lon="3.91753">
        <ele>848.02</ele>
        <time>2022-08-28T08:03:56Z</time>
      </trkpt>
      <trkpt lat="45.42094" lon="3.9179">
        <ele>849.94</ele>
        <time>2022-08-28T08:04:16Z</time>
      </trkpt>
      <trkpt lat="45.42095" lon="3.91791">
        <ele>850.42</ele>
        <time>2022-08-28T08:04:17Z</time>
      </trkpt>
      <trkpt lat="45.42098" lon="3.91796">
        <ele>850.9</ele>
        <time>2022-08-28T08:04:21Z</time>
      </trkpt>
      <trkpt lat="45.42116" lon="3.91821">
        <ele>851.38</ele>
        <time>2022-08-28T08:04:42Z</time>
      </trkpt>
      <trkpt lat="45.42129" lon="3.91846">
        <ele>851.38</ele>
        <time>2022-08-28T08:04:59Z</time>
      </trkpt>
      <trkpt lat="45.42144" lon="3.91874">
        <ele>850.9</ele>
        <time>2022-08-28T08:05:15Z</time>
      </trkpt>
      <trkpt lat="45.42166" lon="3.91894">
        <ele>851.38</ele>
        <time>2022-08-28T08:05:36Z</time>
      </trkpt>
      <trkpt lat="45.42192" lon="3.91903">
        <ele>852.83</ele>
        <time>2022-08-28T08:05:55Z</time>
      </trkpt>
      <trkpt lat="45.42218" lon="3.91913">
        <ele>852.35</ele>
        <time>2022-08-28T08:06:17Z</time>
      </trkpt>
      <trkpt lat="45.42227" lon="3.91918">
        <ele>852.35</ele>
        <time>2022-08-28T08:06:25Z</time>
      </trkpt>
      <trkpt lat="45.42247" lon="3.91936">
        <ele>851.38</ele>
        <time>2022-08-28T08:06:43Z</time>
      </trkpt>
      <trkpt lat="45.42262" lon="3.91961">
        <ele>850.42</ele>
        <time>2022-08-28T08:07:01Z</time>
      </trkpt>
      <trkpt lat="45.42287" lon="3.91979">
        <ele>851.38</ele>
        <time>2022-08-28T08:07:22Z</time>
      </trkpt>
      <trkpt lat="45.42315" lon="3.91988">
        <ele>852.83</ele>
        <time>2022-08-28T08:07:43Z</time>
      </trkpt>
      <trkpt lat="45.42347" lon="3.91969">
        <ele>853.31</ele>
        <time>2022-08-28T08:08:02Z</time>
      </trkpt>
      <trkpt lat="45.42369" lon="3.91955">
        <ele>854.75</ele>
        <time>2022-08-28T08:08:18Z</time>
      </trkpt>
      <trkpt lat="45.42375" lon="3.91943">
        <ele>857.63</ele>
        <time>2022-08-28T08:08:42Z</time>
      </trkpt>
      <trkpt lat="45.42384" lon="3.91937">
        <ele>857.63</ele>
        <time>2022-08-28T08:08:50Z</time>
      </trkpt>
      <trkpt lat="45.42392" lon="3.9193">
        <ele>857.63</ele>
        <time>2022-08-28T08:08:56Z</time>
      </trkpt>
      <trkpt lat="45.42441" lon="3.91927">
        <ele>860.52</ele>
        <time>2022-08-28T08:09:17Z</time>
      </trkpt>
      <trkpt lat="45.42457" lon="3.91945">
        <ele>866.77</ele>
        <time>2022-08-28T08:09:37Z</time>
      </trkpt>
      <trkpt lat="45.42455" lon="3.91968">
        <ele>871.09</ele>
        <time>2022-08-28T08:09:46Z</time>
      </trkpt>
      <trkpt lat="45.42439" lon="3.91998">
        <ele>872.53</ele>
        <time>2022-08-28T08:10:08Z</time>
      </trkpt>
      <trkpt lat="45.4245" lon="3.92025">
        <ele>878.78</ele>
        <time>2022-08-28T08:10:29Z</time>
      </trkpt>
      <trkpt lat="45.42467" lon="3.9204">
        <ele>885.03</ele>
        <time>2022-08-28T08:10:50Z</time>
      </trkpt>
      <trkpt lat="45.42482" lon="3.92034">
        <ele>888.88</ele>
        <time>2022-08-28T08:11:07Z</time>
      </trkpt>
      <trkpt lat="45.42512" lon="3.92036">
        <ele>888.88</ele>
        <time>2022-08-28T08:11:31Z</time>
      </trkpt>
      <trkpt lat="45.4253" lon="3.9203">
        <ele>885.51</ele>
        <time>2022-08-28T08:11:55Z</time>
      </trkpt>
      <trkpt lat="45.4256" lon="3.92036">
        <ele>881.19</ele>
        <time>2022-08-28T08:12:10Z</time>
      </trkpt>
      <trkpt lat="45.42574" lon="3.92049">
        <ele>880.71</ele>
        <time>2022-08-28T08:12:24Z</time>
      </trkpt>
      <trkpt lat="45.42576" lon="3.92066">
        <ele>878.3</ele>
        <time>2022-08-28T08:12:28Z</time>
      </trkpt>
      <trkpt lat="45.4258" lon="3.92112">
        <ele>880.71</ele>
        <time>2022-08-28T08:12:49Z</time>
      </trkpt>
      <trkpt lat="45.42578" lon="3.92146">
        <ele>877.34</ele>
        <time>2022-08-28T08:13:07Z</time>
      </trkpt>
      <trkpt lat="45.42549" lon="3.92173">
        <ele>873.5</ele>
        <time>2022-08-28T08:13:28Z</time>
      </trkpt>
      <trkpt lat="45.42528" lon="3.92186">
        <ele>885.99</ele>
        <time>2022-08-28T08:13:51Z</time>
      </trkpt>
      <trkpt lat="45.42507" lon="3.92195">
        <ele>894.16</ele>
        <time>2022-08-28T08:14:14Z</time>
      </trkpt>
      <trkpt lat="45.42493" lon="3.92213">
        <ele>899.93</ele>
        <time>2022-08-28T08:14:38Z</time>
      </trkpt>
      <trkpt lat="45.42511" lon="3.9223">
        <ele>905.22</ele>
        <time>2022-08-28T08:14:59Z</time>
      </trkpt>
      <trkpt lat="45.42525" lon="3.92268">
        <ele>909.06</ele>
        <time>2022-08-28T08:15:21Z</time>
      </trkpt>
      <trkpt lat="45.42532" lon="3.92306">
        <ele>907.14</ele>
        <time>2022-08-28T08:15:43Z</time>
      </trkpt>
      <trkpt lat="45.42542" lon="3.92353">
        <ele>906.66</ele>
        <time>2022-08-28T08:16:08Z</time>
      </trkpt>
      <trkpt lat="45.4255" lon="3.92384">
        <ele>907.62</ele>
        <time>2022-08-28T08:16:25Z</time>
      </trkpt>
      <trkpt lat="45.42532" lon="3.92406">
        <ele>906.66</ele>
        <time>2022-08-28T08:16:48Z</time>
      </trkpt>
      <trkpt lat="45.42518" lon="3.92413">
        <ele>905.22</ele>
        <time>2022-08-28T08:17:05Z</time>
      </trkpt>
      <trkpt lat="45.42497" lon="3.92433">
        <ele>904.74</ele>
        <time>2022-08-28T08:17:25Z</time>
      </trkpt>
      <trkpt lat="45.42479" lon="3.9245">
        <ele>906.66</ele>
        <time>2022-08-28T08:17:46Z</time>
      </trkpt>
      <trkpt lat="45.4245" lon="3.9246">
        <ele>910.03</ele>
        <time>2022-08-28T08:18:04Z</time>
      </trkpt>
      <trkpt lat="45.42418" lon="3.92463">
        <ele>913.39</ele>
        <time>2022-08-28T08:18:22Z</time>
      </trkpt>
      <trkpt lat="45.42408" lon="3.92465">
        <ele>912.91</ele>
        <time>2022-08-28T08:18:29Z</time>
      </trkpt>
      <trkpt lat="45.42378" lon="3.9248">
        <ele>910.99</ele>
        <time>2022-08-28T08:18:51Z</time>
      </trkpt>
      <trkpt lat="45.42349" lon="3.92492">
        <ele>915.79</ele>
        <time>2022-08-28T08:19:12Z</time>
      </trkpt>
      <trkpt lat="45.42325" lon="3.92502">
        <ele>919.16</ele>
        <time>2022-08-28T08:19:34Z</time>
      </trkpt>
      <trkpt lat="45.42304" lon="3.92508">
        <ele>915.31</ele>
        <time>2022-08-28T08:19:51Z</time>
      </trkpt>
      <trkpt lat="45.42267" lon="3.92527">
        <ele>912.43</ele>
        <time>2022-08-28T08:20:13Z</time>
      </trkpt>
      <trkpt lat="45.42243" lon="3.9254">
        <ele>913.39</ele>
        <time>2022-08-28T08:20:32Z</time>
      </trkpt>
      <trkpt lat="45.42218" lon="3.92538">
        <ele>915.31</ele>
        <time>2022-08-28T08:20:48Z</time>
      </trkpt>
      <trkpt lat="45.42215" lon="3.92537">
        <ele>915.31</ele>
        <time>2022-08-28T08:20:51Z</time>
      </trkpt>
      <trkpt lat="45.42185" lon="3.92538">
        <ele>915.79</ele>
        <time>2022-08-28T08:21:11Z</time>
      </trkpt>
      <trkpt lat="45.42158" lon="3.92542">
        <ele>917.24</ele>
        <time>2022-08-28T08:21:30Z</time>
      </trkpt>
      <trkpt lat="45.42134" lon="3.92545">
        <ele>917.72</ele>
        <time>2022-08-28T08:21:48Z</time>
      </trkpt>
      <trkpt lat="45.42113" lon="3.92546">
        <ele>920.6</ele>
        <time>2022-08-28T08:22:07Z</time>
      </trkpt>
      <trkpt lat="45.42099" lon="3.9256">
        <ele>922.52</ele>
        <time>2022-08-28T08:22:25Z</time>
      </trkpt>
      <trkpt lat="45.42083" lon="3.92564">
        <ele>923</ele>
        <time>2022-08-28T08:22:41Z</time>
      </trkpt>
      <trkpt lat="45.42066" lon="3.92567">
        <ele>922.04</ele>
        <time>2022-08-28T08:22:58Z</time>
      </trkpt>
      <trkpt lat="45.42046" lon="3.92572">
        <ele>917.24</ele>
        <time>2022-08-28T08:23:18Z</time>
      </trkpt>
      <trkpt lat="45.42033" lon="3.92564">
        <ele>915.79</ele>
        <time>2022-08-28T08:23:35Z</time>
      </trkpt>
      <trkpt lat="45.42008" lon="3.92572">
        <ele>911.47</ele>
        <time>2022-08-28T08:23:52Z</time>
      </trkpt>
      <trkpt lat="45.41982" lon="3.92585">
        <ele>907.62</ele>
        <time>2022-08-28T08:24:11Z</time>
      </trkpt>
      <trkpt lat="45.41955" lon="3.92596">
        <ele>910.03</ele>
        <time>2022-08-28T08:24:28Z</time>
      </trkpt>
      <trkpt lat="45.41929" lon="3.92602">
        <ele>910.03</ele>
        <time>2022-08-28T08:24:48Z</time>
      </trkpt>
      <trkpt lat="45.4191" lon="3.92608">
        <ele>905.7</ele>
        <time>2022-08-28T08:25:10Z</time>
      </trkpt>
      <trkpt lat="45.41892" lon="3.9264">
        <ele>905.22</ele>
        <time>2022-08-28T08:25:33Z</time>
      </trkpt>
      <trkpt lat="45.41875" lon="3.92661">
        <ele>903.78</ele>
        <time>2022-08-28T08:25:55Z</time>
      </trkpt>
      <trkpt lat="45.41855" lon="3.92678">
        <ele>900.41</ele>
        <time>2022-08-28T08:26:18Z</time>
      </trkpt>
      <trkpt lat="45.4184" lon="3.92684">
        <ele>898.01</ele>
        <time>2022-08-28T08:26:36Z</time>
      </trkpt>
      <trkpt lat="45.41825" lon="3.92716">
        <ele>895.12</ele>
        <time>2022-08-28T08:26:56Z</time>
      </trkpt>
      <trkpt lat="45.41811" lon="3.9275">
        <ele>896.57</ele>
        <time>2022-08-28T08:27:15Z</time>
      </trkpt>
      <trkpt lat="45.41792" lon="3.9277">
        <ele>894.64</ele>
        <time>2022-08-28T08:27:35Z</time>
      </trkpt>
      <trkpt lat="45.4178" lon="3.92796">
        <ele>890.8</ele>
        <time>2022-08-28T08:27:56Z</time>
      </trkpt>
      <trkpt lat="45.41768" lon="3.92819">
        <ele>890.8</ele>
        <time>2022-08-28T08:28:10Z</time>
      </trkpt>
      <trkpt lat="45.41761" lon="3.92818">
        <ele>890.8</ele>
        <time>2022-08-28T08:28:14Z</time>
      </trkpt>
      <trkpt lat="45.41729" lon="3.92809">
        <ele>888.4</ele>
        <time>2022-08-28T08:28:31Z</time>
      </trkpt>
      <trkpt lat="45.417" lon="3.92807">
        <ele>887.91</ele>
        <time>2022-08-28T08:28:51Z</time>
      </trkpt>
      <trkpt lat="45.41676" lon="3.92812">
        <ele>886.47</ele>
        <time>2022-08-28T08:29:09Z</time>
      </trkpt>
      <trkpt lat="45.41664" lon="3.92839">
        <ele>887.43</ele>
        <time>2022-08-28T08:29:27Z</time>
      </trkpt>
      <trkpt lat="45.4166" lon="3.92855">
        <ele>886.95</ele>
        <time>2022-08-28T08:29:37Z</time>
      </trkpt>
      <trkpt lat="45.41655" lon="3.92886">
        <ele>886.95</ele>
        <time>2022-08-28T08:29:55Z</time>
      </trkpt>
      <trkpt lat="45.41646" lon="3.92917">
        <ele>887.43</ele>
        <time>2022-08-28T08:30:12Z</time>
      </trkpt>
      <trkpt lat="45.41634" lon="3.92955">
        <ele>887.91</ele>
        <time>2022-08-28T08:30:32Z</time>
      </trkpt>
      <trkpt lat="45.41623" lon="3.9298">
        <ele>888.4</ele>
        <time>2022-08-28T08:30:50Z</time>
      </trkpt>
      <trkpt lat="45.41615" lon="3.93011">
        <ele>887.43</ele>
        <time>2022-08-28T08:31:09Z</time>
      </trkpt>
      <trkpt lat="45.41606" lon="3.93045">
        <ele>887.91</ele>
        <time>2022-08-28T08:31:30Z</time>
      </trkpt>
      <trkpt lat="45.41601" lon="3.93077">
        <ele>886.47</ele>
        <time>2022-08-28T08:31:49Z</time>
      </trkpt>
      <trkpt lat="45.41598" lon="3.9311">
        <ele>884.07</ele>
        <time>2022-08-28T08:32:08Z</time>
      </trkpt>
      <trkpt lat="45.41594" lon="3.93151">
        <ele>885.03</ele>
        <time>2022-08-28T08:32:29Z</time>
      </trkpt>
      <trkpt lat="45.41584" lon="3.93185">
        <ele>884.55</ele>
        <time>2022-08-28T08:32:46Z</time>
      </trkpt>
      <trkpt lat="45.41564" lon="3.93216">
        <ele>885.51</ele>
        <time>2022-08-28T08:33:05Z</time>
      </trkpt>
      <trkpt lat="45.41548" lon="3.93243">
        <ele>885.03</ele>
        <time>2022-08-28T08:33:25Z</time>
      </trkpt>
      <trkpt lat="45.41537" lon="3.93273">
        <ele>885.99</ele>
        <time>2022-08-28T08:33:43Z</time>
      </trkpt>
      <trkpt lat="45.41521" lon="3.93314">
        <ele>889.36</ele>
        <time>2022-08-28T08:34:07Z</time>
      </trkpt>
      <trkpt lat="45.41507" lon="3.93347">
        <ele>888.88</ele>
        <time>2022-08-28T08:34:33Z</time>
      </trkpt>
      <trkpt lat="45.41494" lon="3.93372">
        <ele>884.07</ele>
        <time>2022-08-28T08:34:52Z</time>
      </trkpt>
      <trkpt lat="45.41478" lon="3.9341">
        <ele>884.55</ele>
        <time>2022-08-28T08:35:15Z</time>
      </trkpt>
      <trkpt lat="45.41478" lon="3.93447">
        <ele>893.2</ele>
        <time>2022-08-28T08:35:36Z</time>
      </trkpt>
      <trkpt lat="45.41471" lon="3.93481">
        <ele>899.45</ele>
        <time>2022-08-28T08:35:59Z</time>
      </trkpt>
      <trkpt lat="45.41467" lon="3.93513">
        <ele>901.85</ele>
        <time>2022-08-28T08:36:18Z</time>
      </trkpt>
      <trkpt lat="45.41455" lon="3.93543">
        <ele>907.14</ele>
        <time>2022-08-28T08:36:40Z</time>
      </trkpt>
      <trkpt lat="45.41448" lon="3.93575">
        <ele>911.95</ele>
        <time>2022-08-28T08:37:02Z</time>
      </trkpt>
      <trkpt lat="45.41439" lon="3.93613">
        <ele>916.75</ele>
        <time>2022-08-28T08:37:24Z</time>
      </trkpt>
      <trkpt lat="45.41419" lon="3.93647">
        <ele>920.6</ele>
        <time>2022-08-28T08:37:47Z</time>
      </trkpt>
      <trkpt lat="45.41403" lon="3.93683">
        <ele>920.6</ele>
        <time>2022-08-28T08:38:09Z</time>
      </trkpt>
      <trkpt lat="45.41389" lon="3.93706">
        <ele>924.93</ele>
        <time>2022-08-28T08:38:26Z</time>
      </trkpt>
      <trkpt lat="45.41371" lon="3.93735">
        <ele>925.89</ele>
        <time>2022-08-28T08:38:43Z</time>
      </trkpt>
      <trkpt lat="45.41347" lon="3.93759">
        <ele>925.41</ele>
        <time>2022-08-28T08:39:07Z</time>
      </trkpt>
      <trkpt lat="45.41325" lon="3.93783">
        <ele>924.45</ele>
        <time>2022-08-28T08:39:29Z</time>
      </trkpt>
      <trkpt lat="45.41303" lon="3.93804">
        <ele>925.41</ele>
        <time>2022-08-28T08:39:47Z</time>
      </trkpt>
      <trkpt lat="45.41302" lon="3.93805">
        <ele>925.41</ele>
        <time>2022-08-28T08:39:48Z</time>
      </trkpt>
      <trkpt lat="45.4128" lon="3.93833">
        <ele>931.65</ele>
        <time>2022-08-28T08:40:11Z</time>
      </trkpt>
      <trkpt lat="45.41272" lon="3.93868">
        <ele>932.14</ele>
        <time>2022-08-28T08:40:34Z</time>
      </trkpt>
      <trkpt lat="45.41268" lon="3.939">
        <ele>932.62</ele>
        <time>2022-08-28T08:40:52Z</time>
      </trkpt>
      <trkpt lat="45.41244" lon="3.93927">
        <ele>937.9</ele>
        <time>2022-08-28T08:41:10Z</time>
      </trkpt>
      <trkpt lat="45.41229" lon="3.93962">
        <ele>943.67</ele>
        <time>2022-08-28T08:41:32Z</time>
      </trkpt>
      <trkpt lat="45.41229" lon="3.93968">
        <ele>943.67</ele>
        <time>2022-08-28T08:41:35Z</time>
      </trkpt>
      <trkpt lat="45.41213" lon="3.93994">
        <ele>943.19</ele>
        <time>2022-08-28T08:41:51Z</time>
      </trkpt>
      <trkpt lat="45.41198" lon="3.94009">
        <ele>944.15</ele>
        <time>2022-08-28T08:42:05Z</time>
      </trkpt>
      <trkpt lat="45.41177" lon="3.94026">
        <ele>942.71</ele>
        <time>2022-08-28T08:42:23Z</time>
      </trkpt>
      <trkpt lat="45.41149" lon="3.94037">
        <ele>939.35</ele>
        <time>2022-08-28T08:42:43Z</time>
      </trkpt>
      <trkpt lat="45.41145" lon="3.94053">
        <ele>940.79</ele>
        <time>2022-08-28T08:42:51Z</time>
      </trkpt>
      <trkpt lat="45.41142" lon="3.94097">
        <ele>947.04</ele>
        <time>2022-08-28T08:43:08Z</time>
      </trkpt>
      <trkpt lat="45.41137" lon="3.94124">
        <ele>943.67</ele>
        <time>2022-08-28T08:43:25Z</time>
      </trkpt>
      <trkpt lat="45.41123" lon="3.94164">
        <ele>942.71</ele>
        <time>2022-08-28T08:43:48Z</time>
      </trkpt>
      <trkpt lat="45.41103" lon="3.9417">
        <ele>965.3</ele>
        <time>2022-08-28T08:44:07Z</time>
      </trkpt>
      <trkpt lat="45.41088" lon="3.94159">
        <ele>990.3</ele>
        <time>2022-08-28T08:44:24Z</time>
      </trkpt>
      <trkpt lat="45.41068" lon="3.94123">
        <ele>998.47</ele>
        <time>2022-08-28T08:44:44Z</time>
      </trkpt>
      <trkpt lat="45.41055" lon="3.94105">
        <ele>1000.87</ele>
        <time>2022-08-28T08:45:04Z</time>
      </trkpt>
      <trkpt lat="45.41036" lon="3.94071">
        <ele>1000.87</ele>
        <time>2022-08-28T08:45:27Z</time>
      </trkpt>
      <trkpt lat="45.41014" lon="3.94056">
        <ele>1003.75</ele>
        <time>2022-08-28T08:45:50Z</time>
      </trkpt>
      <trkpt lat="45.40992" lon="3.94045">
        <ele>1006.64</ele>
        <time>2022-08-28T08:46:07Z</time>
      </trkpt>
      <trkpt lat="45.40972" lon="3.9403">
        <ele>1010</ele>
        <time>2022-08-28T08:46:28Z</time>
      </trkpt>
      <trkpt lat="45.40949" lon="3.94014">
        <ele>1009.04</ele>
        <time>2022-08-28T08:46:51Z</time>
      </trkpt>
      <trkpt lat="45.40921" lon="3.93998">
        <ele>1004.23</ele>
        <time>2022-08-28T08:47:11Z</time>
      </trkpt>
      <trkpt lat="45.4089" lon="3.93981">
        <ele>996.54</ele>
        <time>2022-08-28T08:47:32Z</time>
      </trkpt>
      <trkpt lat="45.40877" lon="3.93975">
        <ele>996.06</ele>
        <time>2022-08-28T08:47:53Z</time>
      </trkpt>
      <trkpt lat="45.40843" lon="3.93958">
        <ele>994.62</ele>
        <time>2022-08-28T08:48:15Z</time>
      </trkpt>
      <trkpt lat="45.40822" lon="3.93952">
        <ele>992.22</ele>
        <time>2022-08-28T08:48:37Z</time>
      </trkpt>
      <trkpt lat="45.40793" lon="3.93958">
        <ele>989.81</ele>
        <time>2022-08-28T08:48:58Z</time>
      </trkpt>
      <trkpt lat="45.40769" lon="3.93959">
        <ele>984.53</ele>
        <time>2022-08-28T08:49:19Z</time>
      </trkpt>
      <trkpt lat="45.40742" lon="3.93959">
        <ele>984.05</ele>
        <time>2022-08-28T08:49:40Z</time>
      </trkpt>
      <trkpt lat="45.40715" lon="3.93946">
        <ele>985.01</ele>
        <time>2022-08-28T08:49:55Z</time>
      </trkpt>
      <trkpt lat="45.40696" lon="3.93929">
        <ele>981.16</ele>
        <time>2022-08-28T08:50:10Z</time>
      </trkpt>
      <trkpt lat="45.40677" lon="3.9392">
        <ele>980.68</ele>
        <time>2022-08-28T08:50:25Z</time>
      </trkpt>
      <trkpt lat="45.40654" lon="3.93903">
        <ele>980.2</ele>
        <time>2022-08-28T08:50:41Z</time>
      </trkpt>
      <trkpt lat="45.40634" lon="3.93898">
        <ele>978.76</ele>
        <time>2022-08-28T08:50:56Z</time>
      </trkpt>
      <trkpt lat="45.40612" lon="3.93895">
        <ele>979.72</ele>
        <time>2022-08-28T08:51:13Z</time>
      </trkpt>
      <trkpt lat="45.40587" lon="3.93887">
        <ele>982.6</ele>
        <time>2022-08-28T08:51:31Z</time>
      </trkpt>
      <trkpt lat="45.40562" lon="3.93879">
        <ele>983.57</ele>
        <time>2022-08-28T08:51:48Z</time>
      </trkpt>
      <trkpt lat="45.40539" lon="3.93874">
        <ele>985.01</ele>
        <time>2022-08-28T08:52:05Z</time>
      </trkpt>
      <trkpt lat="45.4052" lon="3.93877">
        <ele>987.41</ele>
        <time>2022-08-28T08:52:22Z</time>
      </trkpt>
      <trkpt lat="45.40493" lon="3.9389">
        <ele>986.93</ele>
        <time>2022-08-28T08:52:43Z</time>
      </trkpt>
      <trkpt lat="45.40469" lon="3.93899">
        <ele>985.97</ele>
        <time>2022-08-28T08:53:06Z</time>
      </trkpt>
      <trkpt lat="45.40452" lon="3.93908">
        <ele>986.45</ele>
        <time>2022-08-28T08:53:26Z</time>
      </trkpt>
      <trkpt lat="45.40429" lon="3.93905">
        <ele>982.6</ele>
        <time>2022-08-28T08:53:46Z</time>
      </trkpt>
      <trkpt lat="45.40412" lon="3.93898">
        <ele>979.72</ele>
        <time>2022-08-28T08:54:02Z</time>
      </trkpt>
      <trkpt lat="45.40398" lon="3.93894">
        <ele>977.32</ele>
        <time>2022-08-28T08:54:18Z</time>
      </trkpt>
      <trkpt lat="45.40384" lon="3.93889">
        <ele>977.32</ele>
        <time>2022-08-28T08:54:33Z</time>
      </trkpt>
      <trkpt lat="45.4037" lon="3.9388">
        <ele>974.91</ele>
        <time>2022-08-28T08:54:46Z</time>
      </trkpt>
      <trkpt lat="45.40358" lon="3.93872">
        <ele>975.88</ele>
        <time>2022-08-28T08:54:59Z</time>
      </trkpt>
      <trkpt lat="45.40342" lon="3.93866">
        <ele>978.28</ele>
        <time>2022-08-28T08:55:14Z</time>
      </trkpt>
      <trkpt lat="45.40329" lon="3.9385">
        <ele>975.39</ele>
        <time>2022-08-28T08:55:31Z</time>
      </trkpt>
      <trkpt lat="45.40317" lon="3.93826">
        <ele>974.43</ele>
        <time>2022-08-28T08:55:47Z</time>
      </trkpt>
      <trkpt lat="45.40295" lon="3.93796">
        <ele>972.51</ele>
        <time>2022-08-28T08:56:07Z</time>
      </trkpt>
      <trkpt lat="45.40277" lon="3.93776">
        <ele>971.07</ele>
        <time>2022-08-28T08:56:25Z</time>
      </trkpt>
      <trkpt lat="45.40271" lon="3.93756">
        <ele>969.63</ele>
        <time>2022-08-28T08:56:41Z</time>
      </trkpt>
      <trkpt lat="45.40271" lon="3.93757">
        <ele>968.18</ele>
        <time>2022-08-28T08:56:59Z</time>
      </trkpt>
      <trkpt lat="45.40259" lon="3.93761">
        <ele>965.3</ele>
        <time>2022-08-28T08:57:16Z</time>
      </trkpt>
      <trkpt lat="45.40234" lon="3.93754">
        <ele>959.53</ele>
        <time>2022-08-28T08:57:38Z</time>
      </trkpt>
      <trkpt lat="45.40214" lon="3.93753">
        <ele>958.09</ele>
        <time>2022-08-28T08:57:54Z</time>
      </trkpt>
      <trkpt lat="45.40188" lon="3.93754">
        <ele>957.61</ele>
        <time>2022-08-28T08:58:12Z</time>
      </trkpt>
      <trkpt lat="45.40163" lon="3.93756">
        <ele>957.13</ele>
        <time>2022-08-28T08:58:30Z</time>
      </trkpt>
      <trkpt lat="45.40131" lon="3.93767">
        <ele>956.65</ele>
        <time>2022-08-28T08:58:51Z</time>
      </trkpt>
      <trkpt lat="45.40108" lon="3.93791">
        <ele>956.17</ele>
        <time>2022-08-28T08:59:12Z</time>
      </trkpt>
      <trkpt lat="45.40091" lon="3.93823">
        <ele>955.69</ele>
        <time>2022-08-28T08:59:33Z</time>
      </trkpt>
      <trkpt lat="45.40091" lon="3.93825">
        <ele>955.69</ele>
        <time>2022-08-28T08:59:34Z</time>
      </trkpt>
      <trkpt lat="45.40071" lon="3.9385">
        <ele>955.69</ele>
        <time>2022-08-28T08:59:55Z</time>
      </trkpt>
      <trkpt lat="45.40052" lon="3.93873">
        <ele>954.73</ele>
        <time>2022-08-28T09:00:13Z</time>
      </trkpt>
      <trkpt lat="45.40029" lon="3.93892">
        <ele>955.69</ele>
        <time>2022-08-28T09:00:33Z</time>
      </trkpt>
      <trkpt lat="45.40005" lon="3.93907">
        <ele>954.73</ele>
        <time>2022-08-28T09:00:54Z</time>
      </trkpt>
      <trkpt lat="45.39984" lon="3.9392">
        <ele>954.73</ele>
        <time>2022-08-28T09:01:14Z</time>
      </trkpt>
      <trkpt lat="45.39963" lon="3.93939">
        <ele>951.84</ele>
        <time>2022-08-28T09:01:33Z</time>
      </trkpt>
      <trkpt lat="45.39945" lon="3.9397">
        <ele>949.92</ele>
        <time>2022-08-28T09:01:54Z</time>
      </trkpt>
      <trkpt lat="45.39937" lon="3.93999">
        <ele>950.88</ele>
        <time>2022-08-28T09:02:12Z</time>
      </trkpt>
      <trkpt lat="45.39929" lon="3.94023">
        <ele>949.92</ele>
        <time>2022-08-28T09:02:28Z</time>
      </trkpt>
      <trkpt lat="45.39918" lon="3.94046">
        <ele>949.92</ele>
        <time>2022-08-28T09:02:45Z</time>
      </trkpt>
      <trkpt lat="45.39899" lon="3.94073">
        <ele>947.52</ele>
        <time>2022-08-28T09:03:05Z</time>
      </trkpt>
      <trkpt lat="45.39885" lon="3.94093">
        <ele>946.56</ele>
        <time>2022-08-28T09:03:20Z</time>
      </trkpt>
      <trkpt lat="45.39869" lon="3.94114">
        <ele>947.04</ele>
        <time>2022-08-28T09:03:36Z</time>
      </trkpt>
      <trkpt lat="45.39855" lon="3.94137">
        <ele>946.56</ele>
        <time>2022-08-28T09:03:54Z</time>
      </trkpt>
      <trkpt lat="45.39842" lon="3.9416">
        <ele>947.52</ele>
        <time>2022-08-28T09:04:11Z</time>
      </trkpt>
      <trkpt lat="45.39829" lon="3.94186">
        <ele>946.56</ele>
        <time>2022-08-28T09:04:31Z</time>
      </trkpt>
      <trkpt lat="45.39822" lon="3.94206">
        <ele>945.11</ele>
        <time>2022-08-28T09:04:48Z</time>
      </trkpt>
      <trkpt lat="45.3981" lon="3.94226">
        <ele>943.67</ele>
        <time>2022-08-28T09:05:05Z</time>
      </trkpt>
      <trkpt lat="45.39798" lon="3.94248">
        <ele>941.27</ele>
        <time>2022-08-28T09:05:22Z</time>
      </trkpt>
      <trkpt lat="45.39783" lon="3.94273">
        <ele>939.83</ele>
        <time>2022-08-28T09:05:41Z</time>
      </trkpt>
      <trkpt lat="45.39767" lon="3.94291">
        <ele>939.35</ele>
        <time>2022-08-28T09:05:57Z</time>
      </trkpt>
      <trkpt lat="45.39751" lon="3.94312">
        <ele>938.38</ele>
        <time>2022-08-28T09:06:14Z</time>
      </trkpt>
      <trkpt lat="45.39734" lon="3.94337">
        <ele>937.42</ele>
        <time>2022-08-28T09:06:31Z</time>
      </trkpt>
      <trkpt lat="45.39719" lon="3.94361">
        <ele>937.42</ele>
        <time>2022-08-28T09:06:48Z</time>
      </trkpt>
      <trkpt lat="45.39706" lon="3.94386">
        <ele>936.46</ele>
        <time>2022-08-28T09:07:05Z</time>
      </trkpt>
      <trkpt lat="45.39693" lon="3.94415">
        <ele>935.98</ele>
        <time>2022-08-28T09:07:23Z</time>
      </trkpt>
      <trkpt lat="45.39684" lon="3.94443">
        <ele>935.98</ele>
        <time>2022-08-28T09:07:41Z</time>
      </trkpt>
      <trkpt lat="45.39674" lon="3.94467">
        <ele>936.46</ele>
        <time>2022-08-28T09:07:56Z</time>
      </trkpt>
      <trkpt lat="45.39659" lon="3.94492">
        <ele>935.98</ele>
        <time>2022-08-28T09:08:14Z</time>
      </trkpt>
      <trkpt lat="45.3965" lon="3.94511">
        <ele>936.94</ele>
        <time>2022-08-28T09:08:29Z</time>
      </trkpt>
      <trkpt lat="45.39646" lon="3.94532">
        <ele>937.42</ele>
        <time>2022-08-28T09:08:44Z</time>
      </trkpt>
      <trkpt lat="45.39628" lon="3.94551">
        <ele>936.94</ele>
        <time>2022-08-28T09:09:03Z</time>
      </trkpt>
      <trkpt lat="45.39622" lon="3.94553">
        <ele>937.42</ele>
        <time>2022-08-28T09:09:08Z</time>
      </trkpt>
      <trkpt lat="45.39598" lon="3.94542">
        <ele>939.83</ele>
        <time>2022-08-28T09:09:27Z</time>
      </trkpt>
      <trkpt lat="45.39591" lon="3.94541">
        <ele>938.86</ele>
        <time>2022-08-28T09:09:33Z</time>
      </trkpt>
      <trkpt lat="45.39594" lon="3.94559">
        <ele>934.54</ele>
        <time>2022-08-28T09:09:48Z</time>
      </trkpt>
      <trkpt lat="45.39599" lon="3.94596">
        <ele>934.54</ele>
        <time>2022-08-28T09:10:10Z</time>
      </trkpt>
      <trkpt lat="45.39604" lon="3.94625">
        <ele>930.69</ele>
        <time>2022-08-28T09:10:28Z</time>
      </trkpt>
      <trkpt lat="45.39613" lon="3.94656">
        <ele>928.77</ele>
        <time>2022-08-28T09:10:49Z</time>
      </trkpt>
      <trkpt lat="45.39612" lon="3.94668">
        <ele>927.81</ele>
        <time>2022-08-28T09:10:58Z</time>
      </trkpt>
      <trkpt lat="45.3961" lon="3.94675">
        <ele>927.33</ele>
        <time>2022-08-28T09:11:02Z</time>
      </trkpt>
      <trkpt lat="45.396" lon="3.94701">
        <ele>925.41</ele>
        <time>2022-08-28T09:11:19Z</time>
      </trkpt>
      <trkpt lat="45.39584" lon="3.94724">
        <ele>923</ele>
        <time>2022-08-28T09:11:37Z</time>
      </trkpt>
      <trkpt lat="45.39569" lon="3.94746">
        <ele>921.08</ele>
        <time>2022-08-28T09:11:54Z</time>
      </trkpt>
      <trkpt lat="45.39555" lon="3.94772">
        <ele>918.68</ele>
        <time>2022-08-28T09:12:12Z</time>
      </trkpt>
      <trkpt lat="45.39549" lon="3.94798">
        <ele>917.72</ele>
        <time>2022-08-28T09:12:28Z</time>
      </trkpt>
      <trkpt lat="45.39542" lon="3.94822">
        <ele>916.27</ele>
        <time>2022-08-28T09:12:43Z</time>
      </trkpt>
      <trkpt lat="45.39536" lon="3.94851">
        <ele>914.35</ele>
        <time>2022-08-28T09:12:59Z</time>
      </trkpt>
      <trkpt lat="45.39533" lon="3.94882">
        <ele>912.91</ele>
        <time>2022-08-28T09:13:18Z</time>
      </trkpt>
      <trkpt lat="45.39532" lon="3.94909">
        <ele>911.47</ele>
        <time>2022-08-28T09:13:34Z</time>
      </trkpt>
      <trkpt lat="45.39525" lon="3.94936">
        <ele>910.99</ele>
        <time>2022-08-28T09:13:51Z</time>
      </trkpt>
      <trkpt lat="45.39513" lon="3.94966">
        <ele>909.54</ele>
        <time>2022-08-28T09:14:11Z</time>
      </trkpt>
      <trkpt lat="45.39506" lon="3.94991">
        <ele>910.03</ele>
        <time>2022-08-28T09:14:26Z</time>
      </trkpt>
      <trkpt lat="45.39497" lon="3.9502">
        <ele>909.06</ele>
        <time>2022-08-28T09:14:43Z</time>
      </trkpt>
      <trkpt lat="45.39492" lon="3.95049">
        <ele>909.06</ele>
        <time>2022-08-28T09:14:59Z</time>
      </trkpt>
      <trkpt lat="45.39491" lon="3.95064">
        <ele>908.58</ele>
        <time>2022-08-28T09:15:04Z</time>
      </trkpt>
      <trkpt lat="45.3949" lon="3.95066">
        <ele>908.58</ele>
        <time>2022-08-28T09:15:05Z</time>
      </trkpt>
      <trkpt lat="45.39488" lon="3.95067">
        <ele>908.58</ele>
        <time>2022-08-28T09:15:06Z</time>
      </trkpt>
      <trkpt lat="45.39475" lon="3.95076">
        <ele>907.62</ele>
        <time>2022-08-28T09:15:16Z</time>
      </trkpt>
      <trkpt lat="45.39474" lon="3.95077">
        <ele>907.62</ele>
        <time>2022-08-28T09:15:17Z</time>
      </trkpt>
      <trkpt lat="45.39461" lon="3.95106">
        <ele>907.14</ele>
        <time>2022-08-28T09:15:36Z</time>
      </trkpt>
      <trkpt lat="45.3946" lon="3.95108">
        <ele>907.14</ele>
        <time>2022-08-28T09:15:37Z</time>
      </trkpt>
      <trkpt lat="45.39459" lon="3.95109">
        <ele>906.66</ele>
        <time>2022-08-28T09:15:38Z</time>
      </trkpt>
      <trkpt lat="45.39459" lon="3.95111">
        <ele>906.66</ele>
        <time>2022-08-28T09:15:39Z</time>
      </trkpt>
      <trkpt lat="45.39458" lon="3.95112">
        <ele>906.66</ele>
        <time>2022-08-28T09:15:40Z</time>
      </trkpt>
      <trkpt lat="45.39457" lon="3.95114">
        <ele>906.66</ele>
        <time>2022-08-28T09:15:41Z</time>
      </trkpt>
      <trkpt lat="45.39437" lon="3.95144">
        <ele>905.22</ele>
        <time>2022-08-28T09:15:56Z</time>
      </trkpt>
      <trkpt lat="45.39419" lon="3.9517">
        <ele>906.66</ele>
        <time>2022-08-28T09:16:13Z</time>
      </trkpt>
      <trkpt lat="45.39411" lon="3.95202">
        <ele>904.74</ele>
        <time>2022-08-28T09:16:34Z</time>
      </trkpt>
      <trkpt lat="45.39405" lon="3.95237">
        <ele>903.3</ele>
        <time>2022-08-28T09:16:54Z</time>
      </trkpt>
      <trkpt lat="45.3939" lon="3.95262">
        <ele>904.74</ele>
        <time>2022-08-28T09:17:13Z</time>
      </trkpt>
      <trkpt lat="45.39383" lon="3.9527">
        <ele>903.78</ele>
        <time>2022-08-28T09:17:21Z</time>
      </trkpt>
      <trkpt lat="45.39364" lon="3.95292">
        <ele>902.82</ele>
        <time>2022-08-28T09:17:38Z</time>
      </trkpt>
      <trkpt lat="45.39345" lon="3.95316">
        <ele>902.82</ele>
        <time>2022-08-28T09:17:57Z</time>
      </trkpt>
      <trkpt lat="45.39327" lon="3.95342">
        <ele>905.7</ele>
        <time>2022-08-28T09:18:17Z</time>
      </trkpt>
      <trkpt lat="45.39321" lon="3.95363">
        <ele>904.74</ele>
        <time>2022-08-28T09:18:32Z</time>
      </trkpt>
      <trkpt lat="45.39319" lon="3.95369">
        <ele>905.22</ele>
        <time>2022-08-28T09:18:36Z</time>
      </trkpt>
      <trkpt lat="45.39311" lon="3.95396">
        <ele>905.22</ele>
        <time>2022-08-28T09:18:52Z</time>
      </trkpt>
      <trkpt lat="45.39301" lon="3.95417">
        <ele>903.3</ele>
        <time>2022-08-28T09:19:06Z</time>
      </trkpt>
      <trkpt lat="45.39276" lon="3.954">
        <ele>899.93</ele>
        <time>2022-08-28T09:19:20Z</time>
      </trkpt>
      <trkpt lat="45.39263" lon="3.95354">
        <ele>898.49</ele>
        <time>2022-08-28T09:19:35Z</time>
      </trkpt>
      <trkpt lat="45.3925" lon="3.95324">
        <ele>898.49</ele>
        <time>2022-08-28T09:19:48Z</time>
      </trkpt>
      <trkpt lat="45.39237" lon="3.95305">
        <ele>899.45</ele>
        <time>2022-08-28T09:20:02Z</time>
      </trkpt>
      <trkpt lat="45.39236" lon="3.95304">
        <ele>899.45</ele>
        <time>2022-08-28T09:20:03Z</time>
      </trkpt>
      <trkpt lat="45.39234" lon="3.95303">
        <ele>899.45</ele>
        <time>2022-08-28T09:20:04Z</time>
      </trkpt>
      <trkpt lat="45.39222" lon="3.953">
        <ele>899.93</ele>
        <time>2022-08-28T09:20:18Z</time>
      </trkpt>
      <trkpt lat="45.39221" lon="3.95299">
        <ele>899.93</ele>
        <time>2022-08-28T09:20:19Z</time>
      </trkpt>
      <trkpt lat="45.39202" lon="3.95269">
        <ele>901.37</ele>
        <time>2022-08-28T09:20:39Z</time>
      </trkpt>
      <trkpt lat="45.39191" lon="3.95235">
        <ele>906.66</ele>
        <time>2022-08-28T09:20:56Z</time>
      </trkpt>
      <trkpt lat="45.39187" lon="3.95211">
        <ele>907.14</ele>
        <time>2022-08-28T09:21:13Z</time>
      </trkpt>
      <trkpt lat="45.3918" lon="3.952">
        <ele>907.62</ele>
        <time>2022-08-28T09:21:26Z</time>
      </trkpt>
      <trkpt lat="45.39178" lon="3.95196">
        <ele>908.58</ele>
        <time>2022-08-28T09:21:29Z</time>
      </trkpt>
      <trkpt lat="45.39177" lon="3.95194">
        <ele>908.58</ele>
        <time>2022-08-28T09:21:30Z</time>
      </trkpt>
      <trkpt lat="45.39169" lon="3.95163">
        <ele>909.54</ele>
        <time>2022-08-28T09:21:46Z</time>
      </trkpt>
      <trkpt lat="45.39159" lon="3.95127">
        <ele>908.58</ele>
        <time>2022-08-28T09:22:04Z</time>
      </trkpt>
      <trkpt lat="45.39139" lon="3.95102">
        <ele>906.18</ele>
        <time>2022-08-28T09:22:23Z</time>
      </trkpt>
      <trkpt lat="45.39121" lon="3.95084">
        <ele>903.3</ele>
        <time>2022-08-28T09:22:38Z</time>
      </trkpt>
      <trkpt lat="45.39092" lon="3.95076">
        <ele>901.37</ele>
        <time>2022-08-28T09:22:55Z</time>
      </trkpt>
      <trkpt lat="45.39072" lon="3.95076">
        <ele>899.93</ele>
        <time>2022-08-28T09:23:10Z</time>
      </trkpt>
      <trkpt lat="45.39063" lon="3.95099">
        <ele>898.01</ele>
        <time>2022-08-28T09:23:26Z</time>
      </trkpt>
      <trkpt lat="45.39054" lon="3.95129">
        <ele>897.53</ele>
        <time>2022-08-28T09:23:42Z</time>
      </trkpt>
      <trkpt lat="45.39035" lon="3.95148">
        <ele>896.57</ele>
        <time>2022-08-28T09:23:56Z</time>
      </trkpt>
      <trkpt lat="45.3901" lon="3.95156">
        <ele>896.57</ele>
        <time>2022-08-28T09:24:14Z</time>
      </trkpt>
      <trkpt lat="45.39004" lon="3.95157">
        <ele>896.57</ele>
        <time>2022-08-28T09:24:18Z</time>
      </trkpt>
      <trkpt lat="45.38982" lon="3.95154">
        <ele>898.01</ele>
        <time>2022-08-28T09:24:35Z</time>
      </trkpt>
      <trkpt lat="45.38964" lon="3.95149">
        <ele>898.97</ele>
        <time>2022-08-28T09:24:50Z</time>
      </trkpt>
      <trkpt lat="45.38965" lon="3.95145">
        <ele>896.09</ele>
        <time>2022-08-28T09:25:14Z</time>
      </trkpt>
      <trkpt lat="45.38964" lon="3.95148">
        <ele>895.12</ele>
        <time>2022-08-28T09:25:31Z</time>
      </trkpt>
      <trkpt lat="45.38967" lon="3.95142">
        <ele>893.68</ele>
        <time>2022-08-28T09:25:53Z</time>
      </trkpt>
      <trkpt lat="45.38964" lon="3.95143">
        <ele>892.72</ele>
        <time>2022-08-28T09:26:14Z</time>
      </trkpt>
      <trkpt lat="45.38959" lon="3.95147">
        <ele>895.12</ele>
        <time>2022-08-28T09:26:36Z</time>
      </trkpt>
      <trkpt lat="45.38956" lon="3.95145">
        <ele>895.12</ele>
        <time>2022-08-28T09:26:44Z</time>
      </trkpt>
      <trkpt lat="45.38955" lon="3.95144">
        <ele>895.12</ele>
        <time>2022-08-28T09:26:45Z</time>
      </trkpt>
      <trkpt lat="45.38953" lon="3.95144">
        <ele>894.64</ele>
        <time>2022-08-28T09:26:47Z</time>
      </trkpt>
      <trkpt lat="45.38949" lon="3.95145">
        <ele>895.12</ele>
        <time>2022-08-28T09:27:03Z</time>
      </trkpt>
      <trkpt lat="45.38949" lon="3.95143">
        <ele>895.61</ele>
        <time>2022-08-28T09:27:33Z</time>
      </trkpt>
      <trkpt lat="45.38948" lon="3.95139">
        <ele>896.09</ele>
        <time>2022-08-28T09:27:46Z</time>
      </trkpt>
      <trkpt lat="45.38948" lon="3.95136">
        <ele>895.61</ele>
        <time>2022-08-28T09:28:06Z</time>
      </trkpt>
      <trkpt lat="45.38951" lon="3.95139">
        <ele>898.01</ele>
        <time>2022-08-28T09:28:23Z</time>
      </trkpt>
      <trkpt lat="45.38951" lon="3.95138">
        <ele>896.57</ele>
        <time>2022-08-28T09:28:44Z</time>
      </trkpt>
      <trkpt lat="45.38949" lon="3.95137">
        <ele>895.61</ele>
        <time>2022-08-28T09:29:18Z</time>
      </trkpt>
      <trkpt lat="45.38948" lon="3.95139">
        <ele>895.12</ele>
        <time>2022-08-28T09:29:42Z</time>
      </trkpt>
      <trkpt lat="45.38949" lon="3.95139">
        <ele>896.09</ele>
        <time>2022-08-28T09:29:59Z</time>
      </trkpt>
      <trkpt lat="45.38947" lon="3.95139">
        <ele>896.57</ele>
        <time>2022-08-28T09:30:11Z</time>
      </trkpt>
      <trkpt lat="45.38948" lon="3.95139">
        <ele>896.57</ele>
        <time>2022-08-28T09:30:22Z</time>
      </trkpt>
      <trkpt lat="45.38948" lon="3.95137">
        <ele>897.05</ele>
        <time>2022-08-28T09:30:35Z</time>
      </trkpt>
      <trkpt lat="45.38954" lon="3.9514">
        <ele>898.01</ele>
        <time>2022-08-28T09:30:42Z</time>
      </trkpt>
      <trkpt lat="45.38961" lon="3.95153">
        <ele>898.49</ele>
        <time>2022-08-28T09:30:57Z</time>
      </trkpt>
      <trkpt lat="45.38963" lon="3.95156">
        <ele>898.97</ele>
        <time>2022-08-28T09:31:01Z</time>
      </trkpt>
      <trkpt lat="45.38979" lon="3.95169">
        <ele>898.01</ele>
        <time>2022-08-28T09:31:19Z</time>
      </trkpt>
      <trkpt lat="45.38989" lon="3.95188">
        <ele>897.05</ele>
        <time>2022-08-28T09:31:36Z</time>
      </trkpt>
      <trkpt lat="45.3899" lon="3.9519">
        <ele>897.05</ele>
        <time>2022-08-28T09:31:37Z</time>
      </trkpt>
      <trkpt lat="45.38997" lon="3.95202">
        <ele>898.01</ele>
        <time>2022-08-28T09:31:53Z</time>
      </trkpt>
      <trkpt lat="45.39" lon="3.95205">
        <ele>898.01</ele>
        <time>2022-08-28T09:32:08Z</time>
      </trkpt>
      <trkpt lat="45.39001" lon="3.9521">
        <ele>899.93</ele>
        <time>2022-08-28T09:32:22Z</time>
      </trkpt>
      <trkpt lat="45.38999" lon="3.9521">
        <ele>900.41</ele>
        <time>2022-08-28T09:32:37Z</time>
      </trkpt>
      <trkpt lat="45.39003" lon="3.95213">
        <ele>903.3</ele>
        <time>2022-08-28T09:33:15Z</time>
      </trkpt>
      <trkpt lat="45.39" lon="3.95214">
        <ele>901.37</ele>
        <time>2022-08-28T09:33:48Z</time>
      </trkpt>
      <trkpt lat="45.39" lon="3.95209">
        <ele>900.41</ele>
        <time>2022-08-28T09:34:32Z</time>
      </trkpt>
      <trkpt lat="45.38999" lon="3.9521">
        <ele>900.89</ele>
        <time>2022-08-28T09:35:15Z</time>
      </trkpt>
      <trkpt lat="45.38998" lon="3.95213">
        <ele>897.05</ele>
        <time>2022-08-28T09:36:02Z</time>
      </trkpt>
      <trkpt lat="45.39" lon="3.9521">
        <ele>898.49</ele>
        <time>2022-08-28T09:36:41Z</time>
      </trkpt>
      <trkpt lat="45.39" lon="3.95211">
        <ele>899.45</ele>
        <time>2022-08-28T09:37:23Z</time>
      </trkpt>
      <trkpt lat="45.38999" lon="3.95211">
        <ele>900.89</ele>
        <time>2022-08-28T09:38:08Z</time>
      </trkpt>
      <trkpt lat="45.38997" lon="3.95212">
        <ele>899.93</ele>
        <time>2022-08-28T09:38:52Z</time>
      </trkpt>
      <trkpt lat="45.38998" lon="3.95212">
        <ele>896.09</ele>
        <time>2022-08-28T09:39:29Z</time>
      </trkpt>
      <trkpt lat="45.38996" lon="3.9521">
        <ele>897.53</ele>
        <time>2022-08-28T09:40:06Z</time>
      </trkpt>
      <trkpt lat="45.38995" lon="3.95213">
        <ele>898.49</ele>
        <time>2022-08-28T09:40:51Z</time>
      </trkpt>
      <trkpt lat="45.38996" lon="3.95213">
        <ele>898.49</ele>
        <time>2022-08-28T09:41:27Z</time>
      </trkpt>
      <trkpt lat="45.39" lon="3.95213">
        <ele>896.09</ele>
        <time>2022-08-28T09:42:02Z</time>
      </trkpt>
      <trkpt lat="45.39" lon="3.95211">
        <ele>898.49</ele>
        <time>2022-08-28T09:42:41Z</time>
      </trkpt>
      <trkpt lat="45.39001" lon="3.95212">
        <ele>905.22</ele>
        <time>2022-08-28T09:43:19Z</time>
      </trkpt>
      <trkpt lat="45.39" lon="3.95213">
        <ele>901.85</ele>
        <time>2022-08-28T09:43:51Z</time>
      </trkpt>
      <trkpt lat="45.38999" lon="3.95211">
        <ele>900.89</ele>
        <time>2022-08-28T09:44:24Z</time>
      </trkpt>
      <trkpt lat="45.39002" lon="3.95211">
        <ele>900.41</ele>
        <time>2022-08-28T09:45:00Z</time>
      </trkpt>
      <trkpt lat="45.39001" lon="3.95205">
        <ele>898.01</ele>
        <time>2022-08-28T09:45:38Z</time>
      </trkpt>
      <trkpt lat="45.39001" lon="3.95208">
        <ele>901.37</ele>
        <time>2022-08-28T09:46:24Z</time>
      </trkpt>
      <trkpt lat="45.39001" lon="3.95211">
        <ele>901.85</ele>
        <time>2022-08-28T09:47:04Z</time>
      </trkpt>
      <trkpt lat="45.39001" lon="3.95207">
        <ele>909.06</ele>
        <time>2022-08-28T09:47:39Z</time>
      </trkpt>
      <trkpt lat="45.38999" lon="3.9521">
        <ele>907.62</ele>
        <time>2022-08-28T09:48:18Z</time>
      </trkpt>
      <trkpt lat="45.39001" lon="3.95208">
        <ele>904.74</ele>
        <time>2022-08-28T09:49:00Z</time>
      </trkpt>
      <trkpt lat="45.39" lon="3.9521">
        <ele>902.82</ele>
        <time>2022-08-28T09:49:43Z</time>
      </trkpt>
      <trkpt lat="45.38999" lon="3.95209">
        <ele>899.93</ele>
        <time>2022-08-28T09:50:25Z</time>
      </trkpt>
      <trkpt lat="45.39" lon="3.9521">
        <ele>904.26</ele>
        <time>2022-08-28T09:51:06Z</time>
      </trkpt>
      <trkpt lat="45.39001" lon="3.9521">
        <ele>903.78</ele>
        <time>2022-08-28T09:51:48Z</time>
      </trkpt>
      <trkpt lat="45.38996" lon="3.95208">
        <ele>898.49</ele>
        <time>2022-08-28T09:52:22Z</time>
      </trkpt>
      <trkpt lat="45.39" lon="3.95212">
        <ele>898.49</ele>
        <time>2022-08-28T09:52:55Z</time>
      </trkpt>
      <trkpt lat="45.38999" lon="3.95209">
        <ele>900.41</ele>
        <time>2022-08-28T09:53:29Z</time>
      </trkpt>
      <trkpt lat="45.38999" lon="3.95212">
        <ele>900.41</ele>
        <time>2022-08-28T09:54:01Z</time>
      </trkpt>
      <trkpt lat="45.39" lon="3.9521">
        <ele>900.41</ele>
        <time>2022-08-28T09:54:37Z</time>
      </trkpt>
      <trkpt lat="45.39001" lon="3.95208">
        <ele>899.93</ele>
        <time>2022-08-28T09:55:11Z</time>
      </trkpt>
      <trkpt lat="45.39001" lon="3.95215">
        <ele>896.57</ele>
        <time>2022-08-28T09:55:45Z</time>
      </trkpt>
      <trkpt lat="45.39" lon="3.95208">
        <ele>895.12</ele>
        <time>2022-08-28T09:56:15Z</time>
      </trkpt>
      <trkpt lat="45.38997" lon="3.95204">
        <ele>897.05</ele>
        <time>2022-08-28T09:56:49Z</time>
      </trkpt>
      <trkpt lat="45.38996" lon="3.95207">
        <ele>893.2</ele>
        <time>2022-08-28T09:57:26Z</time>
      </trkpt>
      <trkpt lat="45.38999" lon="3.95211">
        <ele>893.68</ele>
        <time>2022-08-28T09:57:33Z</time>
      </trkpt>
      <trkpt lat="45.39004" lon="3.95214">
        <ele>893.2</ele>
        <time>2022-08-28T09:57:47Z</time>
      </trkpt>
      <trkpt lat="45.39011" lon="3.95222">
        <ele>888.4</ele>
        <time>2022-08-28T09:58:12Z</time>
      </trkpt>
      <trkpt lat="45.39015" lon="3.95214">
        <ele>884.07</ele>
        <time>2022-08-28T09:58:39Z</time>
      </trkpt>
      <trkpt lat="45.3901" lon="3.95225">
        <ele>892.24</ele>
        <time>2022-08-28T09:59:02Z</time>
      </trkpt>
      <trkpt lat="45.39018" lon="3.95219">
        <ele>896.09</ele>
        <time>2022-08-28T09:59:26Z</time>
      </trkpt>
      <trkpt lat="45.39017" lon="3.95217">
        <ele>896.09</ele>
        <time>2022-08-28T09:59:27Z</time>
      </trkpt>
      <trkpt lat="45.39003" lon="3.9521">
        <ele>898.01</ele>
        <time>2022-08-28T09:59:42Z</time>
      </trkpt>
      <trkpt lat="45.38999" lon="3.95207">
        <ele>897.53</ele>
        <time>2022-08-28T09:59:48Z</time>
      </trkpt>
      <trkpt lat="45.38991" lon="3.95195">
        <ele>895.61</ele>
        <time>2022-08-28T09:59:57Z</time>
      </trkpt>
      <trkpt lat="45.38991" lon="3.95192">
        <ele>895.12</ele>
        <time>2022-08-28T09:59:59Z</time>
      </trkpt>
      <trkpt lat="45.3899" lon="3.9519">
        <ele>895.12</ele>
        <time>2022-08-28T10:00:00Z</time>
      </trkpt>
      <trkpt lat="45.38987" lon="3.95179">
        <ele>896.57</ele>
        <time>2022-08-28T10:00:09Z</time>
      </trkpt>
      <trkpt lat="45.38986" lon="3.95178">
        <ele>897.05</ele>
        <time>2022-08-28T10:00:10Z</time>
      </trkpt>
      <trkpt lat="45.38986" lon="3.95177">
        <ele>897.05</ele>
        <time>2022-08-28T10:00:11Z</time>
      </trkpt>
      <trkpt lat="45.38969" lon="3.95163">
        <ele>896.57</ele>
        <time>2022-08-28T10:00:29Z</time>
      </trkpt>
      <trkpt lat="45.38967" lon="3.95163">
        <ele>896.09</ele>
        <time>2022-08-28T10:00:31Z</time>
      </trkpt>
      <trkpt lat="45.38961" lon="3.9516">
        <ele>896.57</ele>
        <time>2022-08-28T10:00:36Z</time>
      </trkpt>
      <trkpt lat="45.3896" lon="3.95159">
        <ele>896.57</ele>
        <time>2022-08-28T10:00:37Z</time>
      </trkpt>
      <trkpt lat="45.38955" lon="3.95144">
        <ele>893.2</ele>
        <time>2022-08-28T10:00:53Z</time>
      </trkpt>
      <trkpt lat="45.38948" lon="3.95142">
        <ele>893.2</ele>
        <time>2022-08-28T10:01:06Z</time>
      </trkpt>
      <trkpt lat="45.38946" lon="3.95138">
        <ele>894.16</ele>
        <time>2022-08-28T10:01:21Z</time>
      </trkpt>
      <trkpt lat="45.38946" lon="3.95135">
        <ele>894.64</ele>
        <time>2022-08-28T10:01:37Z</time>
      </trkpt>
      <trkpt lat="45.38948" lon="3.95136">
        <ele>894.16</ele>
        <time>2022-08-28T10:01:55Z</time>
      </trkpt>
      <trkpt lat="45.38951" lon="3.95143">
        <ele>894.16</ele>
        <time>2022-08-28T10:02:13Z</time>
      </trkpt>
      <trkpt lat="45.38948" lon="3.95138">
        <ele>894.16</ele>
        <time>2022-08-28T10:02:29Z</time>
      </trkpt>
      <trkpt lat="45.38947" lon="3.95136">
        <ele>895.12</ele>
        <time>2022-08-28T10:02:45Z</time>
      </trkpt>
      <trkpt lat="45.38942" lon="3.95133">
        <ele>892.24</ele>
        <time>2022-08-28T10:03:04Z</time>
      </trkpt>
      <trkpt lat="45.38946" lon="3.95136">
        <ele>892.72</ele>
        <time>2022-08-28T10:03:30Z</time>
      </trkpt>
      <trkpt lat="45.38947" lon="3.95137">
        <ele>893.2</ele>
        <time>2022-08-28T10:03:50Z</time>
      </trkpt>
      <trkpt lat="45.38947" lon="3.95135">
        <ele>893.68</ele>
        <time>2022-08-28T10:04:16Z</time>
      </trkpt>
      <trkpt lat="45.38949" lon="3.95133">
        <ele>894.16</ele>
        <time>2022-08-28T10:04:33Z</time>
      </trkpt>
      <trkpt lat="45.38951" lon="3.95136">
        <ele>895.61</ele>
        <time>2022-08-28T10:04:48Z</time>
      </trkpt>
      <trkpt lat="45.3895" lon="3.95133">
        <ele>896.09</ele>
        <time>2022-08-28T10:05:03Z</time>
      </trkpt>
      <trkpt lat="45.38952" lon="3.95134">
        <ele>895.12</ele>
        <time>2022-08-28T10:05:23Z</time>
      </trkpt>
      <trkpt lat="45.38953" lon="3.95136">
        <ele>895.12</ele>
        <time>2022-08-28T10:05:44Z</time>
      </trkpt>
      <trkpt lat="45.38958" lon="3.95149">
        <ele>895.61</ele>
        <time>2022-08-28T10:05:56Z</time>
      </trkpt>
      <trkpt lat="45.38954" lon="3.95157">
        <ele>896.57</ele>
        <time>2022-08-28T10:06:09Z</time>
      </trkpt>
      <trkpt lat="45.38955" lon="3.95156">
        <ele>897.05</ele>
        <time>2022-08-28T10:06:30Z</time>
      </trkpt>
      <trkpt lat="45.38955" lon="3.95154">
        <ele>897.53</ele>
        <time>2022-08-28T10:06:50Z</time>
      </trkpt>
      <trkpt lat="45.38954" lon="3.95169">
        <ele>899.45</ele>
        <time>2022-08-28T10:07:03Z</time>
      </trkpt>
      <trkpt lat="45.38943" lon="3.95192">
        <ele>902.82</ele>
        <time>2022-08-28T10:07:21Z</time>
      </trkpt>
      <trkpt lat="45.38928" lon="3.95212">
        <ele>905.7</ele>
        <time>2022-08-28T10:07:40Z</time>
      </trkpt>
      <trkpt lat="45.38909" lon="3.95235">
        <ele>910.03</ele>
        <time>2022-08-28T10:08:01Z</time>
      </trkpt>
      <trkpt lat="45.38895" lon="3.95257">
        <ele>911.95</ele>
        <time>2022-08-28T10:08:18Z</time>
      </trkpt>
      <trkpt lat="45.38888" lon="3.95286">
        <ele>917.72</ele>
        <time>2022-08-28T10:08:38Z</time>
      </trkpt>
      <trkpt lat="45.38882" lon="3.9532">
        <ele>921.08</ele>
        <time>2022-08-28T10:08:56Z</time>
      </trkpt>
      <trkpt lat="45.38876" lon="3.9535">
        <ele>923</ele>
        <time>2022-08-28T10:09:08Z</time>
      </trkpt>
      <trkpt lat="45.38862" lon="3.95368">
        <ele>923.48</ele>
        <time>2022-08-28T10:09:25Z</time>
      </trkpt>
      <trkpt lat="45.3884" lon="3.95391">
        <ele>923</ele>
        <time>2022-08-28T10:09:46Z</time>
      </trkpt>
      <trkpt lat="45.38818" lon="3.95405">
        <ele>922.52</ele>
        <time>2022-08-28T10:10:04Z</time>
      </trkpt>
      <trkpt lat="45.38796" lon="3.95409">
        <ele>922.52</ele>
        <time>2022-08-28T10:10:22Z</time>
      </trkpt>
      <trkpt lat="45.38774" lon="3.95402">
        <ele>921.08</ele>
        <time>2022-08-28T10:10:39Z</time>
      </trkpt>
      <trkpt lat="45.38753" lon="3.95411">
        <ele>918.68</ele>
        <time>2022-08-28T10:10:59Z</time>
      </trkpt>
      <trkpt lat="45.38724" lon="3.95419">
        <ele>919.64</ele>
        <time>2022-08-28T10:11:18Z</time>
      </trkpt>
      <trkpt lat="45.38698" lon="3.95422">
        <ele>921.08</ele>
        <time>2022-08-28T10:11:34Z</time>
      </trkpt>
      <trkpt lat="45.38673" lon="3.95421">
        <ele>922.52</ele>
        <time>2022-08-28T10:11:50Z</time>
      </trkpt>
      <trkpt lat="45.38653" lon="3.95406">
        <ele>921.56</ele>
        <time>2022-08-28T10:12:07Z</time>
      </trkpt>
      <trkpt lat="45.38635" lon="3.95382">
        <ele>925.41</ele>
        <time>2022-08-28T10:12:26Z</time>
      </trkpt>
      <trkpt lat="45.38614" lon="3.95355">
        <ele>929.25</ele>
        <time>2022-08-28T10:12:48Z</time>
      </trkpt>
      <trkpt lat="45.38596" lon="3.95323">
        <ele>928.77</ele>
        <time>2022-08-28T10:13:05Z</time>
      </trkpt>
      <trkpt lat="45.38587" lon="3.95294">
        <ele>924.93</ele>
        <time>2022-08-28T10:13:22Z</time>
      </trkpt>
      <trkpt lat="45.38581" lon="3.95267">
        <ele>922.04</ele>
        <time>2022-08-28T10:13:40Z</time>
      </trkpt>
      <trkpt lat="45.38574" lon="3.95245">
        <ele>920.12</ele>
        <time>2022-08-28T10:13:57Z</time>
      </trkpt>
      <trkpt lat="45.38568" lon="3.95222">
        <ele>917.72</ele>
        <time>2022-08-28T10:14:14Z</time>
      </trkpt>
      <trkpt lat="45.38563" lon="3.95201">
        <ele>914.83</ele>
        <time>2022-08-28T10:14:33Z</time>
      </trkpt>
      <trkpt lat="45.38562" lon="3.95174">
        <ele>908.58</ele>
        <time>2022-08-28T10:14:52Z</time>
      </trkpt>
      <trkpt lat="45.3856" lon="3.95152">
        <ele>903.3</ele>
        <time>2022-08-28T10:15:09Z</time>
      </trkpt>
      <trkpt lat="45.38559" lon="3.9514">
        <ele>898.49</ele>
        <time>2022-08-28T10:15:35Z</time>
      </trkpt>
      <trkpt lat="45.38557" lon="3.95112">
        <ele>899.93</ele>
        <time>2022-08-28T10:15:56Z</time>
      </trkpt>
      <trkpt lat="45.38546" lon="3.95072">
        <ele>901.85</ele>
        <time>2022-08-28T10:16:13Z</time>
      </trkpt>
      <trkpt lat="45.38527" lon="3.95042">
        <ele>903.78</ele>
        <time>2022-08-28T10:16:28Z</time>
      </trkpt>
      <trkpt lat="45.38502" lon="3.95001">
        <ele>908.1</ele>
        <time>2022-08-28T10:16:47Z</time>
      </trkpt>
      <trkpt lat="45.38487" lon="3.94979">
        <ele>907.62</ele>
        <time>2022-08-28T10:17:01Z</time>
      </trkpt>
      <trkpt lat="45.38468" lon="3.94955">
        <ele>906.66</ele>
        <time>2022-08-28T10:17:21Z</time>
      </trkpt>
      <trkpt lat="45.38447" lon="3.94936">
        <ele>904.26</ele>
        <time>2022-08-28T10:17:38Z</time>
      </trkpt>
      <trkpt lat="45.38435" lon="3.94909">
        <ele>904.74</ele>
        <time>2022-08-28T10:17:54Z</time>
      </trkpt>
      <trkpt lat="45.38423" lon="3.94885">
        <ele>909.54</ele>
        <time>2022-08-28T10:18:13Z</time>
      </trkpt>
      <trkpt lat="45.38419" lon="3.94863">
        <ele>912.91</ele>
        <time>2022-08-28T10:18:25Z</time>
      </trkpt>
      <trkpt lat="45.38419" lon="3.9486">
        <ele>913.39</ele>
        <time>2022-08-28T10:18:26Z</time>
      </trkpt>
      <trkpt lat="45.38418" lon="3.94858">
        <ele>913.39</ele>
        <time>2022-08-28T10:18:27Z</time>
      </trkpt>
      <trkpt lat="45.38416" lon="3.9482">
        <ele>914.83</ele>
        <time>2022-08-28T10:18:45Z</time>
      </trkpt>
      <trkpt lat="45.38417" lon="3.94809">
        <ele>914.83</ele>
        <time>2022-08-28T10:18:50Z</time>
      </trkpt>
      <trkpt lat="45.38418" lon="3.94807">
        <ele>914.35</ele>
        <time>2022-08-28T10:18:51Z</time>
      </trkpt>
      <trkpt lat="45.38418" lon="3.94804">
        <ele>913.87</ele>
        <time>2022-08-28T10:18:52Z</time>
      </trkpt>
      <trkpt lat="45.38413" lon="3.9477">
        <ele>907.62</ele>
        <time>2022-08-28T10:19:10Z</time>
      </trkpt>
      <trkpt lat="45.38409" lon="3.94741">
        <ele>909.06</ele>
        <time>2022-08-28T10:19:30Z</time>
      </trkpt>
      <trkpt lat="45.38404" lon="3.9472">
        <ele>910.03</ele>
        <time>2022-08-28T10:19:44Z</time>
      </trkpt>
      <trkpt lat="45.38399" lon="3.94695">
        <ele>910.03</ele>
        <time>2022-08-28T10:20:00Z</time>
      </trkpt>
      <trkpt lat="45.38393" lon="3.94679">
        <ele>909.54</ele>
        <time>2022-08-28T10:20:09Z</time>
      </trkpt>
      <trkpt lat="45.38374" lon="3.94642">
        <ele>906.66</ele>
        <time>2022-08-28T10:20:26Z</time>
      </trkpt>
      <trkpt lat="45.38371" lon="3.94615">
        <ele>904.26</ele>
        <time>2022-08-28T10:20:44Z</time>
      </trkpt>
      <trkpt lat="45.3837" lon="3.94609">
        <ele>904.26</ele>
        <time>2022-08-28T10:20:47Z</time>
      </trkpt>
      <trkpt lat="45.38369" lon="3.94608">
        <ele>904.26</ele>
        <time>2022-08-28T10:20:48Z</time>
      </trkpt>
      <trkpt lat="45.38362" lon="3.94576">
        <ele>902.82</ele>
        <time>2022-08-28T10:21:05Z</time>
      </trkpt>
      <trkpt lat="45.3835" lon="3.94539">
        <ele>897.53</ele>
        <time>2022-08-28T10:21:22Z</time>
      </trkpt>
      <trkpt lat="45.38339" lon="3.9451">
        <ele>896.57</ele>
        <time>2022-08-28T10:21:38Z</time>
      </trkpt>
      <trkpt lat="45.3833" lon="3.9448">
        <ele>896.57</ele>
        <time>2022-08-28T10:21:57Z</time>
      </trkpt>
      <trkpt lat="45.38327" lon="3.94478">
        <ele>897.05</ele>
        <time>2022-08-28T10:22:01Z</time>
      </trkpt>
      <trkpt lat="45.38326" lon="3.94478">
        <ele>897.05</ele>
        <time>2022-08-28T10:22:02Z</time>
      </trkpt>
      <trkpt lat="45.38305" lon="3.94486">
        <ele>898.01</ele>
        <time>2022-08-28T10:22:21Z</time>
      </trkpt>
      <trkpt lat="45.38288" lon="3.94492">
        <ele>898.49</ele>
        <time>2022-08-28T10:22:40Z</time>
      </trkpt>
      <trkpt lat="45.3827" lon="3.94493">
        <ele>898.49</ele>
        <time>2022-08-28T10:22:56Z</time>
      </trkpt>
      <trkpt lat="45.38254" lon="3.94492">
        <ele>900.41</ele>
        <time>2022-08-28T10:23:15Z</time>
      </trkpt>
      <trkpt lat="45.38247" lon="3.94487">
        <ele>902.33</ele>
        <time>2022-08-28T10:23:23Z</time>
      </trkpt>
      <trkpt lat="45.38242" lon="3.94479">
        <ele>902.82</ele>
        <time>2022-08-28T10:23:32Z</time>
      </trkpt>
      <trkpt lat="45.38242" lon="3.94478">
        <ele>902.82</ele>
        <time>2022-08-28T10:23:33Z</time>
      </trkpt>
      <trkpt lat="45.38236" lon="3.94446">
        <ele>901.85</ele>
        <time>2022-08-28T10:23:52Z</time>
      </trkpt>
      <trkpt lat="45.38227" lon="3.94412">
        <ele>902.33</ele>
        <time>2022-08-28T10:24:10Z</time>
      </trkpt>
      <trkpt lat="45.38232" lon="3.94379">
        <ele>901.37</ele>
        <time>2022-08-28T10:24:29Z</time>
      </trkpt>
      <trkpt lat="45.38238" lon="3.94347">
        <ele>899.93</ele>
        <time>2022-08-28T10:24:48Z</time>
      </trkpt>
      <trkpt lat="45.38249" lon="3.9432">
        <ele>898.01</ele>
        <time>2022-08-28T10:25:06Z</time>
      </trkpt>
      <trkpt lat="45.38263" lon="3.94291">
        <ele>896.09</ele>
        <time>2022-08-28T10:25:26Z</time>
      </trkpt>
      <trkpt lat="45.38269" lon="3.94265">
        <ele>893.2</ele>
        <time>2022-08-28T10:25:41Z</time>
      </trkpt>
      <trkpt lat="45.38275" lon="3.94232">
        <ele>890.8</ele>
        <time>2022-08-28T10:26:01Z</time>
      </trkpt>
      <trkpt lat="45.38274" lon="3.94194">
        <ele>888.88</ele>
        <time>2022-08-28T10:26:22Z</time>
      </trkpt>
      <trkpt lat="45.3827" lon="3.94157">
        <ele>885.51</ele>
        <time>2022-08-28T10:26:42Z</time>
      </trkpt>
      <trkpt lat="45.38274" lon="3.9412">
        <ele>883.11</ele>
        <time>2022-08-28T10:26:57Z</time>
      </trkpt>
      <trkpt lat="45.38292" lon="3.94098">
        <ele>883.11</ele>
        <time>2022-08-28T10:27:10Z</time>
      </trkpt>
      <trkpt lat="45.38315" lon="3.94096">
        <ele>886.47</ele>
        <time>2022-08-28T10:27:29Z</time>
      </trkpt>
      <trkpt lat="45.3834" lon="3.94083">
        <ele>892.24</ele>
        <time>2022-08-28T10:27:49Z</time>
      </trkpt>
      <trkpt lat="45.38364" lon="3.94075">
        <ele>895.12</ele>
        <time>2022-08-28T10:28:06Z</time>
      </trkpt>
      <trkpt lat="45.38387" lon="3.94083">
        <ele>898.01</ele>
        <time>2022-08-28T10:28:24Z</time>
      </trkpt>
      <trkpt lat="45.38409" lon="3.94081">
        <ele>900.89</ele>
        <time>2022-08-28T10:28:42Z</time>
      </trkpt>
      <trkpt lat="45.38433" lon="3.94058">
        <ele>902.82</ele>
        <time>2022-08-28T10:29:04Z</time>
      </trkpt>
      <trkpt lat="45.38455" lon="3.94036">
        <ele>903.78</ele>
        <time>2022-08-28T10:29:20Z</time>
      </trkpt>
      <trkpt lat="45.38482" lon="3.94015">
        <ele>904.74</ele>
        <time>2022-08-28T10:29:36Z</time>
      </trkpt>
      <trkpt lat="45.385" lon="3.93993">
        <ele>906.18</ele>
        <time>2022-08-28T10:29:55Z</time>
      </trkpt>
      <trkpt lat="45.38501" lon="3.93963">
        <ele>906.18</ele>
        <time>2022-08-28T10:30:13Z</time>
      </trkpt>
      <trkpt lat="45.38499" lon="3.93933">
        <ele>904.26</ele>
        <time>2022-08-28T10:30:34Z</time>
      </trkpt>
      <trkpt lat="45.38498" lon="3.93922">
        <ele>903.3</ele>
        <time>2022-08-28T10:30:41Z</time>
      </trkpt>
      <trkpt lat="45.38498" lon="3.93921">
        <ele>903.3</ele>
        <time>2022-08-28T10:30:42Z</time>
      </trkpt>
      <trkpt lat="45.38489" lon="3.93905">
        <ele>901.37</ele>
        <time>2022-08-28T10:30:59Z</time>
      </trkpt>
      <trkpt lat="45.38483" lon="3.93901">
        <ele>900.89</ele>
        <time>2022-08-28T10:31:06Z</time>
      </trkpt>
      <trkpt lat="45.38467" lon="3.93891">
        <ele>896.57</ele>
        <time>2022-08-28T10:31:23Z</time>
      </trkpt>
      <trkpt lat="45.38452" lon="3.93879">
        <ele>894.16</ele>
        <time>2022-08-28T10:31:42Z</time>
      </trkpt>
      <trkpt lat="45.38434" lon="3.93864">
        <ele>891.76</ele>
        <time>2022-08-28T10:32:00Z</time>
      </trkpt>
      <trkpt lat="45.38412" lon="3.93846">
        <ele>889.84</ele>
        <time>2022-08-28T10:32:19Z</time>
      </trkpt>
      <trkpt lat="45.38392" lon="3.93819">
        <ele>887.91</ele>
        <time>2022-08-28T10:32:33Z</time>
      </trkpt>
      <trkpt lat="45.38373" lon="3.93799">
        <ele>886.47</ele>
        <time>2022-08-28T10:32:49Z</time>
      </trkpt>
      <trkpt lat="45.38356" lon="3.93784">
        <ele>885.51</ele>
        <time>2022-08-28T10:33:06Z</time>
      </trkpt>
      <trkpt lat="45.38336" lon="3.93765">
        <ele>885.03</ele>
        <time>2022-08-28T10:33:24Z</time>
      </trkpt>
      <trkpt lat="45.38313" lon="3.93749">
        <ele>885.99</ele>
        <time>2022-08-28T10:33:45Z</time>
      </trkpt>
      <trkpt lat="45.38294" lon="3.93736">
        <ele>885.99</ele>
        <time>2022-08-28T10:34:03Z</time>
      </trkpt>
      <trkpt lat="45.38275" lon="3.93716">
        <ele>883.11</ele>
        <time>2022-08-28T10:34:22Z</time>
      </trkpt>
      <trkpt lat="45.38258" lon="3.93688">
        <ele>880.71</ele>
        <time>2022-08-28T10:34:43Z</time>
      </trkpt>
      <trkpt lat="45.38242" lon="3.93649">
        <ele>878.78</ele>
        <time>2022-08-28T10:34:58Z</time>
      </trkpt>
      <trkpt lat="45.38243" lon="3.93632">
        <ele>880.22</ele>
        <time>2022-08-28T10:35:16Z</time>
      </trkpt>
      <trkpt lat="45.38248" lon="3.93599">
        <ele>879.74</ele>
        <time>2022-08-28T10:35:35Z</time>
      </trkpt>
      <trkpt lat="45.38261" lon="3.93561">
        <ele>880.71</ele>
        <time>2022-08-28T10:35:56Z</time>
      </trkpt>
      <trkpt lat="45.38275" lon="3.93518">
        <ele>881.19</ele>
        <time>2022-08-28T10:36:18Z</time>
      </trkpt>
      <trkpt lat="45.38288" lon="3.93478">
        <ele>884.07</ele>
        <time>2022-08-28T10:36:39Z</time>
      </trkpt>
      <trkpt lat="45.38298" lon="3.93448">
        <ele>886.95</ele>
        <time>2022-08-28T10:36:55Z</time>
      </trkpt>
      <trkpt lat="45.38307" lon="3.93421">
        <ele>887.91</ele>
        <time>2022-08-28T10:37:14Z</time>
      </trkpt>
      <trkpt lat="45.38308" lon="3.93418">
        <ele>887.91</ele>
        <time>2022-08-28T10:37:16Z</time>
      </trkpt>
      <trkpt lat="45.38308" lon="3.93416">
        <ele>887.91</ele>
        <time>2022-08-28T10:37:17Z</time>
      </trkpt>
      <trkpt lat="45.38295" lon="3.93389">
        <ele>889.84</ele>
        <time>2022-08-28T10:37:32Z</time>
      </trkpt>
      <trkpt lat="45.38284" lon="3.93362">
        <ele>890.8</ele>
        <time>2022-08-28T10:37:49Z</time>
      </trkpt>
      <trkpt lat="45.38284" lon="3.93323">
        <ele>892.24</ele>
        <time>2022-08-28T10:38:09Z</time>
      </trkpt>
      <trkpt lat="45.38298" lon="3.93303">
        <ele>893.68</ele>
        <time>2022-08-28T10:38:24Z</time>
      </trkpt>
      <trkpt lat="45.38323" lon="3.93293">
        <ele>897.05</ele>
        <time>2022-08-28T10:38:41Z</time>
      </trkpt>
      <trkpt lat="45.38342" lon="3.93275">
        <ele>901.37</ele>
        <time>2022-08-28T10:39:00Z</time>
      </trkpt>
      <trkpt lat="45.38362" lon="3.93249">
        <ele>903.78</ele>
        <time>2022-08-28T10:39:21Z</time>
      </trkpt>
      <trkpt lat="45.3838" lon="3.93221">
        <ele>904.74</ele>
        <time>2022-08-28T10:39:41Z</time>
      </trkpt>
      <trkpt lat="45.384" lon="3.9319">
        <ele>905.7</ele>
        <time>2022-08-28T10:40:02Z</time>
      </trkpt>
      <trkpt lat="45.38417" lon="3.93158">
        <ele>906.66</ele>
        <time>2022-08-28T10:40:23Z</time>
      </trkpt>
      <trkpt lat="45.38435" lon="3.93129">
        <ele>907.62</ele>
        <time>2022-08-28T10:40:43Z</time>
      </trkpt>
      <trkpt lat="45.38456" lon="3.93098">
        <ele>908.58</ele>
        <time>2022-08-28T10:41:02Z</time>
      </trkpt>
      <trkpt lat="45.38466" lon="3.93081">
        <ele>909.06</ele>
        <time>2022-08-28T10:41:15Z</time>
      </trkpt>
      <trkpt lat="45.3847" lon="3.93047">
        <ele>912.91</ele>
        <time>2022-08-28T10:41:33Z</time>
      </trkpt>
      <trkpt lat="45.38466" lon="3.93023">
        <ele>913.39</ele>
        <time>2022-08-28T10:41:51Z</time>
      </trkpt>
      <trkpt lat="45.38458" lon="3.92987">
        <ele>915.31</ele>
        <time>2022-08-28T10:42:10Z</time>
      </trkpt>
      <trkpt lat="45.38458" lon="3.92983">
        <ele>915.79</ele>
        <time>2022-08-28T10:42:12Z</time>
      </trkpt>
      <trkpt lat="45.38455" lon="3.92952">
        <ele>915.31</ele>
        <time>2022-08-28T10:42:28Z</time>
      </trkpt>
      <trkpt lat="45.38452" lon="3.92906">
        <ele>919.64</ele>
        <time>2022-08-28T10:42:50Z</time>
      </trkpt>
      <trkpt lat="45.38451" lon="3.92891">
        <ele>920.12</ele>
        <time>2022-08-28T10:42:59Z</time>
      </trkpt>
      <trkpt lat="45.38453" lon="3.92857">
        <ele>921.56</ele>
        <time>2022-08-28T10:43:16Z</time>
      </trkpt>
      <trkpt lat="45.3845" lon="3.92823">
        <ele>923.48</ele>
        <time>2022-08-28T10:43:35Z</time>
      </trkpt>
      <trkpt lat="45.38456" lon="3.92783">
        <ele>924.45</ele>
        <time>2022-08-28T10:43:51Z</time>
      </trkpt>
      <trkpt lat="45.38471" lon="3.9273">
        <ele>924.45</ele>
        <time>2022-08-28T10:44:12Z</time>
      </trkpt>
      <trkpt lat="45.3848" lon="3.92697">
        <ele>924.93</ele>
        <time>2022-08-28T10:44:30Z</time>
      </trkpt>
      <trkpt lat="45.38484" lon="3.92665">
        <ele>924.93</ele>
        <time>2022-08-28T10:44:48Z</time>
      </trkpt>
      <trkpt lat="45.38493" lon="3.92627">
        <ele>924.45</ele>
        <time>2022-08-28T10:45:08Z</time>
      </trkpt>
      <trkpt lat="45.38506" lon="3.92595">
        <ele>925.41</ele>
        <time>2022-08-28T10:45:25Z</time>
      </trkpt>
      <trkpt lat="45.38518" lon="3.92566">
        <ele>927.33</ele>
        <time>2022-08-28T10:45:42Z</time>
      </trkpt>
      <trkpt lat="45.38528" lon="3.92535">
        <ele>925.41</ele>
        <time>2022-08-28T10:46:02Z</time>
      </trkpt>
      <trkpt lat="45.3853" lon="3.92505">
        <ele>921.08</ele>
        <time>2022-08-28T10:46:22Z</time>
      </trkpt>
      <trkpt lat="45.38538" lon="3.92471">
        <ele>919.64</ele>
        <time>2022-08-28T10:46:40Z</time>
      </trkpt>
      <trkpt lat="45.38544" lon="3.92434">
        <ele>920.6</ele>
        <time>2022-08-28T10:46:57Z</time>
      </trkpt>
      <trkpt lat="45.38549" lon="3.92397">
        <ele>922.04</ele>
        <time>2022-08-28T10:47:14Z</time>
      </trkpt>
      <trkpt lat="45.38554" lon="3.92358">
        <ele>926.37</ele>
        <time>2022-08-28T10:47:32Z</time>
      </trkpt>
      <trkpt lat="45.38558" lon="3.92324">
        <ele>928.77</ele>
        <time>2022-08-28T10:47:49Z</time>
      </trkpt>
      <trkpt lat="45.38567" lon="3.92293">
        <ele>930.21</ele>
        <time>2022-08-28T10:48:06Z</time>
      </trkpt>
      <trkpt lat="45.38577" lon="3.92254">
        <ele>933.58</ele>
        <time>2022-08-28T10:48:27Z</time>
      </trkpt>
      <trkpt lat="45.38588" lon="3.92223">
        <ele>934.06</ele>
        <time>2022-08-28T10:48:46Z</time>
      </trkpt>
      <trkpt lat="45.38598" lon="3.92183">
        <ele>934.54</ele>
        <time>2022-08-28T10:49:06Z</time>
      </trkpt>
      <trkpt lat="45.38605" lon="3.92142">
        <ele>933.1</ele>
        <time>2022-08-28T10:49:26Z</time>
      </trkpt>
      <trkpt lat="45.38615" lon="3.92103">
        <ele>934.06</ele>
        <time>2022-08-28T10:49:47Z</time>
      </trkpt>
      <trkpt lat="45.38618" lon="3.9206">
        <ele>934.06</ele>
        <time>2022-08-28T10:50:09Z</time>
      </trkpt>
      <trkpt lat="45.3862" lon="3.9202">
        <ele>935.5</ele>
        <time>2022-08-28T10:50:31Z</time>
      </trkpt>
      <trkpt lat="45.3862" lon="3.91992">
        <ele>937.9</ele>
        <time>2022-08-28T10:50:49Z</time>
      </trkpt>
      <trkpt lat="45.3862" lon="3.91964">
        <ele>940.79</ele>
        <time>2022-08-28T10:51:07Z</time>
      </trkpt>
      <trkpt lat="45.38621" lon="3.91934">
        <ele>941.75</ele>
        <time>2022-08-28T10:51:24Z</time>
      </trkpt>
      <trkpt lat="45.38625" lon="3.91888">
        <ele>941.75</ele>
        <time>2022-08-28T10:51:46Z</time>
      </trkpt>
      <trkpt lat="45.38625" lon="3.91851">
        <ele>939.83</ele>
        <time>2022-08-28T10:52:08Z</time>
      </trkpt>
      <trkpt lat="45.38624" lon="3.91827">
        <ele>938.38</ele>
        <time>2022-08-28T10:52:24Z</time>
      </trkpt>
      <trkpt lat="45.38624" lon="3.91783">
        <ele>936.46</ele>
        <time>2022-08-28T10:52:43Z</time>
      </trkpt>
      <trkpt lat="45.38619" lon="3.9175">
        <ele>936.94</ele>
        <time>2022-08-28T10:53:00Z</time>
      </trkpt>
      <trkpt lat="45.38616" lon="3.91709">
        <ele>935.98</ele>
        <time>2022-08-28T10:53:21Z</time>
      </trkpt>
      <trkpt lat="45.38613" lon="3.9167">
        <ele>932.62</ele>
        <time>2022-08-28T10:53:43Z</time>
      </trkpt>
      <trkpt lat="45.38599" lon="3.91639">
        <ele>934.06</ele>
        <time>2022-08-28T10:54:02Z</time>
      </trkpt>
      <trkpt lat="45.38595" lon="3.91617">
        <ele>936.46</ele>
        <time>2022-08-28T10:54:15Z</time>
      </trkpt>
      <trkpt lat="45.38594" lon="3.91615">
        <ele>936.46</ele>
        <time>2022-08-28T10:54:16Z</time>
      </trkpt>
      <trkpt lat="45.38577" lon="3.91586">
        <ele>937.9</ele>
        <time>2022-08-28T10:54:36Z</time>
      </trkpt>
      <trkpt lat="45.3857" lon="3.91557">
        <ele>935.98</ele>
        <time>2022-08-28T10:54:53Z</time>
      </trkpt>
      <trkpt lat="45.38555" lon="3.91528">
        <ele>933.58</ele>
        <time>2022-08-28T10:55:13Z</time>
      </trkpt>
      <trkpt lat="45.38542" lon="3.91497">
        <ele>935.98</ele>
        <time>2022-08-28T10:55:33Z</time>
      </trkpt>
      <trkpt lat="45.38523" lon="3.91468">
        <ele>937.9</ele>
        <time>2022-08-28T10:55:53Z</time>
      </trkpt>
      <trkpt lat="45.3851" lon="3.91429">
        <ele>935.5</ele>
        <time>2022-08-28T10:56:14Z</time>
      </trkpt>
      <trkpt lat="45.385" lon="3.91391">
        <ele>931.65</ele>
        <time>2022-08-28T10:56:33Z</time>
      </trkpt>
      <trkpt lat="45.38495" lon="3.91346">
        <ele>925.41</ele>
        <time>2022-08-28T10:56:52Z</time>
      </trkpt>
      <trkpt lat="45.38485" lon="3.91313">
        <ele>920.12</ele>
        <time>2022-08-28T10:57:12Z</time>
      </trkpt>
      <trkpt lat="45.38474" lon="3.91277">
        <ele>919.16</ele>
        <time>2022-08-28T10:57:32Z</time>
      </trkpt>
      <trkpt lat="45.38466" lon="3.91236">
        <ele>915.79</ele>
        <time>2022-08-28T10:57:51Z</time>
      </trkpt>
      <trkpt lat="45.38466" lon="3.91234">
        <ele>915.79</ele>
        <time>2022-08-28T10:57:52Z</time>
      </trkpt>
      <trkpt lat="45.38465" lon="3.91232">
        <ele>915.79</ele>
        <time>2022-08-28T10:57:53Z</time>
      </trkpt>
      <trkpt lat="45.38459" lon="3.91207">
        <ele>918.2</ele>
        <time>2022-08-28T10:58:11Z</time>
      </trkpt>
      <trkpt lat="45.38443" lon="3.91168">
        <ele>919.64</ele>
        <time>2022-08-28T10:58:34Z</time>
      </trkpt>
      <trkpt lat="45.38436" lon="3.91122">
        <ele>915.31</ele>
        <time>2022-08-28T10:58:56Z</time>
      </trkpt>
      <trkpt lat="45.38435" lon="3.91074">
        <ele>909.06</ele>
        <time>2022-08-28T10:59:15Z</time>
      </trkpt>
      <trkpt lat="45.38434" lon="3.91026">
        <ele>902.82</ele>
        <time>2022-08-28T10:59:37Z</time>
      </trkpt>
      <trkpt lat="45.38434" lon="3.90983">
        <ele>898.01</ele>
        <time>2022-08-28T10:59:59Z</time>
      </trkpt>
      <trkpt lat="45.38436" lon="3.90948">
        <ele>895.12</ele>
        <time>2022-08-28T11:00:19Z</time>
      </trkpt>
      <trkpt lat="45.38435" lon="3.90917">
        <ele>892.72</ele>
        <time>2022-08-28T11:00:38Z</time>
      </trkpt>
      <trkpt lat="45.3843" lon="3.90892">
        <ele>890.32</ele>
        <time>2022-08-28T11:00:56Z</time>
      </trkpt>
      <trkpt lat="45.38421" lon="3.90869">
        <ele>886.95</ele>
        <time>2022-08-28T11:01:13Z</time>
      </trkpt>
      <trkpt lat="45.38412" lon="3.90846">
        <ele>883.59</ele>
        <time>2022-08-28T11:01:31Z</time>
      </trkpt>
      <trkpt lat="45.384" lon="3.90821">
        <ele>880.22</ele>
        <time>2022-08-28T11:01:50Z</time>
      </trkpt>
      <trkpt lat="45.38388" lon="3.90793">
        <ele>876.86</ele>
        <time>2022-08-28T11:02:11Z</time>
      </trkpt>
      <trkpt lat="45.38385" lon="3.9075">
        <ele>873.98</ele>
        <time>2022-08-28T11:02:33Z</time>
      </trkpt>
      <trkpt lat="45.38384" lon="3.90712">
        <ele>872.05</ele>
        <time>2022-08-28T11:02:53Z</time>
      </trkpt>
      <trkpt lat="45.3836" lon="3.90689">
        <ele>871.09</ele>
        <time>2022-08-28T11:03:12Z</time>
      </trkpt>
      <trkpt lat="45.38333" lon="3.90668">
        <ele>870.61</ele>
        <time>2022-08-28T11:03:31Z</time>
      </trkpt>
      <trkpt lat="45.38311" lon="3.90643">
        <ele>869.65</ele>
        <time>2022-08-28T11:03:49Z</time>
      </trkpt>
      <trkpt lat="45.38287" lon="3.90612">
        <ele>868.69</ele>
        <time>2022-08-28T11:04:11Z</time>
      </trkpt>
      <trkpt lat="45.38263" lon="3.90582">
        <ele>868.69</ele>
        <time>2022-08-28T11:04:31Z</time>
      </trkpt>
      <trkpt lat="45.38253" lon="3.90556">
        <ele>868.69</ele>
        <time>2022-08-28T11:04:48Z</time>
      </trkpt>
      <trkpt lat="45.3825" lon="3.90547">
        <ele>868.21</ele>
        <time>2022-08-28T11:04:56Z</time>
      </trkpt>
      <trkpt lat="45.38249" lon="3.90546">
        <ele>868.69</ele>
        <time>2022-08-28T11:04:57Z</time>
      </trkpt>
      <trkpt lat="45.38252" lon="3.90537">
        <ele>867.73</ele>
        <time>2022-08-28T11:05:08Z</time>
      </trkpt>
      <trkpt lat="45.38251" lon="3.90536">
        <ele>868.21</ele>
        <time>2022-08-28T11:05:35Z</time>
      </trkpt>
      <trkpt lat="45.3825" lon="3.90535">
        <ele>868.69</ele>
        <time>2022-08-28T11:06:02Z</time>
      </trkpt>
      <trkpt lat="45.3825" lon="3.90534">
        <ele>869.17</ele>
        <time>2022-08-28T11:06:30Z</time>
      </trkpt>
      <trkpt lat="45.3825" lon="3.90534">
        <ele>867.73</ele>
        <time>2022-08-28T11:06:40Z</time>
      </trkpt>
      <trkpt lat="45.38243" lon="3.9052">
        <ele>866.29</ele>
        <time>2022-08-28T11:06:52Z</time>
      </trkpt>
      <trkpt lat="45.38242" lon="3.90519">
        <ele>866.29</ele>
        <time>2022-08-28T11:06:53Z</time>
      </trkpt>
      <trkpt lat="45.3824" lon="3.90483">
        <ele>866.77</ele>
        <time>2022-08-28T11:07:13Z</time>
      </trkpt>
      <trkpt lat="45.38237" lon="3.90447">
        <ele>865.8</ele>
        <time>2022-08-28T11:07:32Z</time>
      </trkpt>
      <trkpt lat="45.38233" lon="3.9041">
        <ele>867.25</ele>
        <time>2022-08-28T11:07:53Z</time>
      </trkpt>
      <trkpt lat="45.3823" lon="3.90377">
        <ele>867.73</ele>
        <time>2022-08-28T11:08:11Z</time>
      </trkpt>
      <trkpt lat="45.38225" lon="3.90341">
        <ele>866.29</ele>
        <time>2022-08-28T11:08:30Z</time>
      </trkpt>
      <trkpt lat="45.38218" lon="3.90303">
        <ele>863.88</ele>
        <time>2022-08-28T11:08:49Z</time>
      </trkpt>
      <trkpt lat="45.38208" lon="3.90261">
        <ele>861.48</ele>
        <time>2022-08-28T11:09:10Z</time>
      </trkpt>
      <trkpt lat="45.38199" lon="3.90226">
        <ele>860.52</ele>
        <time>2022-08-28T11:09:26Z</time>
      </trkpt>
      <trkpt lat="45.38192" lon="3.90192">
        <ele>859.08</ele>
        <time>2022-08-28T11:09:43Z</time>
      </trkpt>
      <trkpt lat="45.38187" lon="3.90165">
        <ele>858.11</ele>
        <time>2022-08-28T11:09:58Z</time>
      </trkpt>
      <trkpt lat="45.3818" lon="3.90129">
        <ele>858.11</ele>
        <time>2022-08-28T11:10:16Z</time>
      </trkpt>
      <trkpt lat="45.3817" lon="3.90091">
        <ele>857.63</ele>
        <time>2022-08-28T11:10:37Z</time>
      </trkpt>
      <trkpt lat="45.38163" lon="3.90063">
        <ele>857.15</ele>
        <time>2022-08-28T11:10:54Z</time>
      </trkpt>
      <trkpt lat="45.38154" lon="3.90032">
        <ele>856.19</ele>
        <time>2022-08-28T11:11:13Z</time>
      </trkpt>
      <trkpt lat="45.38145" lon="3.90003">
        <ele>855.71</ele>
        <time>2022-08-28T11:11:30Z</time>
      </trkpt>
      <trkpt lat="45.38136" lon="3.8997">
        <ele>857.15</ele>
        <time>2022-08-28T11:11:51Z</time>
      </trkpt>
      <trkpt lat="45.38128" lon="3.89945">
        <ele>859.08</ele>
        <time>2022-08-28T11:12:11Z</time>
      </trkpt>
      <trkpt lat="45.38117" lon="3.89925">
        <ele>860.04</ele>
        <time>2022-08-28T11:12:29Z</time>
      </trkpt>
      <trkpt lat="45.38109" lon="3.89912">
        <ele>859.08</ele>
        <time>2022-08-28T11:12:46Z</time>
      </trkpt>
      <trkpt lat="45.38116" lon="3.89905">
        <ele>860.04</ele>
        <time>2022-08-28T11:13:13Z</time>
      </trkpt>
      <trkpt lat="45.38117" lon="3.89903">
        <ele>858.59</ele>
        <time>2022-08-28T11:13:40Z</time>
      </trkpt>
      <trkpt lat="45.38117" lon="3.89906">
        <ele>857.63</ele>
        <time>2022-08-28T11:13:46Z</time>
      </trkpt>
      <trkpt lat="45.38125" lon="3.89916">
        <ele>859.08</ele>
        <time>2022-08-28T11:14:04Z</time>
      </trkpt>
      <trkpt lat="45.38131" lon="3.89916">
        <ele>860.52</ele>
        <time>2022-08-28T11:14:18Z</time>
      </trkpt>
      <trkpt lat="45.38131" lon="3.89908">
        <ele>862.44</ele>
        <time>2022-08-28T11:14:34Z</time>
      </trkpt>
      <trkpt lat="45.38136" lon="3.89914">
        <ele>861.48</ele>
        <time>2022-08-28T11:15:06Z</time>
      </trkpt>
      <trkpt lat="45.38137" lon="3.89912">
        <ele>861</ele>
        <time>2022-08-28T11:15:37Z</time>
      </trkpt>
      <trkpt lat="45.38137" lon="3.89906">
        <ele>862.44</ele>
        <time>2022-08-28T11:15:59Z</time>
      </trkpt>
      <trkpt lat="45.38133" lon="3.89916">
        <ele>862.44</ele>
        <time>2022-08-28T11:16:19Z</time>
      </trkpt>
      <trkpt lat="45.38126" lon="3.89919">
        <ele>861</ele>
        <time>2022-08-28T11:16:36Z</time>
      </trkpt>
      <trkpt lat="45.38114" lon="3.89911">
        <ele>858.11</ele>
        <time>2022-08-28T11:16:57Z</time>
      </trkpt>
      <trkpt lat="45.38114" lon="3.89904">
        <ele>856.19</ele>
        <time>2022-08-28T11:17:19Z</time>
      </trkpt>
      <trkpt lat="45.38103" lon="3.89899">
        <ele>854.27</ele>
        <time>2022-08-28T11:17:37Z</time>
      </trkpt>
      <trkpt lat="45.38103" lon="3.89892">
        <ele>854.75</ele>
        <time>2022-08-28T11:17:52Z</time>
      </trkpt>
      <trkpt lat="45.38099" lon="3.89888">
        <ele>855.71</ele>
        <time>2022-08-28T11:18:15Z</time>
      </trkpt>
      <trkpt lat="45.38094" lon="3.89874">
        <ele>853.31</ele>
        <time>2022-08-28T11:18:31Z</time>
      </trkpt>
      <trkpt lat="45.38088" lon="3.89852">
        <ele>851.38</ele>
        <time>2022-08-28T11:18:50Z</time>
      </trkpt>
      <trkpt lat="45.3808" lon="3.89837">
        <ele>848.5</ele>
        <time>2022-08-28T11:19:06Z</time>
      </trkpt>
      <trkpt lat="45.38076" lon="3.89821">
        <ele>845.62</ele>
        <time>2022-08-28T11:19:18Z</time>
      </trkpt>
      <trkpt lat="45.38072" lon="3.89792">
        <ele>842.25</ele>
        <time>2022-08-28T11:19:34Z</time>
      </trkpt>
      <trkpt lat="45.38067" lon="3.89768">
        <ele>844.18</ele>
        <time>2022-08-28T11:19:51Z</time>
      </trkpt>
      <trkpt lat="45.38066" lon="3.89753">
        <ele>842.73</ele>
        <time>2022-08-28T11:19:59Z</time>
      </trkpt>
      <trkpt lat="45.38068" lon="3.89747">
        <ele>842.25</ele>
        <time>2022-08-28T11:20:04Z</time>
      </trkpt>
      <trkpt lat="45.38069" lon="3.8974">
        <ele>842.25</ele>
        <time>2022-08-28T11:20:17Z</time>
      </trkpt>
      <trkpt lat="45.38066" lon="3.89731">
        <ele>842.25</ele>
        <time>2022-08-28T11:20:32Z</time>
      </trkpt>
      <trkpt lat="45.38066" lon="3.89715">
        <ele>839.37</ele>
        <time>2022-08-28T11:20:48Z</time>
      </trkpt>
      <trkpt lat="45.38063" lon="3.89708">
        <ele>836.96</ele>
        <time>2022-08-28T11:21:09Z</time>
      </trkpt>
      <trkpt lat="45.38062" lon="3.89699">
        <ele>838.89</ele>
        <time>2022-08-28T11:21:30Z</time>
      </trkpt>
      <trkpt lat="45.38055" lon="3.89683">
        <ele>840.81</ele>
        <time>2022-08-28T11:21:49Z</time>
      </trkpt>
      <trkpt lat="45.3805" lon="3.89675">
        <ele>840.33</ele>
        <time>2022-08-28T11:21:56Z</time>
      </trkpt>
      <trkpt lat="45.38042" lon="3.89652">
        <ele>840.33</ele>
        <time>2022-08-28T11:22:10Z</time>
      </trkpt>
      <trkpt lat="45.38032" lon="3.89627">
        <ele>838.41</ele>
        <time>2022-08-28T11:22:25Z</time>
      </trkpt>
      <trkpt lat="45.38019" lon="3.89605">
        <ele>836.48</ele>
        <time>2022-08-28T11:22:45Z</time>
      </trkpt>
      <trkpt lat="45.38008" lon="3.89578">
        <ele>834.08</ele>
        <time>2022-08-28T11:23:03Z</time>
      </trkpt>
      <trkpt lat="45.37994" lon="3.89547">
        <ele>835.04</ele>
        <time>2022-08-28T11:23:23Z</time>
      </trkpt>
      <trkpt lat="45.37987" lon="3.89521">
        <ele>837.45</ele>
        <time>2022-08-28T11:23:41Z</time>
      </trkpt>
      <trkpt lat="45.37992" lon="3.89486">
        <ele>836.48</ele>
        <time>2022-08-28T11:24:00Z</time>
      </trkpt>
      <trkpt lat="45.37996" lon="3.89453">
        <ele>835.52</ele>
        <time>2022-08-28T11:24:19Z</time>
      </trkpt>
      <trkpt lat="45.38002" lon="3.89414">
        <ele>830.24</ele>
        <time>2022-08-28T11:24:41Z</time>
      </trkpt>
      <trkpt lat="45.38005" lon="3.8939">
        <ele>824.95</ele>
        <time>2022-08-28T11:24:59Z</time>
      </trkpt>
      <trkpt lat="45.38007" lon="3.89367">
        <ele>823.03</ele>
        <time>2022-08-28T11:25:16Z</time>
      </trkpt>
      <trkpt lat="45.38008" lon="3.89363">
        <ele>823.03</ele>
        <time>2022-08-28T11:25:18Z</time>
      </trkpt>
      <trkpt lat="45.38009" lon="3.89327">
        <ele>815.82</ele>
        <time>2022-08-28T11:25:36Z</time>
      </trkpt>
      <trkpt lat="45.38003" lon="3.89321">
        <ele>815.34</ele>
        <time>2022-08-28T11:25:50Z</time>
      </trkpt>
      <trkpt lat="45.37996" lon="3.89299">
        <ele>813.89</ele>
        <time>2022-08-28T11:26:06Z</time>
      </trkpt>
      <trkpt lat="45.37997" lon="3.89298">
        <ele>813.41</ele>
        <time>2022-08-28T11:26:07Z</time>
      </trkpt>
      <trkpt lat="45.37995" lon="3.89283">
        <ele>808.13</ele>
        <time>2022-08-28T11:26:20Z</time>
      </trkpt>
      <trkpt lat="45.37986" lon="3.89252">
        <ele>804.28</ele>
        <time>2022-08-28T11:26:39Z</time>
      </trkpt>
      <trkpt lat="45.37975" lon="3.89222">
        <ele>803.8</ele>
        <time>2022-08-28T11:26:59Z</time>
      </trkpt>
      <trkpt lat="45.37969" lon="3.89187">
        <ele>800.44</ele>
        <time>2022-08-28T11:27:17Z</time>
      </trkpt>
      <trkpt lat="45.37964" lon="3.89152">
        <ele>800.92</ele>
        <time>2022-08-28T11:27:37Z</time>
      </trkpt>
      <trkpt lat="45.37959" lon="3.89125">
        <ele>804.76</ele>
        <time>2022-08-28T11:27:55Z</time>
      </trkpt>
      <trkpt lat="45.37952" lon="3.89102">
        <ele>813.41</ele>
        <time>2022-08-28T11:28:16Z</time>
      </trkpt>
      <trkpt lat="45.37929" lon="3.89089">
        <ele>811.49</ele>
        <time>2022-08-28T11:28:37Z</time>
      </trkpt>
      <trkpt lat="45.37912" lon="3.89093">
        <ele>808.61</ele>
        <time>2022-08-28T11:28:58Z</time>
      </trkpt>
      <trkpt lat="45.37887" lon="3.89102">
        <ele>804.28</ele>
        <time>2022-08-28T11:29:18Z</time>
      </trkpt>
      <trkpt lat="45.37858" lon="3.89117">
        <ele>801.88</ele>
        <time>2022-08-28T11:29:39Z</time>
      </trkpt>
      <trkpt lat="45.37826" lon="3.89136">
        <ele>801.88</ele>
        <time>2022-08-28T11:30:01Z</time>
      </trkpt>
      <trkpt lat="45.37811" lon="3.89139">
        <ele>801.4</ele>
        <time>2022-08-28T11:30:09Z</time>
      </trkpt>
      <trkpt lat="45.37788" lon="3.89135">
        <ele>800.44</ele>
        <time>2022-08-28T11:30:27Z</time>
      </trkpt>
      <trkpt lat="45.37764" lon="3.89129">
        <ele>798.99</ele>
        <time>2022-08-28T11:30:45Z</time>
      </trkpt>
      <trkpt lat="45.37739" lon="3.8913">
        <ele>799.95</ele>
        <time>2022-08-28T11:31:03Z</time>
      </trkpt>
      <trkpt lat="45.37736" lon="3.89115">
        <ele>798.03</ele>
        <time>2022-08-28T11:31:16Z</time>
      </trkpt>
      <trkpt lat="45.37749" lon="3.8909">
        <ele>799.95</ele>
        <time>2022-08-28T11:31:34Z</time>
      </trkpt>
      <trkpt lat="45.37751" lon="3.89086">
        <ele>800.92</ele>
        <time>2022-08-28T11:31:37Z</time>
      </trkpt>
      <trkpt lat="45.37754" lon="3.89082">
        <ele>802.36</ele>
        <time>2022-08-28T11:31:41Z</time>
      </trkpt>
      <trkpt lat="45.37772" lon="3.89063">
        <ele>807.16</ele>
        <time>2022-08-28T11:32:00Z</time>
      </trkpt>
      <trkpt lat="45.37786" lon="3.89048">
        <ele>810.53</ele>
        <time>2022-08-28T11:32:18Z</time>
      </trkpt>
      <trkpt lat="45.378" lon="3.89039">
        <ele>813.41</ele>
        <time>2022-08-28T11:32:35Z</time>
      </trkpt>
      <trkpt lat="45.37817" lon="3.8902">
        <ele>818.22</ele>
        <time>2022-08-28T11:32:54Z</time>
      </trkpt>
      <trkpt lat="45.37832" lon="3.8901">
        <ele>825.91</ele>
        <time>2022-08-28T11:33:12Z</time>
      </trkpt>
      <trkpt lat="45.37855" lon="3.88996">
        <ele>836.96</ele>
        <time>2022-08-28T11:33:31Z</time>
      </trkpt>
      <trkpt lat="45.37888" lon="3.88976">
        <ele>847.06</ele>
        <time>2022-08-28T11:33:53Z</time>
      </trkpt>
      <trkpt lat="45.37903" lon="3.88963">
        <ele>847.06</ele>
        <time>2022-08-28T11:34:10Z</time>
      </trkpt>
      <trkpt lat="45.37925" lon="3.88957">
        <ele>853.31</ele>
        <time>2022-08-28T11:34:29Z</time>
      </trkpt>
      <trkpt lat="45.37951" lon="3.8896">
        <ele>849.46</ele>
        <time>2022-08-28T11:34:46Z</time>
      </trkpt>
      <trkpt lat="45.37975" lon="3.88952">
        <ele>849.94</ele>
        <time>2022-08-28T11:35:04Z</time>
      </trkpt>
      <trkpt lat="45.37995" lon="3.88949">
        <ele>850.9</ele>
        <time>2022-08-28T11:35:20Z</time>
      </trkpt>
      <trkpt lat="45.38015" lon="3.88946">
        <ele>853.79</ele>
        <time>2022-08-28T11:35:36Z</time>
      </trkpt>
      <trkpt lat="45.3803" lon="3.8895">
        <ele>856.67</ele>
        <time>2022-08-28T11:35:52Z</time>
      </trkpt>
      <trkpt lat="45.38049" lon="3.88959">
        <ele>855.23</ele>
        <time>2022-08-28T11:36:09Z</time>
      </trkpt>
      <trkpt lat="45.38075" lon="3.8896">
        <ele>855.23</ele>
        <time>2022-08-28T11:36:28Z</time>
      </trkpt>
      <trkpt lat="45.381" lon="3.88967">
        <ele>858.59</ele>
        <time>2022-08-28T11:36:50Z</time>
      </trkpt>
      <trkpt lat="45.38125" lon="3.88974">
        <ele>860.52</ele>
        <time>2022-08-28T11:37:11Z</time>
      </trkpt>
      <trkpt lat="45.38148" lon="3.8899">
        <ele>863.4</ele>
        <time>2022-08-28T11:37:31Z</time>
      </trkpt>
      <trkpt lat="45.38164" lon="3.88996">
        <ele>864.84</ele>
        <time>2022-08-28T11:37:48Z</time>
      </trkpt>
      <trkpt lat="45.38177" lon="3.89009">
        <ele>864.84</ele>
        <time>2022-08-28T11:38:07Z</time>
      </trkpt>
      <trkpt lat="45.3819" lon="3.8902">
        <ele>866.29</ele>
        <time>2022-08-28T11:38:28Z</time>
      </trkpt>
      <trkpt lat="45.3821" lon="3.89047">
        <ele>869.65</ele>
        <time>2022-08-28T11:38:50Z</time>
      </trkpt>
      <trkpt lat="45.38233" lon="3.89084">
        <ele>858.11</ele>
        <time>2022-08-28T11:39:10Z</time>
      </trkpt>
      <trkpt lat="45.38251" lon="3.89108">
        <ele>856.19</ele>
        <time>2022-08-28T11:39:30Z</time>
      </trkpt>
      <trkpt lat="45.38271" lon="3.89132">
        <ele>851.87</ele>
        <time>2022-08-28T11:39:51Z</time>
      </trkpt>
      <trkpt lat="45.38292" lon="3.8916">
        <ele>842.73</ele>
        <time>2022-08-28T11:40:13Z</time>
      </trkpt>
      <trkpt lat="45.38306" lon="3.89176">
        <ele>837.93</ele>
        <time>2022-08-28T11:40:32Z</time>
      </trkpt>
      <trkpt lat="45.38323" lon="3.892">
        <ele>835.04</ele>
        <time>2022-08-28T11:40:51Z</time>
      </trkpt>
      <trkpt lat="45.38346" lon="3.8924">
        <ele>831.68</ele>
        <time>2022-08-28T11:41:15Z</time>
      </trkpt>
      <trkpt lat="45.3836" lon="3.89252">
        <ele>826.39</ele>
        <time>2022-08-28T11:41:31Z</time>
      </trkpt>
      <trkpt lat="45.38376" lon="3.89266">
        <ele>823.99</ele>
        <time>2022-08-28T11:41:50Z</time>
      </trkpt>
      <trkpt lat="45.38394" lon="3.89274">
        <ele>817.26</ele>
        <time>2022-08-28T11:42:05Z</time>
      </trkpt>
      <trkpt lat="45.3841" lon="3.89254">
        <ele>808.61</ele>
        <time>2022-08-28T11:42:22Z</time>
      </trkpt>
      <trkpt lat="45.38418" lon="3.89229">
        <ele>803.8</ele>
        <time>2022-08-28T11:42:36Z</time>
      </trkpt>
      <trkpt lat="45.38434" lon="3.89208">
        <ele>805.24</ele>
        <time>2022-08-28T11:42:52Z</time>
      </trkpt>
      <trkpt lat="45.38449" lon="3.89188">
        <ele>806.2</ele>
        <time>2022-08-28T11:43:08Z</time>
      </trkpt>
      <trkpt lat="45.38468" lon="3.89168">
        <ele>814.85</ele>
        <time>2022-08-28T11:43:27Z</time>
      </trkpt>
      <trkpt lat="45.38491" lon="3.89141">
        <ele>813.89</ele>
        <time>2022-08-28T11:43:45Z</time>
      </trkpt>
      <trkpt lat="45.38513" lon="3.89119">
        <ele>814.37</ele>
        <time>2022-08-28T11:44:04Z</time>
      </trkpt>
      <trkpt lat="45.3854" lon="3.89105">
        <ele>815.82</ele>
        <time>2022-08-28T11:44:24Z</time>
      </trkpt>
      <trkpt lat="45.38566" lon="3.89093">
        <ele>815.82</ele>
        <time>2022-08-28T11:44:42Z</time>
      </trkpt>
      <trkpt lat="45.38583" lon="3.89097">
        <ele>814.85</ele>
        <time>2022-08-28T11:44:58Z</time>
      </trkpt>
      <trkpt lat="45.38603" lon="3.89089">
        <ele>811.49</ele>
        <time>2022-08-28T11:45:15Z</time>
      </trkpt>
      <trkpt lat="45.38627" lon="3.89073">
        <ele>810.05</ele>
        <time>2022-08-28T11:45:35Z</time>
      </trkpt>
      <trkpt lat="45.38654" lon="3.89056">
        <ele>812.45</ele>
        <time>2022-08-28T11:45:55Z</time>
      </trkpt>
      <trkpt lat="45.3868" lon="3.89044">
        <ele>813.41</ele>
        <time>2022-08-28T11:46:15Z</time>
      </trkpt>
      <trkpt lat="45.387" lon="3.8906">
        <ele>811.01</ele>
        <time>2022-08-28T11:46:34Z</time>
      </trkpt>
      <trkpt lat="45.38733" lon="3.89066">
        <ele>811.97</ele>
        <time>2022-08-28T11:46:55Z</time>
      </trkpt>
      <trkpt lat="45.38759" lon="3.89071">
        <ele>813.41</ele>
        <time>2022-08-28T11:47:13Z</time>
      </trkpt>
      <trkpt lat="45.38781" lon="3.89078">
        <ele>812.93</ele>
        <time>2022-08-28T11:47:29Z</time>
      </trkpt>
      <trkpt lat="45.38807" lon="3.89083">
        <ele>813.41</ele>
        <time>2022-08-28T11:47:48Z</time>
      </trkpt>
      <trkpt lat="45.38832" lon="3.89091">
        <ele>814.37</ele>
        <time>2022-08-28T11:48:06Z</time>
      </trkpt>
      <trkpt lat="45.38854" lon="3.89099">
        <ele>814.37</ele>
        <time>2022-08-28T11:48:23Z</time>
      </trkpt>
      <trkpt lat="45.38881" lon="3.89101">
        <ele>814.85</ele>
        <time>2022-08-28T11:48:41Z</time>
      </trkpt>
      <trkpt lat="45.389" lon="3.89097">
        <ele>815.82</ele>
        <time>2022-08-28T11:48:54Z</time>
      </trkpt>
      <trkpt lat="45.38923" lon="3.89093">
        <ele>816.78</ele>
        <time>2022-08-28T11:49:12Z</time>
      </trkpt>
      <trkpt lat="45.38945" lon="3.89086">
        <ele>818.22</ele>
        <time>2022-08-28T11:49:28Z</time>
      </trkpt>
      <trkpt lat="45.3896" lon="3.89085">
        <ele>817.74</ele>
        <time>2022-08-28T11:49:38Z</time>
      </trkpt>
      <trkpt lat="45.38968" lon="3.89076">
        <ele>817.26</ele>
        <time>2022-08-28T11:49:43Z</time>
      </trkpt>
      <trkpt lat="45.38969" lon="3.89074">
        <ele>817.26</ele>
        <time>2022-08-28T11:49:44Z</time>
      </trkpt>
      <trkpt lat="45.3897" lon="3.89071">
        <ele>817.26</ele>
        <time>2022-08-28T11:49:45Z</time>
      </trkpt>
      <trkpt lat="45.38987" lon="3.89046">
        <ele>819.66</ele>
        <time>2022-08-28T11:50:02Z</time>
      </trkpt>
      <trkpt lat="45.38988" lon="3.89044">
        <ele>818.7</ele>
        <time>2022-08-28T11:50:21Z</time>
      </trkpt>
      <trkpt lat="45.38988" lon="3.89042">
        <ele>817.74</ele>
        <time>2022-08-28T11:50:42Z</time>
      </trkpt>
      <trkpt lat="45.38988" lon="3.89043">
        <ele>816.3</ele>
        <time>2022-08-28T11:51:04Z</time>
      </trkpt>
      <trkpt lat="45.38989" lon="3.89042">
        <ele>814.37</ele>
        <time>2022-08-28T11:51:20Z</time>
      </trkpt>
      <trkpt lat="45.38988" lon="3.8904">
        <ele>812.93</ele>
        <time>2022-08-28T11:51:43Z</time>
      </trkpt>
      <trkpt lat="45.38992" lon="3.89037">
        <ele>814.37</ele>
        <time>2022-08-28T11:52:04Z</time>
      </trkpt>
      <trkpt lat="45.38994" lon="3.89036">
        <ele>815.34</ele>
        <time>2022-08-28T11:52:22Z</time>
      </trkpt>
      <trkpt lat="45.38999" lon="3.89044">
        <ele>813.89</ele>
        <time>2022-08-28T11:52:37Z</time>
      </trkpt>
      <trkpt lat="45.38999" lon="3.89046">
        <ele>814.37</ele>
        <time>2022-08-28T11:53:01Z</time>
      </trkpt>
      <trkpt lat="45.38997" lon="3.8905">
        <ele>813.89</ele>
        <time>2022-08-28T11:53:20Z</time>
      </trkpt>
      <trkpt lat="45.38998" lon="3.89041">
        <ele>816.3</ele>
        <time>2022-08-28T11:53:35Z</time>
      </trkpt>
      <trkpt lat="45.38994" lon="3.89023">
        <ele>817.26</ele>
        <time>2022-08-28T11:53:58Z</time>
      </trkpt>
      <trkpt lat="45.38994" lon="3.89037">
        <ele>814.85</ele>
        <time>2022-08-28T11:54:12Z</time>
      </trkpt>
      <trkpt lat="45.38996" lon="3.89035">
        <ele>816.3</ele>
        <time>2022-08-28T11:54:27Z</time>
      </trkpt>
      <trkpt lat="45.38997" lon="3.89039">
        <ele>816.78</ele>
        <time>2022-08-28T11:54:42Z</time>
      </trkpt>
      <trkpt lat="45.38997" lon="3.89039">
        <ele>815.82</ele>
        <time>2022-08-28T11:54:57Z</time>
      </trkpt>
      <trkpt lat="45.38999" lon="3.8904">
        <ele>815.82</ele>
        <time>2022-08-28T11:55:11Z</time>
      </trkpt>
      <trkpt lat="45.39" lon="3.8904">
        <ele>816.78</ele>
        <time>2022-08-28T11:55:32Z</time>
      </trkpt>
      <trkpt lat="45.39" lon="3.8904">
        <ele>815.82</ele>
        <time>2022-08-28T11:55:48Z</time>
      </trkpt>
      <trkpt lat="45.38997" lon="3.89042">
        <ele>815.34</ele>
        <time>2022-08-28T11:56:04Z</time>
      </trkpt>
      <trkpt lat="45.38995" lon="3.89041">
        <ele>815.34</ele>
        <time>2022-08-28T11:56:23Z</time>
      </trkpt>
      <trkpt lat="45.38994" lon="3.89042">
        <ele>814.37</ele>
        <time>2022-08-28T11:56:46Z</time>
      </trkpt>
      <trkpt lat="45.38994" lon="3.89037">
        <ele>815.34</ele>
        <time>2022-08-28T11:57:04Z</time>
      </trkpt>
      <trkpt lat="45.38994" lon="3.89035">
        <ele>820.62</ele>
        <time>2022-08-28T11:57:19Z</time>
      </trkpt>
      <trkpt lat="45.3899" lon="3.89025">
        <ele>822.06</ele>
        <time>2022-08-28T11:57:46Z</time>
      </trkpt>
      <trkpt lat="45.38998" lon="3.89032">
        <ele>822.06</ele>
        <time>2022-08-28T11:58:01Z</time>
      </trkpt>
      <trkpt lat="45.38999" lon="3.8904">
        <ele>821.58</ele>
        <time>2022-08-28T11:58:16Z</time>
      </trkpt>
      <trkpt lat="45.38998" lon="3.89038">
        <ele>818.7</ele>
        <time>2022-08-28T11:58:30Z</time>
      </trkpt>
      <trkpt lat="45.38997" lon="3.89037">
        <ele>823.99</ele>
        <time>2022-08-28T11:58:44Z</time>
      </trkpt>
      <trkpt lat="45.38997" lon="3.89037">
        <ele>829.76</ele>
        <time>2022-08-28T11:59:02Z</time>
      </trkpt>
      <trkpt lat="45.38997" lon="3.89038">
        <ele>832.64</ele>
        <time>2022-08-28T11:59:18Z</time>
      </trkpt>
      <trkpt lat="45.38997" lon="3.89047">
        <ele>833.6</ele>
        <time>2022-08-28T11:59:48Z</time>
      </trkpt>
      <trkpt lat="45.38995" lon="3.89041">
        <ele>835.04</ele>
        <time>2022-08-28T12:00:05Z</time>
      </trkpt>
      <trkpt lat="45.38996" lon="3.89035">
        <ele>835.04</ele>
        <time>2022-08-28T12:00:23Z</time>
      </trkpt>
      <trkpt lat="45.38998" lon="3.89025">
        <ele>834.08</ele>
        <time>2022-08-28T12:00:48Z</time>
      </trkpt>
      <trkpt lat="45.38997" lon="3.89028">
        <ele>831.2</ele>
        <time>2022-08-28T12:01:06Z</time>
      </trkpt>
      <trkpt lat="45.38996" lon="3.89035">
        <ele>827.83</ele>
        <time>2022-08-28T12:01:23Z</time>
      </trkpt>
      <trkpt lat="45.38992" lon="3.89036">
        <ele>824.47</ele>
        <time>2022-08-28T12:01:38Z</time>
      </trkpt>
      <trkpt lat="45.38994" lon="3.89038">
        <ele>825.91</ele>
        <time>2022-08-28T12:01:51Z</time>
      </trkpt>
      <trkpt lat="45.38994" lon="3.89033">
        <ele>829.76</ele>
        <time>2022-08-28T12:02:08Z</time>
      </trkpt>
      <trkpt lat="45.38993" lon="3.89019">
        <ele>832.64</ele>
        <time>2022-08-28T12:02:34Z</time>
      </trkpt>
      <trkpt lat="45.38995" lon="3.89021">
        <ele>835.04</ele>
        <time>2022-08-28T12:02:58Z</time>
      </trkpt>
      <trkpt lat="45.38994" lon="3.89007">
        <ele>837.45</ele>
        <time>2022-08-28T12:03:29Z</time>
      </trkpt>
      <trkpt lat="45.38988" lon="3.89019">
        <ele>836.96</ele>
        <time>2022-08-28T12:03:58Z</time>
      </trkpt>
      <trkpt lat="45.38994" lon="3.89014">
        <ele>837.45</ele>
        <time>2022-08-28T12:04:29Z</time>
      </trkpt>
      <trkpt lat="45.38991" lon="3.89013">
        <ele>840.81</ele>
        <time>2022-08-28T12:04:58Z</time>
      </trkpt>
      <trkpt lat="45.38988" lon="3.89012">
        <ele>845.62</ele>
        <time>2022-08-28T12:05:36Z</time>
      </trkpt>
      <trkpt lat="45.3899" lon="3.89009">
        <ele>844.66</ele>
        <time>2022-08-28T12:06:13Z</time>
      </trkpt>
      <trkpt lat="45.38993" lon="3.89008">
        <ele>844.18</ele>
        <time>2022-08-28T12:06:38Z</time>
      </trkpt>
      <trkpt lat="45.38988" lon="3.89012">
        <ele>844.18</ele>
        <time>2022-08-28T12:07:13Z</time>
      </trkpt>
      <trkpt lat="45.38991" lon="3.89011">
        <ele>835.04</ele>
        <time>2022-08-28T12:07:43Z</time>
      </trkpt>
      <trkpt lat="45.38986" lon="3.89005">
        <ele>835.52</ele>
        <time>2022-08-28T12:08:15Z</time>
      </trkpt>
      <trkpt lat="45.38987" lon="3.89007">
        <ele>830.72</ele>
        <time>2022-08-28T12:08:45Z</time>
      </trkpt>
      <trkpt lat="45.3899" lon="3.89002">
        <ele>833.12</ele>
        <time>2022-08-28T12:09:24Z</time>
      </trkpt>
      <trkpt lat="45.38996" lon="3.89007">
        <ele>831.68</ele>
        <time>2022-08-28T12:09:58Z</time>
      </trkpt>
      <trkpt lat="45.38996" lon="3.89013">
        <ele>828.31</ele>
        <time>2022-08-28T12:10:31Z</time>
      </trkpt>
      <trkpt lat="45.39004" lon="3.88996">
        <ele>815.82</ele>
        <time>2022-08-28T12:11:03Z</time>
      </trkpt>
      <trkpt lat="45.38992" lon="3.89007">
        <ele>812.93</ele>
        <time>2022-08-28T12:11:43Z</time>
      </trkpt>
      <trkpt lat="45.38986" lon="3.89007">
        <ele>812.93</ele>
        <time>2022-08-28T12:12:19Z</time>
      </trkpt>
      <trkpt lat="45.3899" lon="3.89001">
        <ele>820.14</ele>
        <time>2022-08-28T12:12:47Z</time>
      </trkpt>
      <trkpt lat="45.38992" lon="3.89003">
        <ele>833.6</ele>
        <time>2022-08-28T12:13:35Z</time>
      </trkpt>
      <trkpt lat="45.38986" lon="3.89011">
        <ele>826.39</ele>
        <time>2022-08-28T12:14:25Z</time>
      </trkpt>
      <trkpt lat="45.38991" lon="3.89009">
        <ele>825.91</ele>
        <time>2022-08-28T12:15:03Z</time>
      </trkpt>
      <trkpt lat="45.3899" lon="3.89016">
        <ele>820.62</ele>
        <time>2022-08-28T12:15:21Z</time>
      </trkpt>
      <trkpt lat="45.38989" lon="3.89015">
        <ele>820.14</ele>
        <time>2022-08-28T12:15:44Z</time>
      </trkpt>
      <trkpt lat="45.38993" lon="3.89016">
        <ele>819.66</ele>
        <time>2022-08-28T12:15:59Z</time>
      </trkpt>
      <trkpt lat="45.38996" lon="3.89008">
        <ele>821.1</ele>
        <time>2022-08-28T12:16:32Z</time>
      </trkpt>
      <trkpt lat="45.38993" lon="3.89009">
        <ele>822.55</ele>
        <time>2022-08-28T12:17:03Z</time>
      </trkpt>
      <trkpt lat="45.38999" lon="3.89019">
        <ele>822.06</ele>
        <time>2022-08-28T12:17:28Z</time>
      </trkpt>
      <trkpt lat="45.38998" lon="3.8901">
        <ele>825.91</ele>
        <time>2022-08-28T12:18:11Z</time>
      </trkpt>
      <trkpt lat="45.39005" lon="3.89007">
        <ele>825.91</ele>
        <time>2022-08-28T12:18:43Z</time>
      </trkpt>
      <trkpt lat="45.39001" lon="3.8901">
        <ele>824.95</ele>
        <time>2022-08-28T12:19:21Z</time>
      </trkpt>
      <trkpt lat="45.39003" lon="3.89008">
        <ele>828.79</ele>
        <time>2022-08-28T12:20:10Z</time>
      </trkpt>
      <trkpt lat="45.38998" lon="3.89009">
        <ele>825.91</ele>
        <time>2022-08-28T12:20:54Z</time>
      </trkpt>
      <trkpt lat="45.39005" lon="3.89011">
        <ele>823.99</ele>
        <time>2022-08-28T12:21:35Z</time>
      </trkpt>
      <trkpt lat="45.38998" lon="3.8901">
        <ele>826.87</ele>
        <time>2022-08-28T12:22:07Z</time>
      </trkpt>
      <trkpt lat="45.39004" lon="3.89006">
        <ele>830.72</ele>
        <time>2022-08-28T12:22:42Z</time>
      </trkpt>
      <trkpt lat="45.38997" lon="3.89011">
        <ele>825.91</ele>
        <time>2022-08-28T12:23:17Z</time>
      </trkpt>
      <trkpt lat="45.38997" lon="3.89011">
        <ele>826.39</ele>
        <time>2022-08-28T12:24:05Z</time>
      </trkpt>
      <trkpt lat="45.39003" lon="3.89006">
        <ele>825.43</ele>
        <time>2022-08-28T12:24:54Z</time>
      </trkpt>
      <trkpt lat="45.39004" lon="3.89004">
        <ele>821.58</ele>
        <time>2022-08-28T12:25:34Z</time>
      </trkpt>
      <trkpt lat="45.39001" lon="3.89011">
        <ele>819.66</ele>
        <time>2022-08-28T12:26:10Z</time>
      </trkpt>
      <trkpt lat="45.38998" lon="3.89009">
        <ele>818.22</ele>
        <time>2022-08-28T12:26:55Z</time>
      </trkpt>
      <trkpt lat="45.38998" lon="3.89011">
        <ele>821.58</ele>
        <time>2022-08-28T12:27:36Z</time>
      </trkpt>
      <trkpt lat="45.38995" lon="3.89014">
        <ele>825.91</ele>
        <time>2022-08-28T12:28:08Z</time>
      </trkpt>
      <trkpt lat="45.38998" lon="3.89018">
        <ele>823.99</ele>
        <time>2022-08-28T12:28:44Z</time>
      </trkpt>
      <trkpt lat="45.39003" lon="3.8901">
        <ele>825.91</ele>
        <time>2022-08-28T12:29:21Z</time>
      </trkpt>
      <trkpt lat="45.39" lon="3.89015">
        <ele>821.58</ele>
        <time>2022-08-28T12:30:02Z</time>
      </trkpt>
      <trkpt lat="45.39003" lon="3.89015">
        <ele>823.51</ele>
        <time>2022-08-28T12:30:41Z</time>
      </trkpt>
      <trkpt lat="45.39003" lon="3.89014">
        <ele>822.06</ele>
        <time>2022-08-28T12:31:24Z</time>
      </trkpt>
      <trkpt lat="45.39005" lon="3.8901">
        <ele>822.55</ele>
        <time>2022-08-28T12:32:00Z</time>
      </trkpt>
      <trkpt lat="45.39006" lon="3.89014">
        <ele>828.31</ele>
        <time>2022-08-28T12:32:41Z</time>
      </trkpt>
      <trkpt lat="45.38998" lon="3.89019">
        <ele>826.87</ele>
        <time>2022-08-28T12:32:48Z</time>
      </trkpt>
      <trkpt lat="45.38982" lon="3.89025">
        <ele>822.55</ele>
        <time>2022-08-28T12:33:03Z</time>
      </trkpt>
      <trkpt lat="45.38985" lon="3.8902">
        <ele>822.55</ele>
        <time>2022-08-28T12:33:15Z</time>
      </trkpt>
      <trkpt lat="45.38976" lon="3.89017">
        <ele>819.18</ele>
        <time>2022-08-28T12:33:27Z</time>
      </trkpt>
      <trkpt lat="45.3897" lon="3.89013">
        <ele>820.14</ele>
        <time>2022-08-28T12:33:41Z</time>
      </trkpt>
      <trkpt lat="45.38956" lon="3.89001">
        <ele>819.18</ele>
        <time>2022-08-28T12:34:00Z</time>
      </trkpt>
      <trkpt lat="45.38945" lon="3.88991">
        <ele>822.55</ele>
        <time>2022-08-28T12:34:22Z</time>
      </trkpt>
      <trkpt lat="45.38929" lon="3.88991">
        <ele>825.43</ele>
        <time>2022-08-28T12:34:45Z</time>
      </trkpt>
      <trkpt lat="45.3892" lon="3.88988">
        <ele>828.31</ele>
        <time>2022-08-28T12:35:06Z</time>
      </trkpt>
      <trkpt lat="45.38921" lon="3.88971">
        <ele>831.2</ele>
        <time>2022-08-28T12:35:34Z</time>
      </trkpt>
      <trkpt lat="45.38922" lon="3.88978">
        <ele>831.2</ele>
        <time>2022-08-28T12:35:57Z</time>
      </trkpt>
      <trkpt lat="45.38935" lon="3.88992">
        <ele>827.35</ele>
        <time>2022-08-28T12:36:15Z</time>
      </trkpt>
      <trkpt lat="45.38949" lon="3.8899">
        <ele>825.91</ele>
        <time>2022-08-28T12:36:33Z</time>
      </trkpt>
      <trkpt lat="45.38968" lon="3.88996">
        <ele>828.31</ele>
        <time>2022-08-28T12:36:53Z</time>
      </trkpt>
      <trkpt lat="45.38979" lon="3.89011">
        <ele>827.83</ele>
        <time>2022-08-28T12:37:08Z</time>
      </trkpt>
      <trkpt lat="45.38984" lon="3.8902">
        <ele>824.95</ele>
        <time>2022-08-28T12:37:23Z</time>
      </trkpt>
      <trkpt lat="45.38994" lon="3.89028">
        <ele>823.51</ele>
        <time>2022-08-28T12:37:39Z</time>
      </trkpt>
      <trkpt lat="45.38995" lon="3.89032">
        <ele>823.51</ele>
        <time>2022-08-28T12:37:53Z</time>
      </trkpt>
      <trkpt lat="45.38997" lon="3.89029">
        <ele>822.06</ele>
        <time>2022-08-28T12:38:07Z</time>
      </trkpt>
      <trkpt lat="45.38995" lon="3.89026">
        <ele>824.47</ele>
        <time>2022-08-28T12:38:21Z</time>
      </trkpt>
      <trkpt lat="45.38991" lon="3.89027">
        <ele>826.39</ele>
        <time>2022-08-28T12:38:43Z</time>
      </trkpt>
      <trkpt lat="45.38994" lon="3.89041">
        <ele>827.83</ele>
        <time>2022-08-28T12:39:13Z</time>
      </trkpt>
      <trkpt lat="45.38995" lon="3.89036">
        <ele>827.35</ele>
        <time>2022-08-28T12:39:20Z</time>
      </trkpt>
      <trkpt lat="45.38996" lon="3.89031">
        <ele>829.27</ele>
        <time>2022-08-28T12:39:37Z</time>
      </trkpt>
      <trkpt lat="45.38995" lon="3.89031">
        <ele>829.76</ele>
        <time>2022-08-28T12:40:01Z</time>
      </trkpt>
      <trkpt lat="45.38991" lon="3.89026">
        <ele>831.68</ele>
        <time>2022-08-28T12:40:21Z</time>
      </trkpt>
      <trkpt lat="45.38993" lon="3.89011">
        <ele>832.64</ele>
        <time>2022-08-28T12:41:02Z</time>
      </trkpt>
      <trkpt lat="45.38988" lon="3.89015">
        <ele>826.87</ele>
        <time>2022-08-28T12:41:34Z</time>
      </trkpt>
      <trkpt lat="45.38991" lon="3.8902">
        <ele>826.39</ele>
        <time>2022-08-28T12:42:05Z</time>
      </trkpt>
      <trkpt lat="45.38987" lon="3.89023">
        <ele>823.99</ele>
        <time>2022-08-28T12:42:34Z</time>
      </trkpt>
      <trkpt lat="45.38978" lon="3.89022">
        <ele>823.51</ele>
        <time>2022-08-28T12:42:48Z</time>
      </trkpt>
      <trkpt lat="45.38967" lon="3.89014">
        <ele>825.91</ele>
        <time>2022-08-28T12:43:05Z</time>
      </trkpt>
      <trkpt lat="45.38954" lon="3.89007">
        <ele>819.18</ele>
        <time>2022-08-28T12:43:24Z</time>
      </trkpt>
      <trkpt lat="45.38943" lon="3.89005">
        <ele>820.14</ele>
        <time>2022-08-28T12:43:41Z</time>
      </trkpt>
      <trkpt lat="45.38935" lon="3.89">
        <ele>820.62</ele>
        <time>2022-08-28T12:43:59Z</time>
      </trkpt>
      <trkpt lat="45.38928" lon="3.88993">
        <ele>823.03</ele>
        <time>2022-08-28T12:44:20Z</time>
      </trkpt>
      <trkpt lat="45.38925" lon="3.88991">
        <ele>824.47</ele>
        <time>2022-08-28T12:44:40Z</time>
      </trkpt>
      <trkpt lat="45.38921" lon="3.88992">
        <ele>828.79</ele>
        <time>2022-08-28T12:44:58Z</time>
      </trkpt>
      <trkpt lat="45.38915" lon="3.88981">
        <ele>828.79</ele>
        <time>2022-08-28T12:45:22Z</time>
      </trkpt>
      <trkpt lat="45.38911" lon="3.88986">
        <ele>830.24</ele>
        <time>2022-08-28T12:45:45Z</time>
      </trkpt>
      <trkpt lat="45.38908" lon="3.88974">
        <ele>830.72</ele>
        <time>2022-08-28T12:46:05Z</time>
      </trkpt>
      <trkpt lat="45.38903" lon="3.8896">
        <ele>828.79</ele>
        <time>2022-08-28T12:46:27Z</time>
      </trkpt>
      <trkpt lat="45.38895" lon="3.8896">
        <ele>828.79</ele>
        <time>2022-08-28T12:46:59Z</time>
      </trkpt>
      <trkpt lat="45.38899" lon="3.88963">
        <ele>829.76</ele>
        <time>2022-08-28T12:47:26Z</time>
      </trkpt>
      <trkpt lat="45.38904" lon="3.88965">
        <ele>835.52</ele>
        <time>2022-08-28T12:47:41Z</time>
      </trkpt>
      <trkpt lat="45.38904" lon="3.8898">
        <ele>838.89</ele>
        <time>2022-08-28T12:48:02Z</time>
      </trkpt>
      <trkpt lat="45.3892" lon="3.8899">
        <ele>831.68</ele>
        <time>2022-08-28T12:48:21Z</time>
      </trkpt>
      <trkpt lat="45.38936" lon="3.89001">
        <ele>829.27</ele>
        <time>2022-08-28T12:48:42Z</time>
      </trkpt>
      <trkpt lat="45.38954" lon="3.88999">
        <ele>826.87</ele>
        <time>2022-08-28T12:49:02Z</time>
      </trkpt>
      <trkpt lat="45.38971" lon="3.89003">
        <ele>824.47</ele>
        <time>2022-08-28T12:49:21Z</time>
      </trkpt>
      <trkpt lat="45.38978" lon="3.89014">
        <ele>824.47</ele>
        <time>2022-08-28T12:49:40Z</time>
      </trkpt>
      <trkpt lat="45.38982" lon="3.89012">
        <ele>825.91</ele>
        <time>2022-08-28T12:49:55Z</time>
      </trkpt>
      <trkpt lat="45.38987" lon="3.89021">
        <ele>828.31</ele>
        <time>2022-08-28T12:50:18Z</time>
      </trkpt>
      <trkpt lat="45.38991" lon="3.89022">
        <ele>827.83</ele>
        <time>2022-08-28T12:50:37Z</time>
      </trkpt>
      <trkpt lat="45.38998" lon="3.89029">
        <ele>832.16</ele>
        <time>2022-08-28T12:50:54Z</time>
      </trkpt>
      <trkpt lat="45.39003" lon="3.89026">
        <ele>841.77</ele>
        <time>2022-08-28T12:51:26Z</time>
      </trkpt>
      <trkpt lat="45.39" lon="3.89036">
        <ele>838.41</ele>
        <time>2022-08-28T12:51:57Z</time>
      </trkpt>
      <trkpt lat="45.39002" lon="3.89037">
        <ele>836.48</ele>
        <time>2022-08-28T12:52:12Z</time>
      </trkpt>
      <trkpt lat="45.39001" lon="3.89032">
        <ele>832.64</ele>
        <time>2022-08-28T12:52:26Z</time>
      </trkpt>
      <trkpt lat="45.38998" lon="3.8903">
        <ele>829.27</ele>
        <time>2022-08-28T12:52:44Z</time>
      </trkpt>
      <trkpt lat="45.38997" lon="3.8903">
        <ele>826.87</ele>
        <time>2022-08-28T12:53:01Z</time>
      </trkpt>
      <trkpt lat="45.38997" lon="3.89032">
        <ele>822.55</ele>
        <time>2022-08-28T12:53:17Z</time>
      </trkpt>
      <trkpt lat="45.38996" lon="3.89031">
        <ele>821.58</ele>
        <time>2022-08-28T12:53:41Z</time>
      </trkpt>
      <trkpt lat="45.39001" lon="3.89031">
        <ele>819.66</ele>
        <time>2022-08-28T12:53:59Z</time>
      </trkpt>
      <trkpt lat="45.39001" lon="3.89025">
        <ele>817.26</ele>
        <time>2022-08-28T12:54:22Z</time>
      </trkpt>
      <trkpt lat="45.39" lon="3.89032">
        <ele>816.78</ele>
        <time>2022-08-28T12:54:45Z</time>
      </trkpt>
      <trkpt lat="45.38997" lon="3.89032">
        <ele>815.34</ele>
        <time>2022-08-28T12:55:05Z</time>
      </trkpt>
      <trkpt lat="45.39001" lon="3.89031">
        <ele>814.85</ele>
        <time>2022-08-28T12:55:20Z</time>
      </trkpt>
      <trkpt lat="45.39005" lon="3.89036">
        <ele>812.45</ele>
        <time>2022-08-28T12:55:41Z</time>
      </trkpt>
      <trkpt lat="45.3901" lon="3.89034">
        <ele>811.01</ele>
        <time>2022-08-28T12:56:19Z</time>
      </trkpt>
      <trkpt lat="45.39002" lon="3.89038">
        <ele>810.53</ele>
        <time>2022-08-28T12:56:33Z</time>
      </trkpt>
      <trkpt lat="45.38997" lon="3.89043">
        <ele>811.49</ele>
        <time>2022-08-28T12:56:59Z</time>
      </trkpt>
      <trkpt lat="45.39" lon="3.89038">
        <ele>812.45</ele>
        <time>2022-08-28T12:57:16Z</time>
      </trkpt>
      <trkpt lat="45.38997" lon="3.89041">
        <ele>812.93</ele>
        <time>2022-08-28T12:57:43Z</time>
      </trkpt>
      <trkpt lat="45.38998" lon="3.8904">
        <ele>811.97</ele>
        <time>2022-08-28T12:58:05Z</time>
      </trkpt>
      <trkpt lat="45.39001" lon="3.89039">
        <ele>813.41</ele>
        <time>2022-08-28T12:58:23Z</time>
      </trkpt>
      <trkpt lat="45.39001" lon="3.89038">
        <ele>813.89</ele>
        <time>2022-08-28T12:58:25Z</time>
      </trkpt>
      <trkpt lat="45.39001" lon="3.89035">
        <ele>813.41</ele>
        <time>2022-08-28T12:58:37Z</time>
      </trkpt>
      <trkpt lat="45.38999" lon="3.89034">
        <ele>812.93</ele>
        <time>2022-08-28T12:58:53Z</time>
      </trkpt>
      <trkpt lat="45.39001" lon="3.89032">
        <ele>812.45</ele>
        <time>2022-08-28T12:59:08Z</time>
      </trkpt>
      <trkpt lat="45.39002" lon="3.89032">
        <ele>813.89</ele>
        <time>2022-08-28T12:59:32Z</time>
      </trkpt>
      <trkpt lat="45.39005" lon="3.89031">
        <ele>814.85</ele>
        <time>2022-08-28T12:59:57Z</time>
      </trkpt>
      <trkpt lat="45.38999" lon="3.89034">
        <ele>809.57</ele>
        <time>2022-08-28T13:00:17Z</time>
      </trkpt>
      <trkpt lat="45.38992" lon="3.89037">
        <ele>807.64</ele>
        <time>2022-08-28T13:00:43Z</time>
      </trkpt>
      <trkpt lat="45.3899" lon="3.89037">
        <ele>807.16</ele>
        <time>2022-08-28T13:01:09Z</time>
      </trkpt>
      <trkpt lat="45.38999" lon="3.89032">
        <ele>803.8</ele>
        <time>2022-08-28T13:01:22Z</time>
      </trkpt>
      <trkpt lat="45.38997" lon="3.89034">
        <ele>800.44</ele>
        <time>2022-08-28T13:01:43Z</time>
      </trkpt>
      <trkpt lat="45.38998" lon="3.89034">
        <ele>799.95</ele>
        <time>2022-08-28T13:01:59Z</time>
      </trkpt>
      <trkpt lat="45.38999" lon="3.89029">
        <ele>798.51</ele>
        <time>2022-08-28T13:02:21Z</time>
      </trkpt>
      <trkpt lat="45.39001" lon="3.89029">
        <ele>798.99</ele>
        <time>2022-08-28T13:02:38Z</time>
      </trkpt>
      <trkpt lat="45.38998" lon="3.89029">
        <ele>799.47</ele>
        <time>2022-08-28T13:02:54Z</time>
      </trkpt>
      <trkpt lat="45.38999" lon="3.89036">
        <ele>807.16</ele>
        <time>2022-08-28T13:03:18Z</time>
      </trkpt>
      <trkpt lat="45.38998" lon="3.89035">
        <ele>809.57</ele>
        <time>2022-08-28T13:03:39Z</time>
      </trkpt>
      <trkpt lat="45.38996" lon="3.89031">
        <ele>807.64</ele>
        <time>2022-08-28T13:03:57Z</time>
      </trkpt>
      <trkpt lat="45.39" lon="3.89031">
        <ele>807.16</ele>
        <time>2022-08-28T13:04:09Z</time>
      </trkpt>
      <trkpt lat="45.39004" lon="3.89033">
        <ele>807.64</ele>
        <time>2022-08-28T13:04:34Z</time>
      </trkpt>
      <trkpt lat="45.38998" lon="3.89035">
        <ele>807.16</ele>
        <time>2022-08-28T13:04:51Z</time>
      </trkpt>
      <trkpt lat="45.38998" lon="3.89044">
        <ele>806.68</ele>
        <time>2022-08-28T13:05:05Z</time>
      </trkpt>
      <trkpt lat="45.39008" lon="3.89039">
        <ele>809.09</ele>
        <time>2022-08-28T13:05:22Z</time>
      </trkpt>
      <trkpt lat="45.39022" lon="3.89027">
        <ele>810.53</ele>
        <time>2022-08-28T13:05:37Z</time>
      </trkpt>
      <trkpt lat="45.39035" lon="3.89019">
        <ele>811.01</ele>
        <time>2022-08-28T13:05:53Z</time>
      </trkpt>
      <trkpt lat="45.39044" lon="3.8901">
        <ele>807.64</ele>
        <time>2022-08-28T13:06:07Z</time>
      </trkpt>
      <trkpt lat="45.39059" lon="3.89002">
        <ele>804.76</ele>
        <time>2022-08-28T13:06:24Z</time>
      </trkpt>
      <trkpt lat="45.39073" lon="3.88997">
        <ele>803.8</ele>
        <time>2022-08-28T13:06:42Z</time>
      </trkpt>
      <trkpt lat="45.39079" lon="3.88991">
        <ele>803.8</ele>
        <time>2022-08-28T13:07:19Z</time>
      </trkpt>
      <trkpt lat="45.39078" lon="3.88995">
        <ele>800.92</ele>
        <time>2022-08-28T13:07:59Z</time>
      </trkpt>
      <trkpt lat="45.3909" lon="3.89003">
        <ele>799.47</ele>
        <time>2022-08-28T13:08:21Z</time>
      </trkpt>
      <trkpt lat="45.39093" lon="3.89007">
        <ele>800.44</ele>
        <time>2022-08-28T13:08:38Z</time>
      </trkpt>
      <trkpt lat="45.39096" lon="3.89004">
        <ele>803.32</ele>
        <time>2022-08-28T13:09:06Z</time>
      </trkpt>
      <trkpt lat="45.39099" lon="3.89006">
        <ele>808.13</ele>
        <time>2022-08-28T13:09:44Z</time>
      </trkpt>
      <trkpt lat="45.39093" lon="3.89007">
        <ele>810.05</ele>
        <time>2022-08-28T13:10:12Z</time>
      </trkpt>
      <trkpt lat="45.39083" lon="3.88998">
        <ele>809.09</ele>
        <time>2022-08-28T13:10:26Z</time>
      </trkpt>
      <trkpt lat="45.39087" lon="3.88996">
        <ele>809.09</ele>
        <time>2022-08-28T13:10:43Z</time>
      </trkpt>
      <trkpt lat="45.39083" lon="3.88989">
        <ele>813.41</ele>
        <time>2022-08-28T13:11:05Z</time>
      </trkpt>
      <trkpt lat="45.3909" lon="3.88982">
        <ele>813.41</ele>
        <time>2022-08-28T13:11:29Z</time>
      </trkpt>
      <trkpt lat="45.3911" lon="3.88964">
        <ele>814.85</ele>
        <time>2022-08-28T13:11:52Z</time>
      </trkpt>
      <trkpt lat="45.39117" lon="3.88953">
        <ele>812.93</ele>
        <time>2022-08-28T13:12:10Z</time>
      </trkpt>
      <trkpt lat="45.3913" lon="3.88939">
        <ele>808.61</ele>
        <time>2022-08-28T13:12:32Z</time>
      </trkpt>
      <trkpt lat="45.39153" lon="3.88917">
        <ele>804.76</ele>
        <time>2022-08-28T13:12:53Z</time>
      </trkpt>
      <trkpt lat="45.39157" lon="3.88916">
        <ele>805.24</ele>
        <time>2022-08-28T13:12:56Z</time>
      </trkpt>
      <trkpt lat="45.39184" lon="3.88905">
        <ele>807.64</ele>
        <time>2022-08-28T13:13:15Z</time>
      </trkpt>
      <trkpt lat="45.39217" lon="3.88902">
        <ele>806.68</ele>
        <time>2022-08-28T13:13:33Z</time>
      </trkpt>
      <trkpt lat="45.39222" lon="3.88901">
        <ele>805.72</ele>
        <time>2022-08-28T13:13:38Z</time>
      </trkpt>
      <trkpt lat="45.39248" lon="3.88896">
        <ele>804.76</ele>
        <time>2022-08-28T13:13:57Z</time>
      </trkpt>
      <trkpt lat="45.39269" lon="3.88883">
        <ele>805.24</ele>
        <time>2022-08-28T13:14:16Z</time>
      </trkpt>
      <trkpt lat="45.39288" lon="3.88872">
        <ele>815.82</ele>
        <time>2022-08-28T13:14:36Z</time>
      </trkpt>
      <trkpt lat="45.39319" lon="3.88852">
        <ele>821.58</ele>
        <time>2022-08-28T13:14:59Z</time>
      </trkpt>
      <trkpt lat="45.39355" lon="3.88851">
        <ele>822.06</ele>
        <time>2022-08-28T13:15:20Z</time>
      </trkpt>
      <trkpt lat="45.39379" lon="3.8885">
        <ele>822.06</ele>
        <time>2022-08-28T13:15:40Z</time>
      </trkpt>
      <trkpt lat="45.39403" lon="3.88854">
        <ele>820.62</ele>
        <time>2022-08-28T13:15:57Z</time>
      </trkpt>
      <trkpt lat="45.39424" lon="3.88854">
        <ele>819.18</ele>
        <time>2022-08-28T13:16:15Z</time>
      </trkpt>
      <trkpt lat="45.39436" lon="3.88853">
        <ele>820.14</ele>
        <time>2022-08-28T13:16:25Z</time>
      </trkpt>
      <trkpt lat="45.39437" lon="3.88852">
        <ele>820.14</ele>
        <time>2022-08-28T13:16:26Z</time>
      </trkpt>
      <trkpt lat="45.3946" lon="3.88849">
        <ele>819.66</ele>
        <time>2022-08-28T13:16:45Z</time>
      </trkpt>
      <trkpt lat="45.39478" lon="3.88846">
        <ele>823.03</ele>
        <time>2022-08-28T13:17:04Z</time>
      </trkpt>
      <trkpt lat="45.39489" lon="3.88838">
        <ele>825.91</ele>
        <time>2022-08-28T13:17:21Z</time>
      </trkpt>
      <trkpt lat="45.39496" lon="3.88826">
        <ele>825.91</ele>
        <time>2022-08-28T13:17:41Z</time>
      </trkpt>
      <trkpt lat="45.39515" lon="3.88821">
        <ele>825.91</ele>
        <time>2022-08-28T13:18:00Z</time>
      </trkpt>
      <trkpt lat="45.39517" lon="3.88825">
        <ele>826.39</ele>
        <time>2022-08-28T13:18:02Z</time>
      </trkpt>
      <trkpt lat="45.39518" lon="3.88828">
        <ele>826.39</ele>
        <time>2022-08-28T13:18:03Z</time>
      </trkpt>
      <trkpt lat="45.39519" lon="3.88829">
        <ele>826.87</ele>
        <time>2022-08-28T13:18:04Z</time>
      </trkpt>
      <trkpt lat="45.39528" lon="3.88834">
        <ele>826.39</ele>
        <time>2022-08-28T13:18:12Z</time>
      </trkpt>
      <trkpt lat="45.39551" lon="3.88842">
        <ele>829.76</ele>
        <time>2022-08-28T13:18:29Z</time>
      </trkpt>
      <trkpt lat="45.39575" lon="3.8885">
        <ele>831.2</ele>
        <time>2022-08-28T13:18:50Z</time>
      </trkpt>
      <trkpt lat="45.39604" lon="3.8886">
        <ele>827.83</ele>
        <time>2022-08-28T13:19:11Z</time>
      </trkpt>
      <trkpt lat="45.3963" lon="3.88869">
        <ele>834.08</ele>
        <time>2022-08-28T13:19:32Z</time>
      </trkpt>
      <trkpt lat="45.39658" lon="3.88868">
        <ele>834.56</ele>
        <time>2022-08-28T13:19:54Z</time>
      </trkpt>
      <trkpt lat="45.39683" lon="3.8887">
        <ele>833.12</ele>
        <time>2022-08-28T13:20:15Z</time>
      </trkpt>
      <trkpt lat="45.39705" lon="3.88874">
        <ele>834.56</ele>
        <time>2022-08-28T13:20:34Z</time>
      </trkpt>
      <trkpt lat="45.39736" lon="3.88881">
        <ele>833.12</ele>
        <time>2022-08-28T13:20:54Z</time>
      </trkpt>
      <trkpt lat="45.39768" lon="3.88892">
        <ele>828.31</ele>
        <time>2022-08-28T13:21:15Z</time>
      </trkpt>
      <trkpt lat="45.39797" lon="3.88901">
        <ele>825.91</ele>
        <time>2022-08-28T13:21:37Z</time>
      </trkpt>
      <trkpt lat="45.39823" lon="3.88908">
        <ele>821.1</ele>
        <time>2022-08-28T13:21:57Z</time>
      </trkpt>
      <trkpt lat="45.39843" lon="3.88905">
        <ele>821.1</ele>
        <time>2022-08-28T13:22:16Z</time>
      </trkpt>
      <trkpt lat="45.39855" lon="3.88891">
        <ele>819.66</ele>
        <time>2022-08-28T13:22:35Z</time>
      </trkpt>
      <trkpt lat="45.39875" lon="3.88873">
        <ele>816.3</ele>
        <time>2022-08-28T13:22:55Z</time>
      </trkpt>
      <trkpt lat="45.39881" lon="3.8887">
        <ele>812.93</ele>
        <time>2022-08-28T13:23:14Z</time>
      </trkpt>
      <trkpt lat="45.39885" lon="3.8887">
        <ele>812.93</ele>
        <time>2022-08-28T13:23:34Z</time>
      </trkpt>
      <trkpt lat="45.39891" lon="3.88869">
        <ele>811.49</ele>
        <time>2022-08-28T13:23:54Z</time>
      </trkpt>
      <trkpt lat="45.39897" lon="3.8887">
        <ele>811.97</ele>
        <time>2022-08-28T13:24:16Z</time>
      </trkpt>
      <trkpt lat="45.39912" lon="3.88875">
        <ele>810.53</ele>
        <time>2022-08-28T13:24:30Z</time>
      </trkpt>
      <trkpt lat="45.39919" lon="3.88901">
        <ele>811.97</ele>
        <time>2022-08-28T13:24:45Z</time>
      </trkpt>
      <trkpt lat="45.39911" lon="3.88939">
        <ele>816.78</ele>
        <time>2022-08-28T13:25:03Z</time>
      </trkpt>
      <trkpt lat="45.39908" lon="3.88974">
        <ele>825.43</ele>
        <time>2022-08-28T13:25:22Z</time>
      </trkpt>
      <trkpt lat="45.39905" lon="3.89015">
        <ele>831.68</ele>
        <time>2022-08-28T13:25:44Z</time>
      </trkpt>
      <trkpt lat="45.39901" lon="3.89057">
        <ele>836.48</ele>
        <time>2022-08-28T13:26:06Z</time>
      </trkpt>
      <trkpt lat="45.39908" lon="3.89096">
        <ele>840.33</ele>
        <time>2022-08-28T13:26:29Z</time>
      </trkpt>
      <trkpt lat="45.39911" lon="3.891">
        <ele>840.81</ele>
        <time>2022-08-28T13:26:33Z</time>
      </trkpt>
      <trkpt lat="45.39912" lon="3.89101">
        <ele>841.29</ele>
        <time>2022-08-28T13:26:34Z</time>
      </trkpt>
      <trkpt lat="45.3992" lon="3.89104">
        <ele>842.73</ele>
        <time>2022-08-28T13:26:41Z</time>
      </trkpt>
      <trkpt lat="45.39922" lon="3.89104">
        <ele>842.73</ele>
        <time>2022-08-28T13:26:42Z</time>
      </trkpt>
      <trkpt lat="45.39923" lon="3.89104">
        <ele>843.21</ele>
        <time>2022-08-28T13:26:43Z</time>
      </trkpt>
      <trkpt lat="45.39924" lon="3.89103">
        <ele>843.21</ele>
        <time>2022-08-28T13:26:44Z</time>
      </trkpt>
      <trkpt lat="45.39925" lon="3.89103">
        <ele>843.21</ele>
        <time>2022-08-28T13:26:45Z</time>
      </trkpt>
      <trkpt lat="45.39926" lon="3.89103">
        <ele>843.21</ele>
        <time>2022-08-28T13:26:46Z</time>
      </trkpt>
      <trkpt lat="45.3994" lon="3.89098">
        <ele>843.21</ele>
        <time>2022-08-28T13:26:58Z</time>
      </trkpt>
      <trkpt lat="45.3997" lon="3.89105">
        <ele>843.69</ele>
        <time>2022-08-28T13:27:14Z</time>
      </trkpt>
      <trkpt lat="45.39992" lon="3.89106">
        <ele>842.73</ele>
        <time>2022-08-28T13:27:29Z</time>
      </trkpt>
      <trkpt lat="45.40013" lon="3.89114">
        <ele>843.21</ele>
        <time>2022-08-28T13:27:46Z</time>
      </trkpt>
      <trkpt lat="45.40033" lon="3.89132">
        <ele>844.18</ele>
        <time>2022-08-28T13:28:05Z</time>
      </trkpt>
      <trkpt lat="45.40054" lon="3.89147">
        <ele>843.21</ele>
        <time>2022-08-28T13:28:24Z</time>
      </trkpt>
      <trkpt lat="45.40078" lon="3.89152">
        <ele>842.73</ele>
        <time>2022-08-28T13:28:44Z</time>
      </trkpt>
      <trkpt lat="45.40101" lon="3.89154">
        <ele>840.81</ele>
        <time>2022-08-28T13:29:02Z</time>
      </trkpt>
      <trkpt lat="45.40126" lon="3.89173">
        <ele>838.89</ele>
        <time>2022-08-28T13:29:20Z</time>
      </trkpt>
      <trkpt lat="45.40129" lon="3.89173">
        <ele>838.89</ele>
        <time>2022-08-28T13:29:23Z</time>
      </trkpt>
      <trkpt lat="45.40147" lon="3.89183">
        <ele>837.93</ele>
        <time>2022-08-28T13:29:38Z</time>
      </trkpt>
      <trkpt lat="45.40171" lon="3.89199">
        <ele>836.96</ele>
        <time>2022-08-28T13:29:56Z</time>
      </trkpt>
      <trkpt lat="45.40196" lon="3.89213">
        <ele>836.96</ele>
        <time>2022-08-28T13:30:14Z</time>
      </trkpt>
      <trkpt lat="45.40219" lon="3.89227">
        <ele>836</ele>
        <time>2022-08-28T13:30:32Z</time>
      </trkpt>
      <trkpt lat="45.4024" lon="3.8924">
        <ele>834.56</ele>
        <time>2022-08-28T13:30:50Z</time>
      </trkpt>
      <trkpt lat="45.40261" lon="3.89254">
        <ele>833.6</ele>
        <time>2022-08-28T13:31:07Z</time>
      </trkpt>
      <trkpt lat="45.40283" lon="3.8927">
        <ele>832.64</ele>
        <time>2022-08-28T13:31:24Z</time>
      </trkpt>
      <trkpt lat="45.40303" lon="3.89285">
        <ele>831.68</ele>
        <time>2022-08-28T13:31:42Z</time>
      </trkpt>
      <trkpt lat="45.40325" lon="3.89295">
        <ele>829.76</ele>
        <time>2022-08-28T13:32:01Z</time>
      </trkpt>
      <trkpt lat="45.40352" lon="3.89295">
        <ele>826.39</ele>
        <time>2022-08-28T13:32:21Z</time>
      </trkpt>
      <trkpt lat="45.40377" lon="3.89301">
        <ele>826.39</ele>
        <time>2022-08-28T13:32:39Z</time>
      </trkpt>
      <trkpt lat="45.40399" lon="3.89303">
        <ele>825.43</ele>
        <time>2022-08-28T13:32:56Z</time>
      </trkpt>
      <trkpt lat="45.40421" lon="3.89309">
        <ele>823.99</ele>
        <time>2022-08-28T13:33:12Z</time>
      </trkpt>
      <trkpt lat="45.40441" lon="3.89326">
        <ele>822.06</ele>
        <time>2022-08-28T13:33:29Z</time>
      </trkpt>
      <trkpt lat="45.40461" lon="3.8933">
        <ele>823.03</ele>
        <time>2022-08-28T13:33:45Z</time>
      </trkpt>
      <trkpt lat="45.40481" lon="3.89333">
        <ele>823.03</ele>
        <time>2022-08-28T13:34:01Z</time>
      </trkpt>
      <trkpt lat="45.40482" lon="3.89334">
        <ele>823.03</ele>
        <time>2022-08-28T13:34:02Z</time>
      </trkpt>
      <trkpt lat="45.40498" lon="3.89352">
        <ele>821.58</ele>
        <time>2022-08-28T13:34:17Z</time>
      </trkpt>
      <trkpt lat="45.40517" lon="3.89368">
        <ele>821.58</ele>
        <time>2022-08-28T13:34:35Z</time>
      </trkpt>
      <trkpt lat="45.40531" lon="3.89364">
        <ele>822.55</ele>
        <time>2022-08-28T13:34:51Z</time>
      </trkpt>
      <trkpt lat="45.40547" lon="3.89349">
        <ele>823.51</ele>
        <time>2022-08-28T13:35:08Z</time>
      </trkpt>
      <trkpt lat="45.40574" lon="3.89331">
        <ele>821.1</ele>
        <time>2022-08-28T13:35:24Z</time>
      </trkpt>
      <trkpt lat="45.40597" lon="3.89343">
        <ele>819.66</ele>
        <time>2022-08-28T13:35:40Z</time>
      </trkpt>
      <trkpt lat="45.40625" lon="3.89365">
        <ele>819.66</ele>
        <time>2022-08-28T13:36:00Z</time>
      </trkpt>
      <trkpt lat="45.4065" lon="3.8939">
        <ele>819.66</ele>
        <time>2022-08-28T13:36:17Z</time>
      </trkpt>
      <trkpt lat="45.40657" lon="3.8941">
        <ele>822.55</ele>
        <time>2022-08-28T13:36:31Z</time>
      </trkpt>
      <trkpt lat="45.40659" lon="3.89425">
        <ele>823.51</ele>
        <time>2022-08-28T13:36:40Z</time>
      </trkpt>
      <trkpt lat="45.40659" lon="3.89427">
        <ele>823.51</ele>
        <time>2022-08-28T13:36:41Z</time>
      </trkpt>
      <trkpt lat="45.40665" lon="3.89463">
        <ele>828.31</ele>
        <time>2022-08-28T13:36:59Z</time>
      </trkpt>
      <trkpt lat="45.40672" lon="3.89478">
        <ele>831.2</ele>
        <time>2022-08-28T13:37:10Z</time>
      </trkpt>
      <trkpt lat="45.40673" lon="3.89478">
        <ele>831.68</ele>
        <time>2022-08-28T13:37:11Z</time>
      </trkpt>
      <trkpt lat="45.40674" lon="3.89479">
        <ele>832.16</ele>
        <time>2022-08-28T13:37:12Z</time>
      </trkpt>
      <trkpt lat="45.40692" lon="3.89472">
        <ele>834.56</ele>
        <time>2022-08-28T13:37:31Z</time>
      </trkpt>
      <trkpt lat="45.40715" lon="3.89457">
        <ele>836.48</ele>
        <time>2022-08-28T13:37:52Z</time>
      </trkpt>
      <trkpt lat="45.40747" lon="3.89472">
        <ele>837.45</ele>
        <time>2022-08-28T13:38:18Z</time>
      </trkpt>
      <trkpt lat="45.40762" lon="3.89477">
        <ele>836.96</ele>
        <time>2022-08-28T13:38:32Z</time>
      </trkpt>
      <trkpt lat="45.40764" lon="3.89478">
        <ele>837.45</ele>
        <time>2022-08-28T13:38:33Z</time>
      </trkpt>
      <trkpt lat="45.40792" lon="3.89498">
        <ele>836.96</ele>
        <time>2022-08-28T13:38:52Z</time>
      </trkpt>
      <trkpt lat="45.4082" lon="3.89512">
        <ele>836.48</ele>
        <time>2022-08-28T13:39:07Z</time>
      </trkpt>
      <trkpt lat="45.40843" lon="3.89519">
        <ele>837.93</ele>
        <time>2022-08-28T13:39:24Z</time>
      </trkpt>
      <trkpt lat="45.40864" lon="3.89533">
        <ele>837.93</ele>
        <time>2022-08-28T13:39:42Z</time>
      </trkpt>
      <trkpt lat="45.40883" lon="3.89544">
        <ele>838.41</ele>
        <time>2022-08-28T13:39:57Z</time>
      </trkpt>
      <trkpt lat="45.40904" lon="3.89559">
        <ele>839.37</ele>
        <time>2022-08-28T13:40:14Z</time>
      </trkpt>
      <trkpt lat="45.40928" lon="3.89573">
        <ele>838.41</ele>
        <time>2022-08-28T13:40:32Z</time>
      </trkpt>
      <trkpt lat="45.40951" lon="3.89587">
        <ele>839.37</ele>
        <time>2022-08-28T13:40:49Z</time>
      </trkpt>
      <trkpt lat="45.40974" lon="3.89597">
        <ele>839.85</ele>
        <time>2022-08-28T13:41:06Z</time>
      </trkpt>
      <trkpt lat="45.41003" lon="3.89607">
        <ele>840.81</ele>
        <time>2022-08-28T13:41:23Z</time>
      </trkpt>
      <trkpt lat="45.41026" lon="3.89632">
        <ele>841.29</ele>
        <time>2022-08-28T13:41:41Z</time>
      </trkpt>
      <trkpt lat="45.41047" lon="3.89656">
        <ele>840.33</ele>
        <time>2022-08-28T13:42:00Z</time>
      </trkpt>
      <trkpt lat="45.4107" lon="3.8968">
        <ele>841.29</ele>
        <time>2022-08-28T13:42:21Z</time>
      </trkpt>
      <trkpt lat="45.41088" lon="3.89702">
        <ele>839.37</ele>
        <time>2022-08-28T13:42:38Z</time>
      </trkpt>
      <trkpt lat="45.41111" lon="3.89722">
        <ele>839.85</ele>
        <time>2022-08-28T13:42:56Z</time>
      </trkpt>
      <trkpt lat="45.41132" lon="3.89725">
        <ele>840.33</ele>
        <time>2022-08-28T13:43:12Z</time>
      </trkpt>
      <trkpt lat="45.41156" lon="3.89726">
        <ele>841.29</ele>
        <time>2022-08-28T13:43:30Z</time>
      </trkpt>
      <trkpt lat="45.41183" lon="3.89725">
        <ele>843.21</ele>
        <time>2022-08-28T13:43:49Z</time>
      </trkpt>
      <trkpt lat="45.41207" lon="3.8972">
        <ele>844.66</ele>
        <time>2022-08-28T13:44:07Z</time>
      </trkpt>
      <trkpt lat="45.41236" lon="3.8972">
        <ele>846.58</ele>
        <time>2022-08-28T13:44:25Z</time>
      </trkpt>
      <trkpt lat="45.41257" lon="3.89732">
        <ele>848.5</ele>
        <time>2022-08-28T13:44:41Z</time>
      </trkpt>
      <trkpt lat="45.41278" lon="3.89741">
        <ele>852.35</ele>
        <time>2022-08-28T13:45:00Z</time>
      </trkpt>
      <trkpt lat="45.41284" lon="3.8974">
        <ele>853.31</ele>
        <time>2022-08-28T13:45:05Z</time>
      </trkpt>
      <trkpt lat="45.41308" lon="3.89748">
        <ele>856.67</ele>
        <time>2022-08-28T13:45:25Z</time>
      </trkpt>
      <trkpt lat="45.41333" lon="3.89746">
        <ele>855.71</ele>
        <time>2022-08-28T13:45:47Z</time>
      </trkpt>
      <trkpt lat="45.41343" lon="3.89748">
        <ele>856.19</ele>
        <time>2022-08-28T13:45:52Z</time>
      </trkpt>
      <trkpt lat="45.41345" lon="3.89749">
        <ele>856.67</ele>
        <time>2022-08-28T13:45:53Z</time>
      </trkpt>
      <trkpt lat="45.41377" lon="3.89758">
        <ele>861</ele>
        <time>2022-08-28T13:46:14Z</time>
      </trkpt>
      <trkpt lat="45.41402" lon="3.89764">
        <ele>862.44</ele>
        <time>2022-08-28T13:46:33Z</time>
      </trkpt>
      <trkpt lat="45.41424" lon="3.89773">
        <ele>862.44</ele>
        <time>2022-08-28T13:46:49Z</time>
      </trkpt>
      <trkpt lat="45.41446" lon="3.89771">
        <ele>861.96</ele>
        <time>2022-08-28T13:47:07Z</time>
      </trkpt>
      <trkpt lat="45.41479" lon="3.89771">
        <ele>861.48</ele>
        <time>2022-08-28T13:47:29Z</time>
      </trkpt>
      <trkpt lat="45.41505" lon="3.89783">
        <ele>860.52</ele>
        <time>2022-08-28T13:47:47Z</time>
      </trkpt>
      <trkpt lat="45.41528" lon="3.89787">
        <ele>860.52</ele>
        <time>2022-08-28T13:48:04Z</time>
      </trkpt>
      <trkpt lat="45.41554" lon="3.89787">
        <ele>860.52</ele>
        <time>2022-08-28T13:48:22Z</time>
      </trkpt>
      <trkpt lat="45.41578" lon="3.89789">
        <ele>859.56</ele>
        <time>2022-08-28T13:48:39Z</time>
      </trkpt>
      <trkpt lat="45.416" lon="3.89797">
        <ele>860.52</ele>
        <time>2022-08-28T13:48:55Z</time>
      </trkpt>
      <trkpt lat="45.4162" lon="3.89815">
        <ele>861.96</ele>
        <time>2022-08-28T13:49:11Z</time>
      </trkpt>
      <trkpt lat="45.4163" lon="3.89849">
        <ele>862.92</ele>
        <time>2022-08-28T13:49:27Z</time>
      </trkpt>
      <trkpt lat="45.4164" lon="3.89895">
        <ele>864.36</ele>
        <time>2022-08-28T13:49:51Z</time>
      </trkpt>
      <trkpt lat="45.41659" lon="3.89919">
        <ele>865.8</ele>
        <time>2022-08-28T13:50:10Z</time>
      </trkpt>
      <trkpt lat="45.41668" lon="3.89947">
        <ele>866.77</ele>
        <time>2022-08-28T13:50:27Z</time>
      </trkpt>
      <trkpt lat="45.41664" lon="3.89982">
        <ele>871.57</ele>
        <time>2022-08-28T13:50:47Z</time>
      </trkpt>
      <trkpt lat="45.4166" lon="3.90013">
        <ele>871.57</ele>
        <time>2022-08-28T13:51:06Z</time>
      </trkpt>
      <trkpt lat="45.41672" lon="3.90048">
        <ele>873.01</ele>
        <time>2022-08-28T13:51:25Z</time>
      </trkpt>
      <trkpt lat="45.41684" lon="3.90086">
        <ele>875.9</ele>
        <time>2022-08-28T13:51:48Z</time>
      </trkpt>
      <trkpt lat="45.41691" lon="3.90114">
        <ele>875.9</ele>
        <time>2022-08-28T13:52:05Z</time>
      </trkpt>
      <trkpt lat="45.417" lon="3.9015">
        <ele>874.94</ele>
        <time>2022-08-28T13:52:26Z</time>
      </trkpt>
      <trkpt lat="45.41707" lon="3.90182">
        <ele>873.5</ele>
        <time>2022-08-28T13:52:45Z</time>
      </trkpt>
      <trkpt lat="45.41716" lon="3.90218">
        <ele>871.09</ele>
        <time>2022-08-28T13:53:05Z</time>
      </trkpt>
      <trkpt lat="45.41726" lon="3.90252">
        <ele>870.61</ele>
        <time>2022-08-28T13:53:26Z</time>
      </trkpt>
      <trkpt lat="45.41736" lon="3.90282">
        <ele>870.13</ele>
        <time>2022-08-28T13:53:46Z</time>
      </trkpt>
      <trkpt lat="45.41749" lon="3.90315">
        <ele>867.73</ele>
        <time>2022-08-28T13:54:06Z</time>
      </trkpt>
      <trkpt lat="45.41761" lon="3.9035">
        <ele>866.77</ele>
        <time>2022-08-28T13:54:22Z</time>
      </trkpt>
      <trkpt lat="45.4177" lon="3.90384">
        <ele>865.32</ele>
        <time>2022-08-28T13:54:42Z</time>
      </trkpt>
      <trkpt lat="45.41777" lon="3.90418">
        <ele>863.4</ele>
        <time>2022-08-28T13:55:00Z</time>
      </trkpt>
      <trkpt lat="45.41785" lon="3.90454">
        <ele>861.48</ele>
        <time>2022-08-28T13:55:20Z</time>
      </trkpt>
      <trkpt lat="45.41786" lon="3.90484">
        <ele>859.08</ele>
        <time>2022-08-28T13:55:38Z</time>
      </trkpt>
      <trkpt lat="45.41785" lon="3.90517">
        <ele>857.15</ele>
        <time>2022-08-28T13:55:57Z</time>
      </trkpt>
      <trkpt lat="45.4178" lon="3.90555">
        <ele>854.27</ele>
        <time>2022-08-28T13:56:17Z</time>
      </trkpt>
      <trkpt lat="45.41777" lon="3.90595">
        <ele>854.27</ele>
        <time>2022-08-28T13:56:36Z</time>
      </trkpt>
      <trkpt lat="45.41778" lon="3.90632">
        <ele>854.75</ele>
        <time>2022-08-28T13:56:51Z</time>
      </trkpt>
      <trkpt lat="45.41781" lon="3.90676">
        <ele>857.63</ele>
        <time>2022-08-28T13:57:14Z</time>
      </trkpt>
      <trkpt lat="45.41785" lon="3.90701">
        <ele>859.56</ele>
        <time>2022-08-28T13:57:27Z</time>
      </trkpt>
      <trkpt lat="45.41794" lon="3.90713">
        <ele>861.96</ele>
        <time>2022-08-28T13:57:37Z</time>
      </trkpt>
      <trkpt lat="45.41795" lon="3.90714">
        <ele>861.96</ele>
        <time>2022-08-28T13:57:38Z</time>
      </trkpt>
      <trkpt lat="45.41796" lon="3.90714">
        <ele>861.96</ele>
        <time>2022-08-28T13:57:39Z</time>
      </trkpt>
      <trkpt lat="45.41797" lon="3.90715">
        <ele>861.48</ele>
        <time>2022-08-28T13:57:40Z</time>
      </trkpt>
      <trkpt lat="45.41799" lon="3.90716">
        <ele>861.96</ele>
        <time>2022-08-28T13:57:41Z</time>
      </trkpt>
      <trkpt lat="45.41816" lon="3.90734">
        <ele>861.96</ele>
        <time>2022-08-28T13:57:59Z</time>
      </trkpt>
      <trkpt lat="45.41828" lon="3.90758">
        <ele>859.56</ele>
        <time>2022-08-28T13:58:16Z</time>
      </trkpt>
      <trkpt lat="45.41844" lon="3.90787">
        <ele>861.96</ele>
        <time>2022-08-28T13:58:36Z</time>
      </trkpt>
      <trkpt lat="45.41859" lon="3.90818">
        <ele>863.88</ele>
        <time>2022-08-28T13:58:55Z</time>
      </trkpt>
      <trkpt lat="45.41872" lon="3.90844">
        <ele>865.8</ele>
        <time>2022-08-28T13:59:15Z</time>
      </trkpt>
      <trkpt lat="45.41885" lon="3.90871">
        <ele>868.21</ele>
        <time>2022-08-28T13:59:33Z</time>
      </trkpt>
      <trkpt lat="45.41904" lon="3.90899">
        <ele>870.13</ele>
        <time>2022-08-28T13:59:54Z</time>
      </trkpt>
      <trkpt lat="45.41907" lon="3.90901">
        <ele>870.13</ele>
        <time>2022-08-28T13:59:56Z</time>
      </trkpt>
      <trkpt lat="45.41908" lon="3.90903">
        <ele>870.13</ele>
        <time>2022-08-28T13:59:57Z</time>
      </trkpt>
      <trkpt lat="45.41928" lon="3.90914">
        <ele>871.09</ele>
        <time>2022-08-28T14:00:18Z</time>
      </trkpt>
      <trkpt lat="45.41944" lon="3.90936">
        <ele>871.09</ele>
        <time>2022-08-28T14:00:35Z</time>
      </trkpt>
      <trkpt lat="45.41956" lon="3.90961">
        <ele>868.21</ele>
        <time>2022-08-28T14:00:53Z</time>
      </trkpt>
      <trkpt lat="45.41966" lon="3.90989">
        <ele>864.84</ele>
        <time>2022-08-28T14:01:11Z</time>
      </trkpt>
      <trkpt lat="45.4198" lon="3.91008">
        <ele>863.4</ele>
        <time>2022-08-28T14:01:29Z</time>
      </trkpt>
      <trkpt lat="45.41996" lon="3.91025">
        <ele>861.48</ele>
        <time>2022-08-28T14:01:48Z</time>
      </trkpt>
      <trkpt lat="45.4202" lon="3.91046">
        <ele>855.71</ele>
        <time>2022-08-28T14:02:11Z</time>
      </trkpt>
      <trkpt lat="45.42034" lon="3.91057">
        <ele>850.9</ele>
        <time>2022-08-28T14:02:25Z</time>
      </trkpt>
      <trkpt lat="45.42047" lon="3.91062">
        <ele>848.5</ele>
        <time>2022-08-28T14:02:35Z</time>
      </trkpt>
      <trkpt lat="45.42075" lon="3.91066">
        <ele>846.1</ele>
        <time>2022-08-28T14:02:52Z</time>
      </trkpt>
      <trkpt lat="45.42098" lon="3.91079">
        <ele>845.14</ele>
        <time>2022-08-28T14:03:09Z</time>
      </trkpt>
      <trkpt lat="45.42112" lon="3.91118">
        <ele>842.25</ele>
        <time>2022-08-28T14:03:27Z</time>
      </trkpt>
      <trkpt lat="45.42113" lon="3.9112">
        <ele>842.25</ele>
        <time>2022-08-28T14:03:28Z</time>
      </trkpt>
      <trkpt lat="45.42113" lon="3.91122">
        <ele>842.25</ele>
        <time>2022-08-28T14:03:29Z</time>
      </trkpt>
      <trkpt lat="45.42115" lon="3.91128">
        <ele>841.29</ele>
        <time>2022-08-28T14:03:33Z</time>
      </trkpt>
      <trkpt lat="45.42115" lon="3.91131">
        <ele>841.29</ele>
        <time>2022-08-28T14:03:34Z</time>
      </trkpt>
      <trkpt lat="45.42116" lon="3.91166">
        <ele>839.37</ele>
        <time>2022-08-28T14:03:49Z</time>
      </trkpt>
      <trkpt lat="45.42116" lon="3.91195">
        <ele>838.41</ele>
        <time>2022-08-28T14:04:03Z</time>
      </trkpt>
      <trkpt lat="45.42117" lon="3.91197">
        <ele>837.93</ele>
        <time>2022-08-28T14:04:04Z</time>
      </trkpt>
      <trkpt lat="45.42133" lon="3.91219">
        <ele>837.93</ele>
        <time>2022-08-28T14:04:21Z</time>
      </trkpt>
      <trkpt lat="45.42158" lon="3.91247">
        <ele>837.93</ele>
        <time>2022-08-28T14:04:43Z</time>
      </trkpt>
      <trkpt lat="45.42178" lon="3.91261">
        <ele>837.45</ele>
        <time>2022-08-28T14:04:59Z</time>
      </trkpt>
      <trkpt lat="45.42205" lon="3.91276">
        <ele>837.45</ele>
        <time>2022-08-28T14:05:18Z</time>
      </trkpt>
      <trkpt lat="45.42239" lon="3.91308">
        <ele>836.48</ele>
        <time>2022-08-28T14:05:39Z</time>
      </trkpt>
      <trkpt lat="45.42246" lon="3.91337">
        <ele>836</ele>
        <time>2022-08-28T14:05:56Z</time>
      </trkpt>
      <trkpt lat="45.42246" lon="3.91341">
        <ele>836.48</ele>
        <time>2022-08-28T14:05:58Z</time>
      </trkpt>
      <trkpt lat="45.42251" lon="3.91364">
        <ele>838.89</ele>
        <time>2022-08-28T14:06:13Z</time>
      </trkpt>
      <trkpt lat="45.42249" lon="3.91377">
        <ele>838.41</ele>
        <time>2022-08-28T14:06:30Z</time>
      </trkpt>
      <trkpt lat="45.42249" lon="3.91386">
        <ele>838.89</ele>
        <time>2022-08-28T14:06:50Z</time>
      </trkpt>
      <trkpt lat="45.42247" lon="3.91385">
        <ele>836.48</ele>
        <time>2022-08-28T14:07:09Z</time>
      </trkpt>
      <trkpt lat="45.42244" lon="3.91384">
        <ele>832.16</ele>
        <time>2022-08-28T14:07:36Z</time>
      </trkpt>
      <trkpt lat="45.42244" lon="3.91383">
        <ele>833.6</ele>
        <time>2022-08-28T14:08:04Z</time>
      </trkpt>
      <trkpt lat="45.42243" lon="3.91388">
        <ele>830.72</ele>
        <time>2022-08-28T14:08:26Z</time>
      </trkpt>
      <trkpt lat="45.42245" lon="3.91386">
        <ele>828.79</ele>
        <time>2022-08-28T14:08:54Z</time>
      </trkpt>
      <trkpt lat="45.42243" lon="3.91403">
        <ele>826.39</ele>
        <time>2022-08-28T14:09:09Z</time>
      </trkpt>
      <trkpt lat="45.42239" lon="3.91404">
        <ele>832.64</ele>
        <time>2022-08-28T14:09:31Z</time>
      </trkpt>
      <trkpt lat="45.42241" lon="3.91404">
        <ele>831.2</ele>
        <time>2022-08-28T14:09:53Z</time>
      </trkpt>
      <trkpt lat="45.42241" lon="3.91408">
        <ele>832.64</ele>
        <time>2022-08-28T14:10:08Z</time>
      </trkpt>
      <trkpt lat="45.4224" lon="3.91413">
        <ele>830.24</ele>
        <time>2022-08-28T14:10:27Z</time>
      </trkpt>
      <trkpt lat="45.42239" lon="3.91412">
        <ele>828.79</ele>
        <time>2022-08-28T14:10:53Z</time>
      </trkpt>
      <trkpt lat="45.42235" lon="3.91417">
        <ele>830.24</ele>
        <time>2022-08-28T14:11:13Z</time>
      </trkpt>
      <trkpt lat="45.42234" lon="3.9142">
        <ele>835.04</ele>
        <time>2022-08-28T14:11:38Z</time>
      </trkpt>
      <trkpt lat="45.42233" lon="3.91411">
        <ele>833.6</ele>
        <time>2022-08-28T14:12:01Z</time>
      </trkpt>
      <trkpt lat="45.42233" lon="3.91415">
        <ele>834.56</ele>
        <time>2022-08-28T14:12:17Z</time>
      </trkpt>
      <trkpt lat="45.42233" lon="3.91418">
        <ele>834.08</ele>
        <time>2022-08-28T14:12:29Z</time>
      </trkpt>
      <trkpt lat="45.42232" lon="3.91423">
        <ele>836.48</ele>
        <time>2022-08-28T14:12:43Z</time>
      </trkpt>
      <trkpt lat="45.42233" lon="3.9142">
        <ele>836.48</ele>
        <time>2022-08-28T14:12:58Z</time>
      </trkpt>
      <trkpt lat="45.42231" lon="3.91415">
        <ele>836.96</ele>
        <time>2022-08-28T14:13:12Z</time>
      </trkpt>
      <trkpt lat="45.42232" lon="3.91416">
        <ele>837.45</ele>
        <time>2022-08-28T14:13:34Z</time>
      </trkpt>
      <trkpt lat="45.42232" lon="3.91413">
        <ele>836.96</ele>
        <time>2022-08-28T14:13:55Z</time>
      </trkpt>
      <trkpt lat="45.42233" lon="3.91417">
        <ele>836</ele>
        <time>2022-08-28T14:14:14Z</time>
      </trkpt>
      <trkpt lat="45.42235" lon="3.91412">
        <ele>835.52</ele>
        <time>2022-08-28T14:14:26Z</time>
      </trkpt>
      <trkpt lat="45.42235" lon="3.91419">
        <ele>835.04</ele>
        <time>2022-08-28T14:14:41Z</time>
      </trkpt>
      <trkpt lat="45.42235" lon="3.91415">
        <ele>834.56</ele>
        <time>2022-08-28T14:14:54Z</time>
      </trkpt>
      <trkpt lat="45.42235" lon="3.9142">
        <ele>834.56</ele>
        <time>2022-08-28T14:15:09Z</time>
      </trkpt>
      <trkpt lat="45.42234" lon="3.91421">
        <ele>835.04</ele>
        <time>2022-08-28T14:15:28Z</time>
      </trkpt>
      <trkpt lat="45.42236" lon="3.91424">
        <ele>832.64</ele>
        <time>2022-08-28T14:15:55Z</time>
      </trkpt>
      <trkpt lat="45.42234" lon="3.9142">
        <ele>833.12</ele>
        <time>2022-08-28T14:16:15Z</time>
      </trkpt>
      <trkpt lat="45.42232" lon="3.91419">
        <ele>833.6</ele>
        <time>2022-08-28T14:16:29Z</time>
      </trkpt>
      <trkpt lat="45.42233" lon="3.91416">
        <ele>833.12</ele>
        <time>2022-08-28T14:16:47Z</time>
      </trkpt>
      <trkpt lat="45.42234" lon="3.91415">
        <ele>832.64</ele>
        <time>2022-08-28T14:17:07Z</time>
      </trkpt>
      <trkpt lat="45.42234" lon="3.9142">
        <ele>833.6</ele>
        <time>2022-08-28T14:17:21Z</time>
      </trkpt>
      <trkpt lat="45.42233" lon="3.91416">
        <ele>834.08</ele>
        <time>2022-08-28T14:17:37Z</time>
      </trkpt>
      <trkpt lat="45.42233" lon="3.91409">
        <ele>832.64</ele>
        <time>2022-08-28T14:17:55Z</time>
      </trkpt>
      <trkpt lat="45.42233" lon="3.91407">
        <ele>834.08</ele>
        <time>2022-08-28T14:18:22Z</time>
      </trkpt>
      <trkpt lat="45.42231" lon="3.91406">
        <ele>834.56</ele>
        <time>2022-08-28T14:18:25Z</time>
      </trkpt>
      <trkpt lat="45.42221" lon="3.91413">
        <ele>835.04</ele>
        <time>2022-08-28T14:18:37Z</time>
      </trkpt>
      <trkpt lat="45.4222" lon="3.91414">
        <ele>835.04</ele>
        <time>2022-08-28T14:18:38Z</time>
      </trkpt>
      <trkpt lat="45.42218" lon="3.91412">
        <ele>834.08</ele>
        <time>2022-08-28T14:18:52Z</time>
      </trkpt>
      <trkpt lat="45.4222" lon="3.9141">
        <ele>833.6</ele>
        <time>2022-08-28T14:19:03Z</time>
      </trkpt>
      <trkpt lat="45.42222" lon="3.91409">
        <ele>835.52</ele>
        <time>2022-08-28T14:19:20Z</time>
      </trkpt>
      <trkpt lat="45.42227" lon="3.91407">
        <ele>831.68</ele>
        <time>2022-08-28T14:19:58Z</time>
      </trkpt>
      <trkpt lat="45.42228" lon="3.91409">
        <ele>833.6</ele>
        <time>2022-08-28T14:20:23Z</time>
      </trkpt>
      <trkpt lat="45.42231" lon="3.91409">
        <ele>838.89</ele>
        <time>2022-08-28T14:20:51Z</time>
      </trkpt>
      <trkpt lat="45.42232" lon="3.91405">
        <ele>836.48</ele>
        <time>2022-08-28T14:21:04Z</time>
      </trkpt>
      <trkpt lat="45.42235" lon="3.91416">
        <ele>836</ele>
        <time>2022-08-28T14:21:17Z</time>
      </trkpt>
      <trkpt lat="45.42234" lon="3.91417">
        <ele>838.41</ele>
        <time>2022-08-28T14:21:38Z</time>
      </trkpt>
      <trkpt lat="45.42233" lon="3.91417">
        <ele>839.85</ele>
        <time>2022-08-28T14:21:57Z</time>
      </trkpt>
      <trkpt lat="45.42233" lon="3.91419">
        <ele>839.37</ele>
        <time>2022-08-28T14:22:24Z</time>
      </trkpt>
      <trkpt lat="45.42235" lon="3.91416">
        <ele>838.41</ele>
        <time>2022-08-28T14:22:54Z</time>
      </trkpt>
      <trkpt lat="45.42234" lon="3.91416">
        <ele>838.89</ele>
        <time>2022-08-28T14:23:14Z</time>
      </trkpt>
      <trkpt lat="45.42234" lon="3.91417">
        <ele>836.48</ele>
        <time>2022-08-28T14:23:32Z</time>
      </trkpt>
      <trkpt lat="45.42234" lon="3.91417">
        <ele>836.48</ele>
        <time>2022-08-28T14:23:50Z</time>
      </trkpt>
      <trkpt lat="45.42233" lon="3.91418">
        <ele>836.96</ele>
        <time>2022-08-28T14:24:09Z</time>
      </trkpt>
      <trkpt lat="45.42233" lon="3.91418">
        <ele>836</ele>
        <time>2022-08-28T14:24:29Z</time>
      </trkpt>
      <trkpt lat="45.42234" lon="3.91419">
        <ele>836</ele>
        <time>2022-08-28T14:24:32Z</time>
      </trkpt>
      <trkpt lat="45.42232" lon="3.91413">
        <ele>836</ele>
        <time>2022-08-28T14:24:41Z</time>
      </trkpt>
      <trkpt lat="45.42226" lon="3.91411">
        <ele>836.96</ele>
        <time>2022-08-28T14:24:48Z</time>
      </trkpt>
      <trkpt lat="45.42218" lon="3.91418">
        <ele>836</ele>
        <time>2022-08-28T14:25:06Z</time>
      </trkpt>
      <trkpt lat="45.42215" lon="3.91415">
        <ele>834.56</ele>
        <time>2022-08-28T14:25:29Z</time>
      </trkpt>
      <trkpt lat="45.42215" lon="3.91413">
        <ele>834.56</ele>
        <time>2022-08-28T14:25:46Z</time>
      </trkpt>
      <trkpt lat="45.42215" lon="3.91412">
        <ele>831.68</ele>
        <time>2022-08-28T14:26:03Z</time>
      </trkpt>
      <trkpt lat="45.42214" lon="3.91412">
        <ele>831.68</ele>
        <time>2022-08-28T14:26:17Z</time>
      </trkpt>
      <trkpt lat="45.42216" lon="3.91411">
        <ele>832.16</ele>
        <time>2022-08-28T14:26:33Z</time>
      </trkpt>
      <trkpt lat="45.42215" lon="3.91412">
        <ele>832.16</ele>
        <time>2022-08-28T14:26:51Z</time>
      </trkpt>
      <trkpt lat="45.42216" lon="3.91411">
        <ele>832.64</ele>
        <time>2022-08-28T14:27:16Z</time>
      </trkpt>
      <trkpt lat="45.4222" lon="3.9141">
        <ele>833.12</ele>
        <time>2022-08-28T14:27:31Z</time>
      </trkpt>
      <trkpt lat="45.4222" lon="3.91411">
        <ele>833.12</ele>
        <time>2022-08-28T14:27:47Z</time>
      </trkpt>
      <trkpt lat="45.4222" lon="3.91413">
        <ele>831.68</ele>
        <time>2022-08-28T14:28:05Z</time>
      </trkpt>
      <trkpt lat="45.42221" lon="3.91414">
        <ele>832.64</ele>
        <time>2022-08-28T14:28:26Z</time>
      </trkpt>
      <trkpt lat="45.42222" lon="3.9141">
        <ele>833.6</ele>
        <time>2022-08-28T14:28:50Z</time>
      </trkpt>
      <trkpt lat="45.42223" lon="3.91409">
        <ele>833.6</ele>
        <time>2022-08-28T14:28:51Z</time>
      </trkpt>
      <trkpt lat="45.42235" lon="3.91408">
        <ele>835.52</ele>
        <time>2022-08-28T14:29:07Z</time>
      </trkpt>
      <trkpt lat="45.42235" lon="3.91418">
        <ele>835.52</ele>
        <time>2022-08-28T14:29:21Z</time>
      </trkpt>
      <trkpt lat="45.42235" lon="3.9142">
        <ele>835.04</ele>
        <time>2022-08-28T14:29:39Z</time>
      </trkpt>
      <trkpt lat="45.42234" lon="3.9142">
        <ele>833.12</ele>
        <time>2022-08-28T14:29:53Z</time>
      </trkpt>
      <trkpt lat="45.42235" lon="3.9142">
        <ele>833.12</ele>
        <time>2022-08-28T14:30:06Z</time>
      </trkpt>
      <trkpt lat="45.42233" lon="3.91417">
        <ele>834.56</ele>
        <time>2022-08-28T14:30:31Z</time>
      </trkpt>
      <trkpt lat="45.42239" lon="3.91418">
        <ele>835.52</ele>
        <time>2022-08-28T14:30:46Z</time>
      </trkpt>
      <trkpt lat="45.42239" lon="3.91418">
        <ele>837.45</ele>
        <time>2022-08-28T14:31:12Z</time>
      </trkpt>
      <trkpt lat="45.42235" lon="3.91416">
        <ele>833.6</ele>
        <time>2022-08-28T14:31:23Z</time>
      </trkpt>
      <trkpt lat="45.42234" lon="3.91419">
        <ele>834.56</ele>
        <time>2022-08-28T14:31:38Z</time>
      </trkpt>
      <trkpt lat="45.42234" lon="3.91417">
        <ele>836</ele>
        <time>2022-08-28T14:31:52Z</time>
      </trkpt>
      <trkpt lat="45.42239" lon="3.91414">
        <ele>836.48</ele>
        <time>2022-08-28T14:32:05Z</time>
      </trkpt>
      <trkpt lat="45.42241" lon="3.91415">
        <ele>835.04</ele>
        <time>2022-08-28T14:32:25Z</time>
      </trkpt>
      <trkpt lat="45.42244" lon="3.91419">
        <ele>836.48</ele>
        <time>2022-08-28T14:32:58Z</time>
      </trkpt>
      <trkpt lat="45.42247" lon="3.91423">
        <ele>837.93</ele>
        <time>2022-08-28T14:33:33Z</time>
      </trkpt>
      <trkpt lat="45.42245" lon="3.91423">
        <ele>839.37</ele>
        <time>2022-08-28T14:34:06Z</time>
      </trkpt>
      <trkpt lat="45.42247" lon="3.91422">
        <ele>841.29</ele>
        <time>2022-08-28T14:34:36Z</time>
      </trkpt>
      <trkpt lat="45.42245" lon="3.91418">
        <ele>840.81</ele>
        <time>2022-08-28T14:35:08Z</time>
      </trkpt>
      <trkpt lat="45.42245" lon="3.9142">
        <ele>842.25</ele>
        <time>2022-08-28T14:35:41Z</time>
      </trkpt>
      <trkpt lat="45.42244" lon="3.9142">
        <ele>841.77</ele>
        <time>2022-08-28T14:36:16Z</time>
      </trkpt>
      <trkpt lat="45.42247" lon="3.91423">
        <ele>840.81</ele>
        <time>2022-08-28T14:36:46Z</time>
      </trkpt>
      <trkpt lat="45.42248" lon="3.91421">
        <ele>839.37</ele>
        <time>2022-08-28T14:37:17Z</time>
      </trkpt>
      <trkpt lat="45.42245" lon="3.91421">
        <ele>838.89</ele>
        <time>2022-08-28T14:37:53Z</time>
      </trkpt>
      <trkpt lat="45.42251" lon="3.91423">
        <ele>841.29</ele>
        <time>2022-08-28T14:38:28Z</time>
      </trkpt>
      <trkpt lat="45.42245" lon="3.91419">
        <ele>838.89</ele>
        <time>2022-08-28T14:39:10Z</time>
      </trkpt>
      <trkpt lat="45.42242" lon="3.91412">
        <ele>835.04</ele>
        <time>2022-08-28T14:39:48Z</time>
      </trkpt>
      <trkpt lat="45.42244" lon="3.91415">
        <ele>831.68</ele>
        <time>2022-08-28T14:40:25Z</time>
      </trkpt>
      <trkpt lat="45.42245" lon="3.91425">
        <ele>835.52</ele>
        <time>2022-08-28T14:40:59Z</time>
      </trkpt>
      <trkpt lat="45.42243" lon="3.91428">
        <ele>840.33</ele>
        <time>2022-08-28T14:41:42Z</time>
      </trkpt>
      <trkpt lat="45.42242" lon="3.91424">
        <ele>841.77</ele>
        <time>2022-08-28T14:42:29Z</time>
      </trkpt>
      <trkpt lat="45.42247" lon="3.91421">
        <ele>838.41</ele>
        <time>2022-08-28T14:43:07Z</time>
      </trkpt>
      <trkpt lat="45.42245" lon="3.91415">
        <ele>832.16</ele>
        <time>2022-08-28T14:43:50Z</time>
      </trkpt>
      <trkpt lat="45.42244" lon="3.91414">
        <ele>830.72</ele>
        <time>2022-08-28T14:44:37Z</time>
      </trkpt>
      <trkpt lat="45.42243" lon="3.91416">
        <ele>830.24</ele>
        <time>2022-08-28T14:45:19Z</time>
      </trkpt>
      <trkpt lat="45.42245" lon="3.91415">
        <ele>834.08</ele>
        <time>2022-08-28T14:45:58Z</time>
      </trkpt>
      <trkpt lat="45.42245" lon="3.91415">
        <ele>833.12</ele>
        <time>2022-08-28T14:46:46Z</time>
      </trkpt>
      <trkpt lat="45.42243" lon="3.91412">
        <ele>828.31</ele>
        <time>2022-08-28T14:47:26Z</time>
      </trkpt>
      <trkpt lat="45.42249" lon="3.91419">
        <ele>833.6</ele>
        <time>2022-08-28T14:48:02Z</time>
      </trkpt>
      <trkpt lat="45.42249" lon="3.91417">
        <ele>833.6</ele>
        <time>2022-08-28T14:48:46Z</time>
      </trkpt>
      <trkpt lat="45.42252" lon="3.91417">
        <ele>833.12</ele>
        <time>2022-08-28T14:49:22Z</time>
      </trkpt>
      <trkpt lat="45.4225" lon="3.91416">
        <ele>834.08</ele>
        <time>2022-08-28T14:49:59Z</time>
      </trkpt>
      <trkpt lat="45.42252" lon="3.91412">
        <ele>836.48</ele>
        <time>2022-08-28T14:50:34Z</time>
      </trkpt>
      <trkpt lat="45.42243" lon="3.91419">
        <ele>837.45</ele>
        <time>2022-08-28T14:50:55Z</time>
      </trkpt>
      <trkpt lat="45.42238" lon="3.91417">
        <ele>836.96</ele>
        <time>2022-08-28T14:51:17Z</time>
      </trkpt>
      <trkpt lat="45.42236" lon="3.91419">
        <ele>835.04</ele>
        <time>2022-08-28T14:51:30Z</time>
      </trkpt>
      <trkpt lat="45.42235" lon="3.91418">
        <ele>835.52</ele>
        <time>2022-08-28T14:51:48Z</time>
      </trkpt>
      <trkpt lat="45.42234" lon="3.91419">
        <ele>836.96</ele>
        <time>2022-08-28T14:52:11Z</time>
      </trkpt>
      <trkpt lat="45.42234" lon="3.91418">
        <ele>836</ele>
        <time>2022-08-28T14:52:28Z</time>
      </trkpt>
      <trkpt lat="45.42235" lon="3.91416">
        <ele>837.45</ele>
        <time>2022-08-28T14:52:47Z</time>
      </trkpt>
      <trkpt lat="45.42234" lon="3.91417">
        <ele>837.45</ele>
        <time>2022-08-28T14:53:07Z</time>
      </trkpt>
      <trkpt lat="45.42235" lon="3.91419">
        <ele>836.48</ele>
        <time>2022-08-28T14:53:21Z</time>
      </trkpt>
      <trkpt lat="45.42235" lon="3.91419">
        <ele>836.48</ele>
        <time>2022-08-28T14:53:35Z</time>
      </trkpt>
      <trkpt lat="45.42234" lon="3.91417">
        <ele>836.96</ele>
        <time>2022-08-28T14:53:50Z</time>
      </trkpt>
      <trkpt lat="45.42233" lon="3.91417">
        <ele>838.89</ele>
        <time>2022-08-28T14:54:15Z</time>
      </trkpt>
      <trkpt lat="45.42234" lon="3.91418">
        <ele>837.93</ele>
        <time>2022-08-28T14:54:35Z</time>
      </trkpt>
      <trkpt lat="45.42233" lon="3.91416">
        <ele>837.93</ele>
        <time>2022-08-28T14:54:38Z</time>
      </trkpt>
      <trkpt lat="45.42224" lon="3.91411">
        <ele>835.52</ele>
        <time>2022-08-28T14:54:50Z</time>
      </trkpt>
      <trkpt lat="45.42221" lon="3.91412">
        <ele>835.04</ele>
        <time>2022-08-28T14:54:53Z</time>
      </trkpt>
      <trkpt lat="45.42217" lon="3.91417">
        <ele>836.48</ele>
        <time>2022-08-28T14:55:05Z</time>
      </trkpt>
      <trkpt lat="45.42217" lon="3.91415">
        <ele>835.52</ele>
        <time>2022-08-28T14:55:24Z</time>
      </trkpt>
      <trkpt lat="45.42218" lon="3.91409">
        <ele>836.48</ele>
        <time>2022-08-28T14:55:43Z</time>
      </trkpt>
      <trkpt lat="45.42219" lon="3.9141">
        <ele>835.04</ele>
        <time>2022-08-28T14:55:58Z</time>
      </trkpt>
      <trkpt lat="45.4222" lon="3.91415">
        <ele>835.52</ele>
        <time>2022-08-28T14:56:15Z</time>
      </trkpt>
      <trkpt lat="45.42221" lon="3.91417">
        <ele>836.96</ele>
        <time>2022-08-28T14:56:33Z</time>
      </trkpt>
      <trkpt lat="45.42219" lon="3.91412">
        <ele>836.48</ele>
        <time>2022-08-28T14:56:51Z</time>
      </trkpt>
      <trkpt lat="45.42219" lon="3.91414">
        <ele>834.56</ele>
        <time>2022-08-28T14:57:04Z</time>
      </trkpt>
      <trkpt lat="45.42217" lon="3.91414">
        <ele>834.56</ele>
        <time>2022-08-28T14:57:19Z</time>
      </trkpt>
      <trkpt lat="45.42218" lon="3.91416">
        <ele>834.08</ele>
        <time>2022-08-28T14:57:29Z</time>
      </trkpt>
      <trkpt lat="45.42217" lon="3.91417">
        <ele>834.56</ele>
        <time>2022-08-28T14:57:44Z</time>
      </trkpt>
      <trkpt lat="45.42218" lon="3.91419">
        <ele>834.56</ele>
        <time>2022-08-28T14:58:01Z</time>
      </trkpt>
      <trkpt lat="45.42218" lon="3.9142">
        <ele>836</ele>
        <time>2022-08-28T14:58:20Z</time>
      </trkpt>
      <trkpt lat="45.42213" lon="3.91423">
        <ele>836</ele>
        <time>2022-08-28T14:58:41Z</time>
      </trkpt>
      <trkpt lat="45.42212" lon="3.91418">
        <ele>835.52</ele>
        <time>2022-08-28T14:58:59Z</time>
      </trkpt>
      <trkpt lat="45.42213" lon="3.91417">
        <ele>832.16</ele>
        <time>2022-08-28T14:59:18Z</time>
      </trkpt>
      <trkpt lat="45.42211" lon="3.91417">
        <ele>831.2</ele>
        <time>2022-08-28T14:59:33Z</time>
      </trkpt>
      <trkpt lat="45.42215" lon="3.91411">
        <ele>832.16</ele>
        <time>2022-08-28T14:59:51Z</time>
      </trkpt>
      <trkpt lat="45.42217" lon="3.91406">
        <ele>833.12</ele>
        <time>2022-08-28T15:00:07Z</time>
      </trkpt>
      <trkpt lat="45.42218" lon="3.91412">
        <ele>832.64</ele>
        <time>2022-08-28T15:00:18Z</time>
      </trkpt>
      <trkpt lat="45.42217" lon="3.91416">
        <ele>834.56</ele>
        <time>2022-08-28T15:00:31Z</time>
      </trkpt>
      <trkpt lat="45.42216" lon="3.91414">
        <ele>833.6</ele>
        <time>2022-08-28T15:00:46Z</time>
      </trkpt>
      <trkpt lat="45.42214" lon="3.91416">
        <ele>833.6</ele>
        <time>2022-08-28T15:00:59Z</time>
      </trkpt>
      <trkpt lat="45.42212" lon="3.91418">
        <ele>834.08</ele>
        <time>2022-08-28T15:01:13Z</time>
      </trkpt>
      <trkpt lat="45.42211" lon="3.91415">
        <ele>833.6</ele>
        <time>2022-08-28T15:01:29Z</time>
      </trkpt>
      <trkpt lat="45.42215" lon="3.9141">
        <ele>832.64</ele>
        <time>2022-08-28T15:01:45Z</time>
      </trkpt>
      <trkpt lat="45.42217" lon="3.91407">
        <ele>832.64</ele>
        <time>2022-08-28T15:01:59Z</time>
      </trkpt>
      <trkpt lat="45.42217" lon="3.91406">
        <ele>835.04</ele>
        <time>2022-08-28T15:02:25Z</time>
      </trkpt>
      <trkpt lat="45.42217" lon="3.91408">
        <ele>835.04</ele>
        <time>2022-08-28T15:02:26Z</time>
      </trkpt>
      <trkpt lat="45.42216" lon="3.91412">
        <ele>836.48</ele>
        <time>2022-08-28T15:02:41Z</time>
      </trkpt>
      <trkpt lat="45.42216" lon="3.91409">
        <ele>836</ele>
        <time>2022-08-28T15:02:57Z</time>
      </trkpt>
      <trkpt lat="45.42219" lon="3.91408">
        <ele>836</ele>
        <time>2022-08-28T15:03:04Z</time>
      </trkpt>
      <trkpt lat="45.42229" lon="3.91406">
        <ele>835.04</ele>
        <time>2022-08-28T15:03:14Z</time>
      </trkpt>
      <trkpt lat="45.42235" lon="3.91416">
        <ele>834.08</ele>
        <time>2022-08-28T15:03:30Z</time>
      </trkpt>
      <trkpt lat="45.42235" lon="3.91416">
        <ele>834.08</ele>
        <time>2022-08-28T15:03:49Z</time>
      </trkpt>
      <trkpt lat="45.42236" lon="3.91415">
        <ele>835.04</ele>
        <time>2022-08-28T15:04:09Z</time>
      </trkpt>
      <trkpt lat="45.42235" lon="3.9141">
        <ele>834.08</ele>
        <time>2022-08-28T15:04:20Z</time>
      </trkpt>
      <trkpt lat="45.42235" lon="3.91408">
        <ele>836</ele>
        <time>2022-08-28T15:04:33Z</time>
      </trkpt>
      <trkpt lat="45.42237" lon="3.9141">
        <ele>835.04</ele>
        <time>2022-08-28T15:04:46Z</time>
      </trkpt>
      <trkpt lat="45.42239" lon="3.91408">
        <ele>834.08</ele>
        <time>2022-08-28T15:05:02Z</time>
      </trkpt>
      <trkpt lat="45.42235" lon="3.91408">
        <ele>835.04</ele>
        <time>2022-08-28T15:05:15Z</time>
      </trkpt>
      <trkpt lat="45.42236" lon="3.9141">
        <ele>835.52</ele>
        <time>2022-08-28T15:05:30Z</time>
      </trkpt>
      <trkpt lat="45.42234" lon="3.91409">
        <ele>835.04</ele>
        <time>2022-08-28T15:05:47Z</time>
      </trkpt>
      <trkpt lat="45.42235" lon="3.91409">
        <ele>835.04</ele>
        <time>2022-08-28T15:05:59Z</time>
      </trkpt>
      <trkpt lat="45.42237" lon="3.91409">
        <ele>835.04</ele>
        <time>2022-08-28T15:06:01Z</time>
      </trkpt>
      <trkpt lat="45.42237" lon="3.91415">
        <ele>833.12</ele>
        <time>2022-08-28T15:06:17Z</time>
      </trkpt>
      <trkpt lat="45.42238" lon="3.91415">
        <ele>833.12</ele>
        <time>2022-08-28T15:06:33Z</time>
      </trkpt>
    </trkseg>
  </trk>
</gpx>